Provisional Data: South Branch Codorus Creek near Leader Heights, PA


Please select a monitoring station.
Please select start date.
Please select start date.

Toggle Unit: C/F Toggle Unit: C/F
Sample Time Temperature (C) Temperature (F) Specific Conductivity (mS/cm) pH   Turbidity (NTU+) DO (mg/L)
2/4/2021 12:00:00 AM 1.59 34.862 0.238 7.62 6.45 13.66
2/4/2021 12:15:00 AM 1.6 34.88 0.233 7.61 6.62 13.65
2/4/2021 12:30:00 AM 1.57 34.826 0.231 7.6 6.15 13.63
2/4/2021 12:45:00 AM 1.59 34.862 0.231 7.6 7.02 13.63
2/4/2021 1:00:00 AM 1.56 34.808 0.233 7.61 6.66 13.64
2/4/2021 1:15:00 AM 1.56 34.808 0.238 7.58 6.16 13.63
2/4/2021 1:30:00 AM 1.53 34.754 0.237 7.59 6.31 13.63
2/4/2021 1:45:00 AM 1.49 34.682 0.236 7.58 6.54 13.65
2/4/2021 2:00:00 AM 1.48 34.664 0.236 7.58 6.79 13.63
2/4/2021 2:15:00 AM 1.46 34.628 0.235 7.59 6.11 13.65
2/4/2021 2:30:00 AM 1.44 34.592 0.234 7.58 6.37 13.65
2/4/2021 2:45:00 AM 1.43 34.574 0.234 7.58 7.49 13.64
2/4/2021 3:00:00 AM 1.43 34.574 0.233 7.57 6.13 13.63
2/4/2021 3:15:00 AM 1.4 34.52 0.234 7.56 16.53 13.65
2/4/2021 3:30:00 AM 1.37 34.466 0.235 7.55 6.46 13.64
2/4/2021 3:45:00 AM 1.36 34.448 0.237 7.57 6.79 13.65
2/4/2021 4:00:00 AM 1.34 34.412 0.236 7.56 9.06 13.64
2/4/2021 4:15:00 AM 1.29 34.322 0.237 7.54 5.77 13.66
2/4/2021 4:30:00 AM 1.29 34.322 0.234 7.53 6.26 13.66
2/4/2021 4:45:00 AM 1.24 34.232 0.235 7.53 6.34 13.67
2/4/2021 5:00:00 AM 1.22 34.196 0.234 7.52 5.86 13.66
2/4/2021 5:15:00 AM 1.21 34.178 0.233 7.55 6.04 13.67
2/4/2021 5:30:00 AM 1.18 34.124 0.233 7.54 6.07 13.69
2/4/2021 5:45:00 AM 1.14 34.052 0.235 7.54 6.29 13.69
2/4/2021 6:00:00 AM 1.11 33.998 0.238 7.55 5.74 13.7
2/4/2021 6:15:00 AM 1.08 33.944 0.237 7.54 5.78 13.69
2/4/2021 6:30:00 AM 1.05 33.89 0.237 7.53 6.25 13.71
2/4/2021 6:45:00 AM 1.02 33.836 0.236 7.53 6.09 13.73
2/4/2021 7:00:00 AM 0.98 33.764 0.236 7.53 6.6 13.74
2/4/2021 7:15:00 AM 0.97 33.746 0.235 7.52 6.06 13.74
2/4/2021 7:30:00 AM 0.93 33.674 0.234 7.52 6.07 13.78
2/4/2021 7:45:00 AM 0.9 33.62 0.236 7.51 6.89 13.87
2/4/2021 8:00:00 AM 0.91 33.638 0.236 7.53 6.47 14
2/4/2021 8:15:00 AM 0.93 33.674 0.237 7.51 6.2 14.13
2/4/2021 8:30:00 AM 0.92 33.656 0.237 7.52 5.98 14.29
2/4/2021 8:45:00 AM 0.95 33.71 0.236 7.51 6.88 14.46
2/4/2021 9:00:00 AM 1 33.8 0.235 7.54 7.75 14.61
2/4/2021 9:15:00 AM 1.07 33.926 0.234 7.56 6.98 14.79
2/4/2021 9:30:00 AM 1.14 34.052 0.234 7.59 6.51 14.94
2/4/2021 9:45:00 AM 1.25 34.25 0.232 7.6 7.48 15.04
2/4/2021 10:00:00 AM 1.35 34.43 0.234 7.64 6.66 15.14
2/4/2021 10:15:00 AM 1.48 34.664 0.232 7.67 6.45 15.22
2/4/2021 10:30:00 AM 1.59 34.862 0.232 7.7 6.71 15.26
2/4/2021 10:45:00 AM 1.68 35.024 0.234 7.71 6.56 15.33
2/4/2021 11:00:00 AM 1.86 35.348 0.232 7.75 6.46 15.37
2/4/2021 11:15:00 AM 1.95 35.51 0.232 7.77 6.79 15.41
2/4/2021 11:30:00 AM 2.11 35.798 0.232 7.8 6.97 15.44
2/4/2021 11:45:00 AM 2.23 36.014 0.232 7.81 8.14 15.44
2/4/2021 12:00:00 PM 2.39 36.302 0.232 7.83 6.43 15.46
2/4/2021 12:15:00 PM 2.49 36.482 0.233 7.84 5.63 15.47
2/4/2021 12:30:00 PM 2.65 36.77 0.23 7.86 7.62 15.45
2/4/2021 12:45:00 PM 2.76 36.968 0.23 7.87 6.79 15.43
2/4/2021 1:00:00 PM 2.82 37.076 0.231 7.9 7.38 15.43
2/4/2021 1:15:00 PM 2.91 37.238 0.233 7.89 6.44 15.42
2/4/2021 1:30:00 PM 2.99 37.382 0.233 7.88 6.78 15.41
2/4/2021 1:45:00 PM 3.04 37.472 0.232 7.9 6.72 15.38
2/4/2021 2:00:00 PM 3.07 37.526 0.23 7.9 6.67 15.38
2/4/2021 2:15:00 PM 3.12 37.616 0.23 7.91 6 15.35
2/4/2021 2:30:00 PM 3.11 37.598 0.23 7.9 5.98 15.32
2/4/2021 2:45:00 PM 3.12 37.616 0.232 7.89 6.78 15.29
2/4/2021 3:00:00 PM 3.12 37.616 0.232 7.89 6.37 15.24
2/4/2021 3:15:00 PM 3.12 37.616 0.233 7.89 6.73 15.19
2/4/2021 3:30:00 PM 3.1 37.58 0.235 7.88 6.61 15.14
2/4/2021 3:45:00 PM 3.06 37.508 0.235 7.89 7.08 15.06
2/4/2021 4:00:00 PM 3.02 37.436 0.236 7.85 7.98 14.96
2/4/2021 4:15:00 PM 2.95 37.31 0.236 7.84 7.44 14.9
2/4/2021 4:30:00 PM 2.89 37.202 0.236 7.83 7.16 14.8
2/4/2021 4:45:00 PM 2.82 37.076 0.235 7.81 6.65 14.7
2/4/2021 5:00:00 PM 2.75 36.95 0.234 7.77 6.67 14.55
2/4/2021 5:15:00 PM 2.68 36.824 0.234 7.72 6.83 14.42
2/4/2021 5:30:00 PM 2.61 36.698 0.234 6.69 6.91 14.3
2/4/2021 5:45:00 PM 2.55 36.59 0.237 7.1 6.56 14.2
2/4/2021 6:00:00 PM 2.5 36.5 0.236 7.23 7.01 14.09
2/4/2021 6:15:00 PM 2.44 36.392 0.235 7.31 6.93 14.01
2/4/2021 6:30:00 PM 2.39 36.302 0.243 7.36 6.52 13.93
2/4/2021 6:45:00 PM 2.34 36.212 0.239 7.4 7.31 13.88
2/4/2021 7:00:00 PM 2.28 36.104 0.23 7.39 9.19 13.85
2/4/2021 7:15:00 PM 2.24 36.032 0.218 7.43 6.83 13.81
2/4/2021 7:30:00 PM 2.18 35.924 0.228 7.35 6.86 13.77
2/4/2021 7:45:00 PM 2.16 35.888 0.225 7.4 6.66 13.74
2/4/2021 8:00:00 PM 2.13 35.834 0.231 7.45 6.16 13.7
2/4/2021 8:15:00 PM 2.12 35.816 0.231 7.48 6.4 13.68
2/4/2021 8:30:00 PM 2.11 35.798 0.234 7.5 6.14 13.65
2/4/2021 8:45:00 PM 2.08 35.744 0.235 7.49 6.55 13.65
2/4/2021 9:00:00 PM 2.09 35.762 0.23 7.5 6.47 13.61
2/4/2021 9:15:00 PM 2.08 35.744 0.23 7.51 6.47 13.6
2/4/2021 9:30:00 PM 2.09 35.762 0.231 7.51 7.05 13.56
2/4/2021 9:45:00 PM 2.09 35.762 0.234 7.51 6.68 13.55
2/4/2021 10:00:00 PM 2.09 35.762 0.23 7.52 6.23 13.53
2/4/2021 10:15:00 PM 2.11 35.798 0.23 7.52 7.18 13.51
2/4/2021 10:30:00 PM 2.14 35.852 0.231 7.52 6.47 13.49
2/4/2021 10:45:00 PM 2.15 35.87 0.232 7.52 6.61 13.47
2/4/2021 11:00:00 PM 2.17 35.906 0.234 7.53 6.72 13.46
2/4/2021 11:15:00 PM 2.2 35.96 0.235 7.51 6.51 13.41
2/4/2021 11:30:00 PM 2.21 35.978 0.232 7.52 7.81 13.4
2/4/2021 11:45:00 PM 2.24 36.032 0.218 7.52 5.8 13.4
2/5/2021 12:00:00 AM 2.27 36.086 0.222 7.52 6.1 13.37
2/5/2021 12:15:00 AM 2.29 36.122 0.237 7.51 5.8 13.36
2/5/2021 12:30:00 AM 2.33 36.194 0.238 7.53 5.84 13.33
2/5/2021 12:45:00 AM 2.36 36.248 0.237 7.52 6.12 13.32
2/5/2021 1:00:00 AM 2.38 36.284 0.238 7.52 5.67 13.32
2/5/2021 1:15:00 AM 2.4 36.32 0.241 7.53 5.65 13.29
2/5/2021 1:30:00 AM 2.41 36.338 0.24 7.48 5.59 13.28
2/5/2021 1:45:00 AM 2.43 36.374 0.243 7.49 5.64 13.26
2/5/2021 2:00:00 AM 2.43 36.374 0.233 7.46 5.51 13.26
2/5/2021 2:15:00 AM 2.45 36.41 0.21 7.47 5.86 13.24
2/5/2021 2:30:00 AM 2.45 36.41 0.229 7.34 6.32 13.24
2/5/2021 2:45:00 AM 2.45 36.41 0.235 7.41 5.89 13.24
2/5/2021 3:00:00 AM 2.44 36.392 0.229 7.44 6.85 13.24
2/5/2021 3:15:00 AM 2.43 36.374 0.232 7.44 5.26 13.24
2/5/2021 3:30:00 AM 2.44 36.392 0.235 7.45 5.88 13.22
2/5/2021 3:45:00 AM 2.44 36.392 0.227 7.47 5.72 13.21
2/5/2021 4:00:00 AM 2.43 36.374 0.209 7.47 5.86 13.19
2/5/2021 4:15:00 AM 2.44 36.392 0.207 7.46 5.85 13.19
2/5/2021 4:30:00 AM 2.42 36.356 0.217 7.46 6.56 13.2
2/5/2021 4:45:00 AM 2.39 36.302 0.218 7.44 5.87 13.19
2/5/2021 5:00:00 AM 2.37 36.266 0.218 7.47 5.93 13.19
2/5/2021 5:15:00 AM 2.36 36.248 0.22 7.47 6 13.17
2/5/2021 5:30:00 AM 2.33 36.194 0.22 7.47 6.9 13.18
2/5/2021 5:45:00 AM 2.32 36.176 0.224 7.47 6.22 13.16
2/5/2021 6:00:00 AM 2.3 36.14 0.231 7.46 6.11 13.18
2/5/2021 6:15:00 AM 2.29 36.122 0.229 7.46 6.63 13.16
2/5/2021 6:30:00 AM 2.29 36.122 0.227 7.47 7 13.16
2/5/2021 6:45:00 AM 2.28 36.104 0.226 7.47 6.11 13.16
2/5/2021 7:00:00 AM 2.28 36.104 0.231 7.48 5.97 13.17
2/5/2021 7:15:00 AM 2.28 36.104 0.231 7.45 5.63 13.18
2/5/2021 7:30:00 AM 2.27 36.086 0.231 7.47 6.63 13.18
2/5/2021 7:45:00 AM 2.27 36.086 0.234 7.44 6.26 13.22
2/5/2021 8:00:00 AM 2.31 36.158 0.234 7.45 6.9 13.34
2/5/2021 8:15:00 AM 2.32 36.176 0.237 7.46 7.12 13.5
2/5/2021 8:30:00 AM 2.33 36.194 0.241 7.47 6.39 13.66
2/5/2021 8:45:00 AM 2.34 36.212 0.24 7.49 6.61 13.82
2/5/2021 9:00:00 AM 2.38 36.284 0.243 7.52 6.83 14
2/5/2021 9:15:00 AM 2.44 36.392 0.242 7.53 6.21 14.18
2/5/2021 9:30:00 AM 2.52 36.536 0.242 7.56 6.25 14.32
2/5/2021 9:45:00 AM 2.6 36.68 0.241 7.6 6.24 14.49
2/5/2021 10:00:00 AM 2.68 36.824 0.24 7.62 6.5 14.59
2/5/2021 10:15:00 AM 2.78 37.004 0.239 7.67 7.25 14.66
2/5/2021 10:30:00 AM 2.88 37.184 0.239 7.71 7.41 14.72
2/5/2021 10:45:00 AM 2.98 37.364 0.241 7.74 7.14 14.78
2/5/2021 11:00:00 AM 3.11 37.598 0.235 7.77 6.2 14.87
2/5/2021 11:15:00 AM 3.2 37.76 0.236 7.79 6.68 14.92
2/5/2021 11:30:00 AM 3.31 37.958 0.234 7.81 7.17 15
2/5/2021 11:45:00 AM 3.42 38.156 0.233 7.84 7 15.05
2/5/2021 12:00:00 PM 3.54 38.372 0.234 7.86 7.22 15.08
2/5/2021 12:15:00 PM 3.69 38.642 0.234 7.88 6.7 15.1
2/5/2021 12:30:00 PM 3.82 38.876 0.234 7.9 7 15.11
2/5/2021 12:45:00 PM 3.96 39.128 0.235 7.92 6.95 15.12
2/5/2021 1:00:00 PM 4.08 39.344 0.234 7.96 6.65 15.12
2/5/2021 1:15:00 PM 4.15 39.47 0.235 7.96 6.23 15.09
2/5/2021 1:30:00 PM 4.22 39.596 0.234 7.97 7.85 15.11
2/5/2021 1:45:00 PM 4.3 39.74 0.229 7.99 6.77 15.1
2/5/2021 2:00:00 PM 4.36 39.848 0.237 8 11.3 15.1
2/5/2021 2:15:00 PM 4.38 39.884 0.236 7.99 6.39 15.08
2/5/2021 2:30:00 PM 4.39 39.902 0.235 8 6.77 15.02
2/5/2021 2:45:00 PM 4.38 39.884 0.236 8.01 6.79 15.01
2/5/2021 3:00:00 PM 4.36 39.848 0.233 8.01 6.71 14.94
2/5/2021 3:15:00 PM 4.39 39.902 0.225 8.03 7.25 14.9
2/5/2021 3:30:00 PM 4.38 39.884 0.223 8.03 6.78 14.79
2/5/2021 3:45:00 PM 4.36 39.848 0.223 8.03 6.75 14.72
2/5/2021 4:00:00 PM 4.32 39.776 0.224 8.04 6.65 14.65
2/5/2021 4:15:00 PM 4.25 39.65 0.222 8.03 7.1 14.49
2/5/2021 4:30:00 PM 4.18 39.524 0.223 8.01 7.85 14.38
2/5/2021 4:45:00 PM 4.08 39.344 0.222 7.99 7.71 14.27
2/5/2021 5:00:00 PM 3.99 39.182 0.223 7.98 7.1 14.15
2/5/2021 5:15:00 PM 3.92 39.056 0.223 7.96 7.06 14.02
2/5/2021 5:30:00 PM 3.86 38.948 0.222 7.95 7.17 13.87
2/5/2021 5:45:00 PM 3.8 38.84 0.223 7.92 7.68 13.73
2/5/2021 6:00:00 PM 3.74 38.732 0.229 7.89 6.93 13.59
2/5/2021 6:15:00 PM 3.68 38.624 0.233 7.86 7.55 13.49
2/5/2021 6:30:00 PM 3.63 38.534 0.233 7.85 6.87 13.4
2/5/2021 6:45:00 PM 3.56 38.408 0.223 7.83 6.85 13.36
2/5/2021 7:00:00 PM 3.5 38.3 0.232 7.81 7.31 13.3
2/5/2021 7:15:00 PM 3.45 38.21 0.231 7.79 6.57 13.25
2/5/2021 7:30:00 PM 3.4 38.12 0.232 7.78 7.29 13.2
2/5/2021 7:45:00 PM 3.37 38.066 0.233 7.76 6.78 13.17
2/5/2021 8:00:00 PM 3.36 38.048 0.233 7.75 6.63 13.13
2/5/2021 8:15:00 PM 3.34 38.012 0.232 7.74 8.82 13.11
2/5/2021 8:30:00 PM 3.31 37.958 0.232 7.72 7.05 13.09
2/5/2021 8:45:00 PM 3.28 37.904 0.232 7.71 7.42 13.07
2/5/2021 9:00:00 PM 3.26 37.868 0.234 7.69 6.95 13.07
2/5/2021 9:15:00 PM 3.24 37.832 0.231 7.69 7.05 13.05
2/5/2021 9:30:00 PM 3.22 37.796 0.233 7.67 6.79 13.05
2/5/2021 9:45:00 PM 3.19 37.742 0.216 7.67 7.15 13.03
2/5/2021 10:00:00 PM 3.2 37.76 0.221 7.68 7.21 13.02
2/5/2021 10:15:00 PM 3.19 37.742 0.23 7.67 6.88 13.01
2/5/2021 10:30:00 PM 3.18 37.724 0.222 7.67 7.01 12.96
2/5/2021 10:45:00 PM 3.18 37.724 0.227 7.65 7.54 12.98
2/5/2021 11:00:00 PM 3.18 37.724 0.226 7.64 6.81 12.96
2/5/2021 11:15:00 PM 3.2 37.76 0.225 7.63 7.75 12.95
2/5/2021 11:30:00 PM 3.18 37.724 0.226 7.59 8.11 12.96
2/5/2021 11:45:00 PM 3.16 37.688 0.223 7.59 9.93 12.97
2/6/2021 12:00:00 AM 3.14 37.652 0.236 7.58 7.34 12.96
2/6/2021 12:15:00 AM 3.12 37.616 0.22 7.59 7.6 12.96
2/6/2021 12:30:00 AM 3.09 37.562 0.217 7.59 9.6 12.97
2/6/2021 12:45:00 AM 3.09 37.562 0.23 7.59 8.47 12.95
2/6/2021 1:00:00 AM 3.05 37.49 0.224 7.59 8.67 12.97
2/6/2021 1:15:00 AM 3 37.4 0.222 7.59 8.78 12.97
2/6/2021 1:30:00 AM 2.97 37.346 0.227 7.59 11.21 12.97
2/6/2021 1:45:00 AM 2.92 37.256 0.231 7.59 8.96 12.99
2/6/2021 2:00:00 AM 2.88 37.184 0.231 7.58 8.94 12.98
2/6/2021 2:15:00 AM 2.84 37.112 0.219 7.58 8.97 12.97
2/6/2021 2:30:00 AM 2.8 37.04 0.219 7.58 9.15 12.98
2/6/2021 2:45:00 AM 2.74 36.932 0.217 7.58 8.61 12.97
2/6/2021 3:00:00 AM 2.7 36.86 0.209 7.57 8.8 12.99
2/6/2021 3:15:00 AM 2.67 36.806 0.206 7.58 9.63 13
2/6/2021 3:30:00 AM 2.61 36.698 0.207 7.57 8.84 13.01
2/6/2021 3:45:00 AM 2.57 36.626 0.21 7.55 9.13 13.01
2/6/2021 4:00:00 AM 2.53 36.554 0.213 7.55 8.82 13.03
2/6/2021 4:15:00 AM 2.48 36.464 0.216 7.55 8.04 13.04
2/6/2021 4:30:00 AM 2.45 36.41 0.209 7.56 7.74 13.03
2/6/2021 4:45:00 AM 2.42 36.356 0.207 7.55 7.44 13.05
2/6/2021 5:00:00 AM 2.39 36.302 0.215 7.55 7.21 13.07
2/6/2021 5:15:00 AM 2.35 36.23 0.203 7.54 7.83 13.07
2/6/2021 5:30:00 AM 2.32 36.176 0.214 7.55 7.63 13.1
2/6/2021 5:45:00 AM 2.3 36.14 0.218 7.53 7.48 13.08
2/6/2021 6:00:00 AM 2.28 36.104 0.221 7.54 6.8 13.1
2/6/2021 6:15:00 AM 2.25 36.05 0.225 7.54 8.92 13.14
2/6/2021 6:30:00 AM 2.23 36.014 0.232 7.53 8.37 13.14
2/6/2021 6:45:00 AM 2.21 35.978 0.216 7.54 6.95 13.15
2/6/2021 7:00:00 AM 2.19 35.942 0.219 7.53 6.79 13.16
2/6/2021 7:15:00 AM 2.17 35.906 0.222 7.52 7.51 13.18
2/6/2021 7:30:00 AM 2.15 35.87 0.219 7.53 7.44 13.22
2/6/2021 7:45:00 AM 2.13 35.834 0.223 7.52 7.42 13.3
2/6/2021 8:00:00 AM 2.13 35.834 0.223 7.53 8.22 13.41
2/6/2021 8:15:00 AM 2.13 35.834 0.223 7.53 7.4 13.56
2/6/2021 8:30:00 AM 2.15 35.87 0.221 7.55 9.64 13.7
2/6/2021 8:45:00 AM 2.19 35.942 0.217 7.56 8.29 13.9
2/6/2021 9:00:00 AM 2.24 36.032 0.218 7.56 8.2 14.05
2/6/2021 9:15:00 AM 2.31 36.158 0.22 7.58 7.7 14.22
2/6/2021 9:30:00 AM 2.4 36.32 0.218 7.61 8.03 14.35
2/6/2021 9:45:00 AM 2.49 36.482 0.225 7.63 8.46 14.46
2/6/2021 10:00:00 AM 2.58 36.644 0.225 7.66 8.07 14.56
2/6/2021 10:15:00 AM 2.69 36.842 0.221 7.7 9.21 14.64
2/6/2021 10:30:00 AM 2.8 37.04 0.226 7.72 8.1 14.72
2/6/2021 10:45:00 AM 2.89 37.202 0.222 7.74 7.56 14.77
2/6/2021 11:00:00 AM 2.99 37.382 0.221 7.77 7.88 14.83
2/6/2021 11:15:00 AM 3.11 37.598 0.217 7.8 7.21 14.89
2/6/2021 11:30:00 AM 3.18 37.724 0.22 7.81 7.49 14.93
2/6/2021 11:45:00 AM 3.26 37.868 0.219 7.84 6.75 14.95
2/6/2021 12:00:00 PM 3.32 37.976 0.22 7.83 7.43 14.95
2/6/2021 12:15:00 PM 3.38 38.084 0.22 7.85 7.47 14.99
2/6/2021 12:30:00 PM 3.42 38.156 0.221 7.86 7.94 15.02
2/6/2021 12:45:00 PM 3.48 38.264 0.222 7.87 7.6 15.04
2/6/2021 1:00:00 PM 3.55 38.39 0.222 7.89 8.36 15.09
2/6/2021 1:15:00 PM 3.57 38.426 0.22 7.9 7.14 15.13
2/6/2021 1:30:00 PM 3.59 38.462 0.218 7.91 7.75 15.15
2/6/2021 1:45:00 PM 3.61 38.498 0.215 7.91 7.26 15.12
2/6/2021 2:00:00 PM 3.66 38.588 0.212 7.92 8.13 15.18
2/6/2021 2:15:00 PM 3.72 38.696 0.211 7.88 7.08 15.21
2/6/2021 2:30:00 PM 3.75 38.75 0.209 7.89 7.16 15.18
2/6/2021 2:45:00 PM 3.75 38.75 0.21 7.91 6.94 15.14
2/6/2021 3:00:00 PM 3.73 38.714 0.209 7.91 7.76 15.08
2/6/2021 3:15:00 PM 3.73 38.714 0.211 7.93 7.22 15.06
2/6/2021 3:30:00 PM 3.7 38.66 0.211 7.94 7.1 15
2/6/2021 3:45:00 PM 3.66 38.588 0.211 7.95 7.43 14.98
2/6/2021 4:00:00 PM 3.63 38.534 0.21 7.95 6.93 14.96
2/6/2021 4:15:00 PM 3.58 38.444 0.209 7.94 7.75 14.94
2/6/2021 4:30:00 PM 3.54 38.372 0.209 7.94 7.17 14.87
2/6/2021 4:45:00 PM 3.48 38.264 0.208 7.94 7.61 14.77
2/6/2021 5:00:00 PM 3.43 38.174 0.207 7.93 9.35 14.63
2/6/2021 5:15:00 PM 3.38 38.084 0.208 7.93 9.16 14.48
2/6/2021 5:30:00 PM 3.34 38.012 0.208 7.9 7.81 14.31
2/6/2021 5:45:00 PM 3.31 37.958 0.208 7.87 7.23 14.17
2/6/2021 6:00:00 PM 3.27 37.886 0.209 7.88 7.78 14.02
2/6/2021 6:15:00 PM 3.21 37.778 0.236 7.84 7.14 13.9
2/6/2021 6:30:00 PM 3.16 37.688 0.214 7.8 9.09 13.8
2/6/2021 6:45:00 PM 3.12 37.616 0.211 7.78 6.95 13.71
2/6/2021 7:00:00 PM 3.07 37.526 0.212 7.77 6.99 13.66
2/6/2021 7:15:00 PM 3.03 37.454 0.226 7.75 6.75 13.59
2/6/2021 7:30:00 PM 2.98 37.364 0.221 7.73 8.1 13.53
2/6/2021 7:45:00 PM 2.94 37.292 0.219 7.72 7.1 13.53
2/6/2021 8:00:00 PM 2.92 37.256 0.221 7.69 6.86 13.48
2/6/2021 8:15:00 PM 2.9 37.22 0.219 7.69 6.86 13.47
2/6/2021 8:30:00 PM 2.88 37.184 0.22 7.67 6.83 13.44
2/6/2021 8:45:00 PM 2.86 37.148 0.219 7.64 7.12 13.42
2/6/2021 9:00:00 PM 2.85 37.13 0.22 7.63 7.14 13.41
2/6/2021 9:15:00 PM 2.83 37.094 0.22 7.61 7.35 13.38
2/6/2021 9:30:00 PM 2.82 37.076 0.221 7.59 7.47 13.37
2/6/2021 9:45:00 PM 2.8 37.04 0.219 7.58 6.73 13.36
2/6/2021 10:00:00 PM 2.79 37.022 0.219 7.58 7.36 13.34
2/6/2021 10:15:00 PM 2.79 37.022 0.217 7.58 7.34 13.31
2/6/2021 10:30:00 PM 2.79 37.022 0.217 7.57 6.96 13.29
2/6/2021 10:45:00 PM 2.79 37.022 0.216 7.55 6.81 13.27
2/6/2021 11:00:00 PM 2.79 37.022 0.218 7.57 6.94 13.27
2/6/2021 11:15:00 PM 2.78 37.004 0.217 7.57 7.16 13.24
2/6/2021 11:30:00 PM 2.77 36.986 0.213 7.56 7.12 13.23
2/6/2021 11:45:00 PM 2.77 36.986 0.213 7.56 7.48 13.23
2/7/2021 12:00:00 AM 2.75 36.95 0.212 7.55 6.95 13.22
2/7/2021 12:15:00 AM 2.75 36.95 0.21 7.55 7.18 13.22
2/7/2021 12:30:00 AM 2.74 36.932 0.212 7.56 7.18 13.22
2/7/2021 12:45:00 AM 2.73 36.914 0.21 7.55 7.19 13.21
2/7/2021 1:00:00 AM 2.72 36.896 0.206 7.54 6.33 13.22
2/7/2021 1:15:00 AM 2.71 36.878 0.208 7.54 6.47 13.21
2/7/2021 1:30:00 AM 2.7 36.86 0.209 7.54 7.72 13.22
2/7/2021 1:45:00 AM 2.69 36.842 0.21 7.53 6.78 13.21
2/7/2021 2:00:00 AM 2.68 36.824 0.209 7.54 7.36 13.24
2/7/2021 2:15:00 AM 2.66 36.788 0.208 7.53 6.49 13.21
2/7/2021 2:30:00 AM 2.65 36.77 0.209 7.53 6.77 13.21
2/7/2021 2:45:00 AM 2.64 36.752 0.209 7.54 7.29 13.21
2/7/2021 3:00:00 AM 2.63 36.734 0.21 7.53 6.12 13.18
2/7/2021 3:15:00 AM 2.63 36.734 0.211 7.52 6.61 13.21
2/7/2021 3:30:00 AM 2.62 36.716 0.212 7.51 8.25 13.18
2/7/2021 3:45:00 AM 2.61 36.698 0.212 7.52 8.22 13.18
2/7/2021 4:00:00 AM 2.61 36.698 0.213 7.51 6.7 13.16
2/7/2021 4:15:00 AM 2.6 36.68 0.212 7.53 7.47 13.17
2/7/2021 4:30:00 AM 2.59 36.662 0.212 7.52 6.89 13.15
2/7/2021 4:45:00 AM 2.59 36.662 0.212 7.53 6.15 13.16
2/7/2021 5:00:00 AM 2.59 36.662 0.213 7.53 6.63 13.17
2/7/2021 5:15:00 AM 2.59 36.662 0.212 7.51 11.71 13.15
2/7/2021 5:30:00 AM 2.58 36.644 0.212 7.51 7.06 13.15
2/7/2021 5:45:00 AM 2.57 36.626 0.213 7.51 6.86 13.13
2/7/2021 6:00:00 AM 2.55 36.59 0.214 7.52 6.69 13.13
2/7/2021 6:15:00 AM 2.5 36.5 0.211 7.5 6.43 13.13
2/7/2021 6:30:00 AM 2.45 36.41 0.211 7.52 6.68 13.14
2/7/2021 6:45:00 AM 2.39 36.302 0.212 7.5 6.14 13.13
2/7/2021 7:00:00 AM 2.35 36.23 0.212 7.52 5.94 13.15
2/7/2021 7:15:00 AM 2.3 36.14 0.212 7.52 6.68 13.16
2/7/2021 7:30:00 AM 2.24 36.032 0.211 7.54 6.81 13.17
2/7/2021 7:45:00 AM 2.2 35.96 0.211 7.53 7.09 13.21
2/7/2021 8:00:00 AM 2.16 35.888 0.213 7.54 6.74 13.26
2/7/2021 8:15:00 AM 2.18 35.924 0.213 7.56 6.32 13.36
2/7/2021 8:30:00 AM 2.16 35.888 0.213 7.56 6.45 13.45
2/7/2021 8:45:00 AM 2.13 35.834 0.21 7.57 6.46 13.57
2/7/2021 9:00:00 AM 2.11 35.798 0.21 7.57 7.02 13.7
2/7/2021 9:15:00 AM 2.12 35.816 0.211 7.57 6.55 13.9
2/7/2021 9:30:00 AM 2.15 35.87 0.21 7.56 7.24 14.08
2/7/2021 9:45:00 AM 2.21 35.978 0.209 7.58 6.72 14.28
2/7/2021 10:00:00 AM 2.26 36.068 0.21 7.6 6.02 14.41
2/7/2021 10:15:00 AM 2.31 36.158 0.21 7.61 7.05 14.47
2/7/2021 10:30:00 AM 2.34 36.212 0.212 7.62 6.26 14.49
2/7/2021 10:45:00 AM 2.35 36.23 0.212 7.62 6.93 14.5
2/7/2021 11:00:00 AM 2.36 36.248 0.211 7.62 6.09 14.56
2/7/2021 11:15:00 AM 2.39 36.302 0.211 7.6 6.29 14.68
2/7/2021 11:30:00 AM 2.46 36.428 0.211 7.64 6.42 14.77
2/7/2021 11:45:00 AM 2.52 36.536 0.211 7.67 6.44 14.84
2/7/2021 12:00:00 PM 2.57 36.626 0.209 7.68 6.43 14.88
2/7/2021 12:15:00 PM 2.61 36.698 0.209 7.71 6.71 14.93
2/7/2021 12:30:00 PM 2.67 36.806 0.208 7.72 6.34 15.02
2/7/2021 12:45:00 PM 2.75 36.95 0.211 7.75 6.55 15.05
2/7/2021 1:00:00 PM 2.77 36.986 0.211 7.77 6.65 15.01
2/7/2021 1:15:00 PM 2.82 37.076 0.209 7.77 6.36 14.99
2/7/2021 1:30:00 PM 2.86 37.148 0.208 7.78 6.1 15.03
2/7/2021 1:45:00 PM 2.92 37.256 0.206 7.79 6.51 15.04
2/7/2021 2:00:00 PM 2.96 37.328 0.206 7.81 6.55 15.07
2/7/2021 2:15:00 PM 3.01 37.418 0.206 7.81 6.39 15.08
2/7/2021 2:30:00 PM 3.02 37.436 0.206 7.82 6.67 15.04
2/7/2021 2:45:00 PM 3.05 37.49 0.207 7.83 6.33 15
2/7/2021 3:00:00 PM 3.1 37.58 0.207 7.84 6.03 15.05
2/7/2021 3:15:00 PM 3.15 37.67 0.207 7.85 7.27 15.06
2/7/2021 3:30:00 PM 3.15 37.67 0.208 7.86 7.78 15.04
2/7/2021 3:45:00 PM 3.14 37.652 0.207 7.87 6.94 14.97
2/7/2021 4:00:00 PM 3.12 37.616 0.207 7.85 6.96 14.94
2/7/2021 4:15:00 PM 3.12 37.616 0.206 7.86 6.38 14.89
2/7/2021 4:30:00 PM 3.1 37.58 0.205 7.85 6.39 14.81
2/7/2021 4:45:00 PM 3.06 37.508 0.204 7.83 6.35 14.69
2/7/2021 5:00:00 PM 3.02 37.436 0.203 7.81 6.49 14.6
2/7/2021 5:15:00 PM 2.98 37.364 0.204 7.83 6.09 14.49
2/7/2021 5:30:00 PM 2.94 37.292 0.204 7.79 6.19 14.33
2/7/2021 5:45:00 PM 2.9 37.22 0.206 7.78 6.85 14.18
2/7/2021 6:00:00 PM 2.85 37.13 0.207 7.78 6.94 14.03
2/7/2021 6:15:00 PM 2.8 37.04 0.207 7.77 6.36 13.93
2/7/2021 6:30:00 PM 2.75 36.95 0.207 7.75 6.79 13.83
2/7/2021 6:45:00 PM 2.69 36.842 0.222 7.73 6.55 13.76
2/7/2021 7:00:00 PM 2.62 36.716 0.21 7.69 6.51 13.72
2/7/2021 7:15:00 PM 2.57 36.626 0.208 7.66 6.98 13.68
2/7/2021 7:30:00 PM 2.53 36.554 0.195 7.63 6.43 13.63
2/7/2021 7:45:00 PM 2.5 36.5 0.218 7.61 6.78 13.6
2/7/2021 8:00:00 PM 2.46 36.428 0.216 7.55 6.65 13.59
2/7/2021 8:15:00 PM 2.42 36.356 0.212 7.35 7.06 13.58
2/7/2021 8:30:00 PM 2.38 36.284 0.219 7.21 6.27 13.57
2/7/2021 8:45:00 PM 2.35 36.23 0.22 7.23 6.57 13.54
2/7/2021 9:00:00 PM 2.32 36.176 0.223 7.19 6.4 13.54
2/7/2021 9:15:00 PM 2.3 36.14 0.224 7.27 7.48 13.52
2/7/2021 9:30:00 PM 2.25 36.05 0.222 7.26 6.68 13.52
2/7/2021 9:45:00 PM 2.23 36.014 0.233 7.21 6.59 13.51
2/7/2021 10:00:00 PM 2.21 35.978 0.221 7.23 6.66 13.51
2/7/2021 10:15:00 PM 2.17 35.906 0.23 7.25 6.59 13.5
2/7/2021 10:30:00 PM 2.15 35.87 0.223 7.22 6.54 13.49
2/7/2021 10:45:00 PM 2.12 35.816 0.225 7.16 6.77 13.48
2/7/2021 11:00:00 PM 2.09 35.762 0.226 7.22 6.76 13.48
2/7/2021 11:15:00 PM 2.06 35.708 0.226 7.24 6.13 13.5
2/7/2021 11:30:00 PM 2.05 35.69 0.225 7.26 6.61 13.49
2/7/2021 11:45:00 PM 2.02 35.636 0.219 7.27 6.23 13.5
2/8/2021 12:00:00 AM 2 35.6 0.22 7.29 6.6 13.5
2/8/2021 12:15:00 AM 1.97 35.546 0.218 7.29 6.24 13.5
2/8/2021 12:30:00 AM 1.94 35.492 0.219 7.29 6.5 13.5
2/8/2021 12:45:00 AM 1.92 35.456 0.219 7.3 6.95 13.53
2/8/2021 1:00:00 AM 1.89 35.402 0.219 7.31 6.52 13.53
2/8/2021 1:15:00 AM 1.88 35.384 0.219 7.3 6.7 13.52
2/8/2021 1:30:00 AM 1.83 35.294 0.219 7.31 6.95 13.54
2/8/2021 1:45:00 AM 1.81 35.258 0.227 7.3 6.89 13.55
2/8/2021 2:00:00 AM 1.78 35.204 0.229 7.29 6.98 13.54
2/8/2021 2:15:00 AM 1.75 35.15 0.224 7.3 6.54 13.52
2/8/2021 2:30:00 AM 1.71 35.078 0.225 7.3 6.91 13.55
2/8/2021 2:45:00 AM 1.68 35.024 0.222 7.3 7.02 13.55
2/8/2021 3:00:00 AM 1.66 34.988 0.223 7.31 7.85 13.54
2/8/2021 3:15:00 AM 1.61 34.898 0.223 7.31 6.93 13.56
2/8/2021 3:30:00 AM 1.58 34.844 0.222 7.28 6.76 13.57
2/8/2021 3:45:00 AM 1.54 34.772 0.221 7.22 6.48 13.58
2/8/2021 4:00:00 AM 1.5 34.7 0.22 7.21 6.93 13.58
2/8/2021 4:15:00 AM 1.48 34.664 0.219 7.21 7.05 13.59
2/8/2021 4:30:00 AM 1.44 34.592 0.216 7.23 6.12 13.62
2/8/2021 4:45:00 AM 1.43 34.574 0.215 7.21 6.76 13.6
2/8/2021 5:00:00 AM 1.38 34.484 0.211 7.15 6.09 13.63
2/8/2021 5:15:00 AM 1.4 34.52 0.21 7.09 6.52 13.63
2/8/2021 5:30:00 AM 1.38 34.484 0.213 7.12 6.31 13.63
2/8/2021 5:45:00 AM 1.37 34.466 0.215 7.11 6.32 13.64
2/8/2021 6:00:00 AM 1.35 34.43 0.214 7.12 6.18 13.65
2/8/2021 6:15:00 AM 1.36 34.448 0.214 7.09 6.24 13.65
2/8/2021 6:30:00 AM 1.3 34.34 0.216 7.11 7.26 13.67
2/8/2021 6:45:00 AM 1.28 34.304 0.213 7.11 6.95 13.67
2/8/2021 7:00:00 AM 1.27 34.286 0.213 7.12 6.11 13.67
2/8/2021 7:15:00 AM 1.21 34.178 0.213 7.14 7.08 13.71
2/8/2021 7:30:00 AM 1.2 34.16 0.212 7.18 7.66 13.75
2/8/2021 7:45:00 AM 1.19 34.142 0.211 7.18 7.11 13.82
2/8/2021 8:00:00 AM 1.17 34.106 0.216 7.21 7.5 13.98
2/8/2021 8:15:00 AM 1.16 34.088 0.217 7.22 7.42 14.19
2/8/2021 8:30:00 AM 1.18 34.124 0.217 7.24 6.82 14.37
2/8/2021 8:45:00 AM 1.17 34.106 0.216 7.26 6.63 14.54
2/8/2021 9:00:00 AM 1.24 34.232 0.216 7.28 8.2 14.74
2/8/2021 9:15:00 AM 1.3 34.34 0.216 7.32 6.51 14.91
2/8/2021 9:30:00 AM 1.34 34.412 0.217 7.33 7.34 15.04
2/8/2021 9:45:00 AM 1.42 34.556 0.218 7.37 7.33 15.16
2/8/2021 10:00:00 AM 1.54 34.772 0.219 7.42 6.72 15.24
2/8/2021 10:15:00 AM 1.64 34.952 0.22 7.44 6.98 15.36
2/8/2021 10:30:00 AM 1.71 35.078 0.224 7.48 6.71 15.45
2/8/2021 10:45:00 AM 1.81 35.258 0.225 7.5 7.04 15.5
2/8/2021 11:00:00 AM 1.89 35.402 0.226 7.54 6.48 15.53
2/8/2021 11:15:00 AM 1.98 35.564 0.225 7.58 6.79 15.57
2/8/2021 11:30:00 AM 2.13 35.834 0.226 7.59 6.6 15.59
2/8/2021 11:45:00 AM 2.24 36.032 0.225 7.61 7.81 15.61
2/8/2021 12:00:00 PM 2.37 36.266 0.226 7.61 7.1 15.6
2/8/2021 12:15:00 PM 2.47 36.446 0.226 7.64 7.38 15.62
2/8/2021 12:30:00 PM 2.59 36.662 0.226 7.66 6.93 15.62
2/8/2021 12:45:00 PM 2.63 36.734 0.228 7.66 7.32 15.64
2/8/2021 1:00:00 PM 2.69 36.842 0.23 7.68 7.49 15.65
2/8/2021 1:15:00 PM 2.76 36.968 0.23 7.69 7.22 15.63
2/8/2021 1:30:00 PM 2.79 37.022 0.229 7.7 6.94 15.64
2/8/2021 1:45:00 PM 2.83 37.094 0.24 7.71 6.57 15.63
2/8/2021 2:00:00 PM 2.89 37.202 0.241 7.73 6.91 15.63
2/8/2021 2:15:00 PM 2.93 37.274 0.238 7.73 8.46 15.6
2/8/2021 2:30:00 PM 2.93 37.274 0.235 7.73 7.92 15.58
2/8/2021 2:45:00 PM 2.96 37.328 0.233 7.75 8.11 15.53
2/8/2021 3:00:00 PM 2.94 37.292 0.233 7.75 8.65 15.51
2/8/2021 3:15:00 PM 2.95 37.31 0.232 7.74 7.51 15.46
2/8/2021 3:30:00 PM 2.91 37.238 0.233 7.75 7.75 15.42
2/8/2021 3:45:00 PM 2.88 37.184 0.231 7.75 7.43 15.36
2/8/2021 4:00:00 PM 2.81 37.058 0.233 7.73 7.58 15.29
2/8/2021 4:15:00 PM 2.78 37.004 0.23 7.7 8.24 15.19
2/8/2021 4:30:00 PM 2.7 36.86 0.228 7.73 8.45 15.13
2/8/2021 4:45:00 PM 2.64 36.752 0.227 7.73 7.45 15.05
2/8/2021 5:00:00 PM 2.58 36.644 0.224 7.72 7.31 14.94
2/8/2021 5:15:00 PM 2.53 36.554 0.222 7.71 8.21 14.83
2/8/2021 5:30:00 PM 2.46 36.428 0.222 7.7 7.29 14.69
2/8/2021 5:45:00 PM 2.41 36.338 0.224 7.68 7.46 14.55
2/8/2021 6:00:00 PM 2.35 36.23 0.223 7.66 8.07 14.45
2/8/2021 6:15:00 PM 2.28 36.104 0.215 7.64 7.26 14.32
2/8/2021 6:30:00 PM 2.23 36.014 0.218 7.63 6.49 14.29
2/8/2021 6:45:00 PM 2.17 35.906 0.229 7.64 7 14.23
2/8/2021 7:00:00 PM 2.11 35.798 0.228 7.61 6.89 14.16
2/8/2021 7:15:00 PM 2.07 35.726 0.229 7.6 7.98 14.11
2/8/2021 7:30:00 PM 2.02 35.636 0.227 7.6 6.95 14.07
2/8/2021 7:45:00 PM 2 35.6 0.226 7.58 7.08 14.02
2/8/2021 8:00:00 PM 1.97 35.546 0.225 7.57 6.67 13.99
2/8/2021 8:15:00 PM 1.94 35.492 0.231 7.56 6.61 13.97
2/8/2021 8:30:00 PM 1.9 35.42 0.229 7.56 7.34 13.96
2/8/2021 8:45:00 PM 1.89 35.402 0.225 7.55 6.85 13.94
2/8/2021 9:00:00 PM 1.85 35.33 0.226 7.54 7.17 13.94
2/8/2021 9:15:00 PM 1.84 35.312 0.222 7.54 6.99 13.91
2/8/2021 9:30:00 PM 1.82 35.276 0.223 7.53 11.71 13.91
2/8/2021 9:45:00 PM 1.8 35.24 0.223 7.55 7.25 13.9
2/8/2021 10:00:00 PM 1.8 35.24 0.222 7.55 8.27 13.89
2/8/2021 10:15:00 PM 1.79 35.222 0.223 7.53 7.77 13.85
2/8/2021 10:30:00 PM 1.79 35.222 0.225 7.52 8.8 13.83
2/8/2021 10:45:00 PM 1.78 35.204 0.225 7.52 8.63 13.83
2/8/2021 11:00:00 PM 1.78 35.204 0.226 7.51 7.03 13.82
2/8/2021 11:15:00 PM 1.77 35.186 0.225 7.52 7.55 13.79
2/8/2021 11:30:00 PM 1.77 35.186 0.224 7.52 7.54 13.78
2/8/2021 11:45:00 PM 1.77 35.186 0.223 7.51 7.78 13.78
2/9/2021 12:00:00 AM 1.76 35.168 0.223 7.52 6.69 13.77
2/9/2021 12:15:00 AM 1.77 35.186 0.222 7.5 7.13 13.74
2/9/2021 12:30:00 AM 1.77 35.186 0.222 7.29 7.47 13.74
2/9/2021 12:45:00 AM 1.79 35.222 0.223 6.45 7.28 13.72
2/9/2021 1:00:00 AM 1.79 35.222 0.225 7.27 7.07 13.7
2/9/2021 1:15:00 AM 1.78 35.204 0.225 7.39 6.55 13.71
2/9/2021 1:30:00 AM 1.78 35.204 0.221 7.44 7.01 13.72
2/9/2021 1:45:00 AM 1.78 35.204 0.225 7.47 6.87 13.7
2/9/2021 2:00:00 AM 1.79 35.222 0.223 7.45 7.12 13.7
2/9/2021 2:15:00 AM 1.77 35.186 0.224 7.46 7.04 13.68
2/9/2021 2:30:00 AM 1.79 35.222 0.224 7.47 6.88 13.65
2/9/2021 2:45:00 AM 1.79 35.222 0.224 7.48 7.33 13.65
2/9/2021 3:00:00 AM 1.8 35.24 0.22 7.46 7.23 13.64
2/9/2021 3:15:00 AM 1.79 35.222 0.226 7.47 8.21 13.64
2/9/2021 3:30:00 AM 1.79 35.222 0.227 7.47 8.09 13.63
2/9/2021 3:45:00 AM 1.77 35.186 0.227 7.47 7.96 13.63
2/9/2021 4:00:00 AM 1.77 35.186 0.229 7.47 7.65 13.61
2/9/2021 4:15:00 AM 1.75 35.15 0.226 7.47 7.67 13.6
2/9/2021 4:30:00 AM 1.74 35.132 0.226 7.47 7.43 13.59
2/9/2021 4:45:00 AM 1.74 35.132 0.226 7.47 7.79 13.58
2/9/2021 5:00:00 AM 1.74 35.132 0.226 7.45 7.8 13.58
2/9/2021 5:15:00 AM 1.72 35.096 0.224 7.46 6.64 13.57
2/9/2021 5:30:00 AM 1.71 35.078 0.225 7.48 7.03 13.58
2/9/2021 5:45:00 AM 1.71 35.078 0.223 7.46 6.58 13.55
2/9/2021 6:00:00 AM 1.7 35.06 0.224 7.46 6.52 13.55
2/9/2021 6:15:00 AM 1.68 35.024 0.22 7.46 6.52 13.55
2/9/2021 6:30:00 AM 1.71 35.078 0.224 7.43 6.72 13.54
2/9/2021 6:45:00 AM 1.7 35.06 0.223 7.45 6.63 13.52
2/9/2021 7:00:00 AM 1.7 35.06 0.22 7.45 6.57 13.52
2/9/2021 7:15:00 AM 1.71 35.078 0.221 7.45 6.56 13.54
2/9/2021 7:30:00 AM 1.7 35.06 0.223 7.44 7.5 13.56
2/9/2021 7:45:00 AM 1.7 35.06 0.223 7.45 7.66 13.62
2/9/2021 8:00:00 AM 1.71 35.078 0.225 7.45 6.98 13.7
2/9/2021 8:15:00 AM 1.72 35.096 0.227 7.45 7.32 13.83
2/9/2021 8:30:00 AM 1.73 35.114 0.227 7.45 6.9 14.01
2/9/2021 8:45:00 AM 1.76 35.168 0.226 7.45 7.2 14.23
2/9/2021 9:00:00 AM 1.77 35.186 0.225 7.46 6.37 14.42
2/9/2021 9:15:00 AM 1.78 35.204 0.225 7.48 6.78 14.6
2/9/2021 9:30:00 AM 1.89 35.402 0.225 7.5 6.63 14.78
2/9/2021 9:45:00 AM 1.98 35.564 0.225 7.52 7.16 14.99
2/9/2021 10:00:00 AM 2.1 35.78 0.224 7.55 7.67 15.17
2/9/2021 10:15:00 AM 2.16 35.888 0.225 7.57 6.97 15.29
2/9/2021 10:30:00 AM 2.2 35.96 0.226 7.6 6.83 15.38
2/9/2021 10:45:00 AM 2.31 36.158 0.225 7.62 7.69 15.47
2/9/2021 11:00:00 AM 2.38 36.284 0.223 7.65 6.05 15.54
2/9/2021 11:15:00 AM 2.42 36.356 0.223 7.68 6.76 15.56
2/9/2021 11:30:00 AM 2.46 36.428 0.223 7.7 7.27 15.58
2/9/2021 11:45:00 AM 2.53 36.554 0.222 7.67 6.49 15.58
2/9/2021 12:00:00 PM 2.62 36.716 0.22 7.71 6.73 15.61
2/9/2021 12:15:00 PM 2.7 36.86 0.219 7.74 7.08 15.66
2/9/2021 12:30:00 PM 2.79 37.022 0.22 7.76 7.42 15.66
2/9/2021 12:45:00 PM 2.84 37.112 0.22 7.77 7.28 15.67
2/9/2021 1:00:00 PM 2.92 37.256 0.22 7.76 6.69 15.69
2/9/2021 1:15:00 PM 2.94 37.292 0.221 7.81 6.12 15.7
2/9/2021 1:30:00 PM 3 37.4 0.22 7.82 6.82 15.71
2/9/2021 1:45:00 PM 3.06 37.508 0.219 7.85 9.17 15.69
2/9/2021 2:00:00 PM 3.09 37.562 0.219 7.86 6.55 15.65
2/9/2021 2:15:00 PM 3.12 37.616 0.218 7.88 7.02 15.67
2/9/2021 2:30:00 PM 3.18 37.724 0.218 7.89 6.98 15.65
2/9/2021 2:45:00 PM 3.21 37.778 0.217 7.9 6.79 15.64
2/9/2021 3:00:00 PM 3.26 37.868 0.217 7.92 8.19 15.61
2/9/2021 3:15:00 PM 3.27 37.886 0.218 7.92 7.13 15.57
2/9/2021 3:30:00 PM 3.28 37.904 0.218 7.93 7.32 15.51
2/9/2021 3:45:00 PM 3.24 37.832 0.218 7.93 6.81 15.44
2/9/2021 4:00:00 PM 3.22 37.796 0.217 7.94 6.32 15.38
2/9/2021 4:15:00 PM 3.18 37.724 0.217 7.93 6.83 15.29
2/9/2021 4:30:00 PM 3.17 37.706 0.217 7.93 7.76 15.17
2/9/2021 4:45:00 PM 3.12 37.616 0.216 7.91 6.79 15.01
2/9/2021 5:00:00 PM 3.08 37.544 0.216 7.91 6.62 14.81
2/9/2021 5:15:00 PM 3.03 37.454 0.217 7.88 7.42 14.63
2/9/2021 5:30:00 PM 3 37.4 0.218 7.88 6.99 14.46
2/9/2021 5:45:00 PM 2.98 37.364 0.219 7.86 7.96 14.29
2/9/2021 6:00:00 PM 2.95 37.31 0.219 7.72 6.81 14.15
2/9/2021 6:15:00 PM 2.91 37.238 0.22 7.76 7.25 14.05
2/9/2021 6:30:00 PM 2.89 37.202 0.218 7.7 7.43 13.93
2/9/2021 6:45:00 PM 2.86 37.148 0.235 7.72 7.38 13.85
2/9/2021 7:00:00 PM 2.84 37.112 0.223 7.71 7.96 13.8
2/9/2021 7:15:00 PM 2.82 37.076 0.221 7.71 7.12 13.7
2/9/2021 7:30:00 PM 2.8 37.04 0.225 7.7 8.06 13.65
2/9/2021 7:45:00 PM 2.79 37.022 0.224 7.69 6.94 13.58
2/9/2021 8:00:00 PM 2.78 37.004 0.222 7.68 7.45 13.58
2/9/2021 8:15:00 PM 2.78 37.004 0.226 7.67 7.57 13.53
2/9/2021 8:30:00 PM 2.78 37.004 0.226 7.66 7.18 13.5
2/9/2021 8:45:00 PM 2.77 36.986 0.226 7.66 7.04 13.49
2/9/2021 9:00:00 PM 2.75 36.95 0.228 7.66 8.73 13.45
2/9/2021 9:15:00 PM 2.71 36.878 0.226 7.63 7.44 13.43
2/9/2021 9:30:00 PM 2.67 36.806 0.235 7.63 6.48 13.43
2/9/2021 9:45:00 PM 2.64 36.752 0.228 7.61 6.55 13.42
2/9/2021 10:00:00 PM 2.62 36.716 0.223 7.61 7.06 13.39
2/9/2021 10:15:00 PM 2.59 36.662 0.22 7.6 6.35 13.39
2/9/2021 10:30:00 PM 2.57 36.626 0.222 7.6 6.6 13.35
2/9/2021 10:45:00 PM 2.54 36.572 0.219 7.6 6.86 13.34
2/9/2021 11:00:00 PM 2.51 36.518 0.222 7.58 7.16 13.34
2/9/2021 11:15:00 PM 2.49 36.482 0.227 7.59 6.43 13.31
2/9/2021 11:30:00 PM 2.46 36.428 0.222 7.59 6.91 13.33
2/9/2021 11:45:00 PM 2.43 36.374 0.223 7.59 7.18 13.32
2/10/2021 12:00:00 AM 2.41 36.338 0.225 7.59 7 13.31
2/10/2021 12:15:00 AM 2.39 36.302 0.226 7.57 6.72 13.31
2/10/2021 12:30:00 AM 2.36 36.248 0.223 7.58 7.59 13.28
2/10/2021 12:45:00 AM 2.34 36.212 0.224 7.57 6.92 13.31
2/10/2021 1:00:00 AM 2.32 36.176 0.226 7.55 7.27 13.31
2/10/2021 1:15:00 AM 2.31 36.158 0.231 7.57 6.6 13.31
2/10/2021 1:30:00 AM 2.27 36.086 0.228 7.57 7.07 13.32
2/10/2021 1:45:00 AM 2.25 36.05 0.228 7.55 8.11 13.33
2/10/2021 2:00:00 AM 2.22 35.996 0.227 7.56 8.44 13.31
2/10/2021 2:15:00 AM 2.17 35.906 0.225 7.54 8.16 13.35
2/10/2021 2:30:00 AM 2.15 35.87 0.224 7.54 8.35 13.33
2/10/2021 2:45:00 AM 2.15 35.87 0.224 7.55 8.14 13.32
2/10/2021 3:00:00 AM 2.15 35.87 0.231 7.55 7.92 13.34
2/10/2021 3:15:00 AM 2.17 35.906 0.226 7.55 8.15 13.32
2/10/2021 3:30:00 AM 2.16 35.888 0.227 7.54 8.94 13.32
2/10/2021 3:45:00 AM 2.15 35.87 0.225 7.55 10.33 13.33
2/10/2021 4:00:00 AM 2.13 35.834 0.224 7.53 10 13.33
2/10/2021 4:15:00 AM 2.11 35.798 0.223 7.54 8.05 13.33
2/10/2021 4:30:00 AM 2.1 35.78 0.223 7.53 7.81 13.33
2/10/2021 4:45:00 AM 2.08 35.744 0.223 7.53 7.2 13.34
2/10/2021 5:00:00 AM 2.06 35.708 0.221 7.52 7.72 13.33
2/10/2021 5:15:00 AM 2.04 35.672 0.223 7.53 6.37 13.33
2/10/2021 5:30:00 AM 2.02 35.636 0.222 7.52 6.81 13.34
2/10/2021 5:45:00 AM 1.99 35.582 0.223 7.52 6.74 13.35
2/10/2021 6:00:00 AM 1.98 35.564 0.223 7.51 7.09 13.35
2/10/2021 6:15:00 AM 1.97 35.546 0.219 7.51 6.6 13.34
2/10/2021 6:30:00 AM 1.96 35.528 0.219 7.5 6.69 13.36
2/10/2021 6:45:00 AM 1.93 35.474 0.221 7.52 6.39 13.37
2/10/2021 7:00:00 AM 1.94 35.492 0.218 7.51 6.91 13.36
2/10/2021 7:15:00 AM 1.95 35.51 0.219 7.51 7.34 13.39
2/10/2021 7:30:00 AM 1.95 35.51 0.215 7.5 7.73 13.4
2/10/2021 7:45:00 AM 1.95 35.51 0.215 7.51 6.74 13.52
2/10/2021 8:00:00 AM 1.97 35.546 0.213 7.52 8.39 13.67
2/10/2021 8:15:00 AM 1.98 35.564 0.212 7.53 6.13 13.88
2/10/2021 8:30:00 AM 2.02 35.636 0.217 7.53 7.93 14.08
2/10/2021 8:45:00 AM 2.05 35.69 0.218 7.55 7.42 14.31
2/10/2021 9:00:00 AM 2.12 35.816 0.218 7.56 6.51 14.56
2/10/2021 9:15:00 AM 2.19 35.942 0.219 7.58 7.05 14.75
2/10/2021 9:30:00 AM 2.28 36.104 0.218 7.6 6.81 14.93
2/10/2021 9:45:00 AM 2.32 36.176 0.217 7.63 6.98 15.11
2/10/2021 10:00:00 AM 2.41 36.338 0.215 7.66 7.62 15.2
2/10/2021 10:15:00 AM 2.45 36.41 0.213 7.7 7.24 15.26
2/10/2021 10:30:00 AM 2.52 36.536 0.212 7.72 7.81 15.33
2/10/2021 10:45:00 AM 2.62 36.716 0.213 7.74 7.15 15.41
2/10/2021 11:00:00 AM 2.71 36.878 0.214 7.67 6.9 15.52
2/10/2021 11:15:00 AM 2.79 37.022 0.213 7.76 8.52 15.56
2/10/2021 11:30:00 AM 2.9 37.22 0.213 7.81 7.76 15.61
2/10/2021 11:45:00 AM 2.96 37.328 0.212 7.85 5.8 15.65
2/10/2021 12:00:00 PM 3.07 37.526 0.211 7.86 6.72 15.68
2/10/2021 12:15:00 PM 3.15 37.67 0.21 7.89 6.95 15.67
2/10/2021 12:30:00 PM 3.2 37.76 0.21 7.92 6.5 15.71
2/10/2021 12:45:00 PM 3.29 37.922 0.21 7.94 6.36 15.7
2/10/2021 1:00:00 PM 3.33 37.994 0.211 7.97 6.66 15.71
2/10/2021 1:15:00 PM 3.41 38.138 0.211 8 6.45 15.73
2/10/2021 1:30:00 PM 3.47 38.246 0.211 8.03 7.09 15.73
2/10/2021 1:45:00 PM 3.53 38.354 0.21 8.06 6.69 15.75
2/10/2021 2:00:00 PM 3.56 38.408 0.209 8.08 6.97 15.72
2/10/2021 2:15:00 PM 3.56 38.408 0.208 8.07 6.44 15.67
2/10/2021 2:30:00 PM 3.57 38.426 0.207 8.08 6.55 15.64
2/10/2021 2:45:00 PM 3.61 38.498 0.207 8.1 6.63 15.65
2/10/2021 3:00:00 PM 3.64 38.552 0.208 8.1 7.09 15.65
2/10/2021 3:15:00 PM 3.64 38.552 0.208 8.11 6.55 15.6
2/10/2021 3:30:00 PM 3.62 38.516 0.208 8.12 7.13 15.54
2/10/2021 3:45:00 PM 3.6 38.48 0.206 8.1 7.16 15.48
2/10/2021 4:00:00 PM 3.57 38.426 0.207 8.11 7.28 15.45
2/10/2021 4:15:00 PM 3.54 38.372 0.207 8.11 7.17 15.39
2/10/2021 4:30:00 PM 3.49 38.282 0.207 8.1 7.65 15.3
2/10/2021 4:45:00 PM 3.44 38.192 0.207 8.09 7.03 15.2
2/10/2021 5:00:00 PM 3.39 38.102 0.207 8.08 7.76 15.05
2/10/2021 5:15:00 PM 3.34 38.012 0.208 8.07 7.27 14.84
2/10/2021 5:30:00 PM 3.3 37.94 0.237 8.04 7.95 14.59
2/10/2021 5:45:00 PM 3.26 37.868 0.236 8.01 7.41 14.4
2/10/2021 6:00:00 PM 3.23 37.814 0.231 7.99 7.51 14.25
2/10/2021 6:15:00 PM 3.19 37.742 0.231 7.96 7.51 14.11
2/10/2021 6:30:00 PM 3.16 37.688 0.231 7.94 6.89 13.99
2/10/2021 6:45:00 PM 3.12 37.616 0.241 7.92 7.12 13.89
2/10/2021 7:00:00 PM 3.09 37.562 0.234 7.89 6.44 13.81
2/10/2021 7:15:00 PM 3.06 37.508 0.245 7.87 6.69 13.73
2/10/2021 7:30:00 PM 3.03 37.454 0.241 7.85 7.92 13.67
2/10/2021 7:45:00 PM 3.01 37.418 0.243 7.83 7.16 13.62
2/10/2021 8:00:00 PM 3 37.4 0.237 7.86 7 13.57
2/10/2021 8:15:00 PM 3 37.4 0.233 7.94 6.69 13.54
2/10/2021 8:30:00 PM 2.99 37.382 0.23 7.98 6.9 13.47
2/10/2021 8:45:00 PM 2.98 37.364 0.232 7.98 6.48 13.45
2/10/2021 9:00:00 PM 2.97 37.346 0.247 7.94 7.09 13.41
2/10/2021 9:15:00 PM 2.96 37.328 0.228 7.91 6.51 13.38
2/10/2021 9:30:00 PM 2.9 37.22 0.215 7.89 6.65 13.38
2/10/2021 9:45:00 PM 2.86 37.148 0.217 7.86 6.23 13.34
2/10/2021 10:00:00 PM 2.8 37.04 0.234 7.87 7.08 13.33
2/10/2021 10:15:00 PM 2.78 37.004 0.244 7.82 7.46 13.3
2/10/2021 10:30:00 PM 2.75 36.95 0.235 7.82 6.81 13.29
2/10/2021 10:45:00 PM 2.69 36.842 0.235 7.81 6.63 13.25
2/10/2021 11:00:00 PM 2.61 36.698 0.234 7.8 6.8 13.27
2/10/2021 11:15:00 PM 2.55 36.59 0.234 7.79 7.31 13.24
2/10/2021 11:30:00 PM 2.5 36.5 0.234 7.75 7.3 13.26
2/10/2021 11:45:00 PM 2.47 36.446 0.227 7.75 6.73 13.24
2/11/2021 12:00:00 AM 2.46 36.428 0.23 7.72 6.9 13.23
2/11/2021 12:15:00 AM 2.46 36.428 0.229 7.71 6.86 13.24
2/11/2021 12:30:00 AM 2.45 36.41 0.227 7.7 6.91 13.23
2/11/2021 12:45:00 AM 2.46 36.428 0.227 7.69 7.3 13.22
2/11/2021 1:00:00 AM 2.45 36.41 0.228 7.67 7.32 13.26
2/11/2021 1:15:00 AM 2.44 36.392 0.226 7.68 6.42 13.23
2/11/2021 1:30:00 AM 2.45 36.41 0.221 7.66 6.62 13.21
2/11/2021 1:45:00 AM 2.44 36.392 0.218 7.65 6.46 13.23
2/11/2021 2:00:00 AM 2.42 36.356 0.218 7.65 5.92 13.23
2/11/2021 2:15:00 AM 2.41 36.338 0.213 7.64 6.75 13.21
2/11/2021 2:30:00 AM 2.37 36.266 0.213 7.57 7.22 13.23
2/11/2021 2:45:00 AM 2.36 36.248 0.213 7.61 7.63 13.2
2/11/2021 3:00:00 AM 2.36 36.248 0.213 7.62 6.35 13.21
2/11/2021 3:15:00 AM 2.36 36.248 0.215 7.61 7.19 13.19
2/11/2021 3:30:00 AM 2.36 36.248 0.213 7.63 5.72 13.21
2/11/2021 3:45:00 AM 2.36 36.248 0.214 7.63 6.2 13.19
2/11/2021 4:00:00 AM 2.37 36.266 0.216 7.62 6.8 13.2
2/11/2021 4:15:00 AM 2.36 36.248 0.214 7.61 7.18 13.2
2/11/2021 4:30:00 AM 2.37 36.266 0.214 7.61 6.77 13.19
2/11/2021 4:45:00 AM 2.39 36.302 0.211 7.61 6.59 13.16
2/11/2021 5:00:00 AM 2.4 36.32 0.21 7.6 6.29 13.16
2/11/2021 5:15:00 AM 2.41 36.338 0.208 7.6 5.96 13.17
2/11/2021 5:30:00 AM 2.42 36.356 0.215 7.6 7.46 13.15
2/11/2021 5:45:00 AM 2.42 36.356 0.215 7.59 6.45 13.16
2/11/2021 6:00:00 AM 2.43 36.374 0.213 7.59 6.6 13.16
2/11/2021 6:15:00 AM 2.43 36.374 0.219 7.59 5.95 13.15
2/11/2021 6:30:00 AM 2.43 36.374 0.222 7.59 6.02 13.15
2/11/2021 6:45:00 AM 2.43 36.374 0.217 7.59 6.24 13.14
2/11/2021 7:00:00 AM 2.42 36.356 0.207 7.58 6.24 13.16
2/11/2021 7:15:00 AM 2.42 36.356 0.205 7.59 6.28 13.17
2/11/2021 7:30:00 AM 2.41 36.338 0.199 7.58 6.35 13.19
2/11/2021 7:45:00 AM 2.41 36.338 0.199 7.58 6.08 13.26
2/11/2021 8:00:00 AM 2.42 36.356 0.2 7.57 7.08 13.35
2/11/2021 8:15:00 AM 2.42 36.356 0.2 7.59 7.77 13.49
2/11/2021 8:30:00 AM 2.44 36.392 0.199 7.58 7.18 13.61
2/11/2021 8:45:00 AM 2.44 36.392 0.2 7.56 6.14 13.76
2/11/2021 9:00:00 AM 2.46 36.428 0.199 7.6 6.68 13.92
2/11/2021 9:15:00 AM 2.46 36.428 0.198 7.59 6.49 14.08
2/11/2021 9:30:00 AM 2.48 36.464 0.197 7.61 6.43 14.16
2/11/2021 9:45:00 AM 2.47 36.446 0.197 7.62 6.92 14.27
2/11/2021 10:00:00 AM 2.48 36.464 0.197 7.63 6.67 14.37
2/11/2021 10:15:00 AM 2.51 36.518 0.197 7.64 6.49 14.49
2/11/2021 10:30:00 AM 2.51 36.518 0.198 7.63 6.5 14.61
2/11/2021 10:45:00 AM 2.52 36.536 0.198 7.65 6.28 14.69
2/11/2021 11:00:00 AM 2.53 36.554 0.197 7.66 6.36 14.78
2/11/2021 11:15:00 AM 2.56 36.608 0.197 7.68 6.35 14.86
2/11/2021 11:30:00 AM 2.58 36.644 0.196 7.69 6.18 14.93
2/11/2021 11:45:00 AM 2.61 36.698 0.199 7.71 6.27 15
2/11/2021 12:00:00 PM 2.63 36.734 0.197 7.72 7.25 15.12
2/11/2021 12:15:00 PM 2.68 36.824 0.195 7.74 7.35 15.22
2/11/2021 12:30:00 PM 2.73 36.914 0.195 7.77 6.79 15.28
2/11/2021 12:45:00 PM 2.76 36.968 0.2 7.78 6.41 15.3
2/11/2021 1:00:00 PM 2.77 36.986 0.199 7.8 7.45 15.33
2/11/2021 1:15:00 PM 2.78 37.004 0.197 7.82 6.71 15.36
2/11/2021 1:30:00 PM 2.8 37.04 0.197 7.83 6.12 15.37
2/11/2021 1:45:00 PM 2.81 37.058 0.194 7.85 6.06 15.37
2/11/2021 2:00:00 PM 2.83 37.094 0.194 7.87 5.95 15.36
2/11/2021 2:15:00 PM 2.85 37.13 0.193 7.87 6.67 15.36
2/11/2021 2:30:00 PM 2.86 37.148 0.192 7.88 6.93 15.37
2/11/2021 2:45:00 PM 2.86 37.148 0.192 7.89 6.77 15.35
2/11/2021 3:00:00 PM 2.9 37.22 0.19 7.91 6.39 15.39
2/11/2021 3:15:00 PM 2.91 37.238 0.195 7.91 6.98 15.4
2/11/2021 3:30:00 PM 2.94 37.292 0.194 7.92 7.03 15.38
2/11/2021 3:45:00 PM 2.93 37.274 0.194 7.93 6.67 15.41
2/11/2021 4:00:00 PM 2.92 37.256 0.2 7.94 6.78 15.35
2/11/2021 4:15:00 PM 2.92 37.256 0.199 7.95 6.17 15.27
2/11/2021 4:30:00 PM 2.91 37.238 0.2 7.95 6.23 15.22
2/11/2021 4:45:00 PM 2.89 37.202 0.201 7.94 7.03 15.09
2/11/2021 5:00:00 PM 2.86 37.148 0.198 7.92 6.63 14.99
2/11/2021 5:15:00 PM 2.82 37.076 0.199 7.92 7.6 14.78
2/11/2021 5:30:00 PM 2.8 37.04 0.2 7.91 6.88 14.59
2/11/2021 5:45:00 PM 2.75 36.95 0.2 7.88 6.86 14.44
2/11/2021 6:00:00 PM 2.73 36.914 0.202 7.86 6.66 14.27
2/11/2021 6:15:00 PM 2.69 36.842 0.202 7.84 6.79 14.14
2/11/2021 6:30:00 PM 2.66 36.788 0.221 7.81 6.69 14.04
2/11/2021 6:45:00 PM 2.63 36.734 0.209 7.81 8.07 13.94
2/11/2021 7:00:00 PM 2.6 36.68 0.205 7.76 6.72 13.89
2/11/2021 7:15:00 PM 2.59 36.662 0.208 7.73 7.18 13.8
2/11/2021 7:30:00 PM 2.57 36.626 0.211 7.71 7.02 13.75
2/11/2021 7:45:00 PM 2.55 36.59 0.208 7.71 7.69 13.7
2/11/2021 8:00:00 PM 2.54 36.572 0.203 7.7 6.81 13.67
2/11/2021 8:15:00 PM 2.53 36.554 0.222 7.7 6.75 13.64
2/11/2021 8:30:00 PM 2.52 36.536 0.21 7.69 6.82 13.61
2/11/2021 8:45:00 PM 2.51 36.518 0.213 7.68 6.78 13.57
2/11/2021 9:00:00 PM 2.51 36.518 0.213 7.67 6.34 13.56
2/11/2021 9:15:00 PM 2.5 36.5 0.211 7.66 6.49 13.53
2/11/2021 9:30:00 PM 2.49 36.482 0.211 7.64 6.43 13.53
2/11/2021 9:45:00 PM 2.48 36.464 0.21 7.65 6.38 13.51
2/11/2021 10:00:00 PM 2.47 36.446 0.211 7.66 6.49 13.49
2/11/2021 10:15:00 PM 2.46 36.428 0.211 7.63 6.24 13.45
2/11/2021 10:30:00 PM 2.45 36.41 0.212 7.63 6.11 13.44
2/11/2021 10:45:00 PM 2.44 36.392 0.213 7.62 6.81 13.41
2/11/2021 11:00:00 PM 2.43 36.374 0.214 7.62 6.13 13.4
2/11/2021 11:15:00 PM 2.44 36.392 0.216 7.62 6.16 13.38
2/11/2021 11:30:00 PM 2.42 36.356 0.213 7.62 6.36 13.37
2/11/2021 11:45:00 PM 2.41 36.338 0.212 7.61 6.69 13.37
2/12/2021 12:00:00 AM 2.4 36.32 0.212 7.6 6.77 13.37
2/12/2021 12:15:00 AM 2.37 36.266 0.212 7.59 6.45 13.36
2/12/2021 12:30:00 AM 2.35 36.23 0.211 7.6 6.41 13.35
2/12/2021 12:45:00 AM 2.36 36.248 0.212 7.58 6.55 13.37
2/12/2021 1:00:00 AM 2.32 36.176 0.215 7.58 6.12 13.37
2/12/2021 1:15:00 AM 2.32 36.176 0.211 7.58 6.05 13.38
2/12/2021 1:30:00 AM 2.3 36.14 0.214 7.58 8.04 13.38
2/12/2021 1:45:00 AM 2.29 36.122 0.214 7.58 6.19 13.36
2/12/2021 2:00:00 AM 2.26 36.068 0.201 7.57 6.48 13.37
2/12/2021 2:15:00 AM 2.25 36.05 0.2 7.57 6.39 13.39
2/12/2021 2:30:00 AM 2.23 36.014 0.199 7.57 6.39 13.37
2/12/2021 2:45:00 AM 2.21 35.978 0.208 7.56 6.17 13.38
2/12/2021 3:00:00 AM 2.19 35.942 0.207 7.57 6.24 13.37
2/12/2021 3:15:00 AM 2.16 35.888 0.207 7.57 6.08 13.38
2/12/2021 3:30:00 AM 2.13 35.834 0.208 7.57 6.2 13.37
2/12/2021 3:45:00 AM 2.12 35.816 0.207 7.57 6.99 13.36
2/12/2021 4:00:00 AM 2.09 35.762 0.204 7.55 6.03 13.39
2/12/2021 4:15:00 AM 2.06 35.708 0.204 7.57 6.25 13.38
2/12/2021 4:30:00 AM 2.05 35.69 0.202 7.56 6.33 13.39
2/12/2021 4:45:00 AM 2.04 35.672 0.197 7.55 6.14 13.37
2/12/2021 5:00:00 AM 2.03 35.654 0.199 7.56 6.39 13.38
2/12/2021 5:15:00 AM 2.02 35.636 0.198 7.56 6.33 13.4
2/12/2021 5:30:00 AM 2 35.6 0.2 7.55 6.28 13.38
2/12/2021 5:45:00 AM 2.01 35.618 0.199 7.56 6.64 13.36
2/12/2021 6:00:00 AM 1.98 35.564 0.2 7.56 6.79 13.4
2/12/2021 6:15:00 AM 1.96 35.528 0.203 7.55 6.67 13.41
2/12/2021 6:30:00 AM 1.95 35.51 0.2 7.56 5.93 13.42
2/12/2021 6:45:00 AM 1.93 35.474 0.202 7.56 6.41 13.41
2/12/2021 7:00:00 AM 1.92 35.456 0.201 7.54 6.33 13.41
2/12/2021 7:15:00 AM 1.89 35.402 0.205 7.54 7.15 13.45
2/12/2021 7:30:00 AM 1.88 35.384 0.204 7.53 6.86 13.5
2/12/2021 7:45:00 AM 1.88 35.384 0.203 7.54 6.94 13.58
2/12/2021 8:00:00 AM 1.88 35.384 0.204 7.55 6.46 13.7
2/12/2021 8:15:00 AM 1.88 35.384 0.207 7.54 7.18 13.92
2/12/2021 8:30:00 AM 1.89 35.402 0.206 7.56 7.25 14.14
2/12/2021 8:45:00 AM 1.9 35.42 0.208 7.56 7.22 14.36
2/12/2021 9:00:00 AM 1.91 35.438 0.208 7.58 6.91 14.57
2/12/2021 9:15:00 AM 1.92 35.456 0.209 7.59 6.14 14.76
2/12/2021 9:30:00 AM 1.95 35.51 0.207 7.59 6.46 14.95
2/12/2021 9:45:00 AM 2 35.6 0.207 7.62 6.63 15.12
2/12/2021 10:00:00 AM 2.04 35.672 0.213 7.63 6.58 15.25
2/12/2021 10:15:00 AM 2.1 35.78 0.211 7.66 7.21 15.39
2/12/2021 10:30:00 AM 2.12 35.816 0.211 7.68 6.69 15.46
2/12/2021 10:45:00 AM 2.2 35.96 0.212 7.7 6.97 15.56
2/12/2021 11:00:00 AM 2.27 36.086 0.214 7.73 6.52 15.68
2/12/2021 11:15:00 AM 2.35 36.23 0.213 7.77 6.56 15.75
2/12/2021 11:30:00 AM 2.43 36.374 0.213 7.8 6.02 15.8
2/12/2021 11:45:00 AM 2.49 36.482 0.214 7.83 7.32 15.87
2/12/2021 12:00:00 PM 2.56 36.608 0.212 7.85 6.95 15.9
2/12/2021 12:15:00 PM 2.66 36.788 0.209 7.87 6.34 15.9
2/12/2021 12:30:00 PM 2.74 36.932 0.209 7.89 6.58 15.93
2/12/2021 12:45:00 PM 2.83 37.094 0.207 7.91 6.37 15.94
2/12/2021 1:00:00 PM 2.88 37.184 0.21 7.92 7.18 15.95
2/12/2021 1:15:00 PM 2.95 37.31 0.209 7.95 6.36 15.96
2/12/2021 1:30:00 PM 3.02 37.436 0.208 7.97 6.42 15.99
2/12/2021 1:45:00 PM 3.06 37.508 0.208 7.99 6.36 15.98
2/12/2021 2:00:00 PM 3.12 37.616 0.207 8.01 6.67 15.98
2/12/2021 2:15:00 PM 3.15 37.67 0.202 8.03 6.87 15.94
2/12/2021 2:30:00 PM 3.16 37.688 0.202 8.04 5.88 15.92
2/12/2021 2:45:00 PM 3.15 37.67 0.202 8.04 6.7 15.85
2/12/2021 3:00:00 PM 3.15 37.67 0.202 8.05 6.74 15.79
2/12/2021 3:15:00 PM 3.13 37.634 0.217 8.05 6.66 15.74
2/12/2021 3:30:00 PM 3.1 37.58 0.207 8.05 6.51 15.7
2/12/2021 3:45:00 PM 3.07 37.526 0.213 8.04 7.15 15.61
2/12/2021 4:00:00 PM 3.02 37.436 0.212 8.03 6.96 15.5
2/12/2021 4:15:00 PM 2.95 37.31 0.211 8.03 6.67 15.39
2/12/2021 4:30:00 PM 2.9 37.22 0.212 8.02 7.43 15.29
2/12/2021 4:45:00 PM 2.86 37.148 0.212 8.01 6.74 15.17
2/12/2021 5:00:00 PM 2.83 37.094 0.209 8 7.07 15.03
2/12/2021 5:15:00 PM 2.78 37.004 0.208 7.98 7.35 14.91
2/12/2021 5:30:00 PM 2.75 36.95 0.207 7.95 7.28 14.75
2/12/2021 5:45:00 PM 2.71 36.878 0.209 7.95 6.75 14.61
2/12/2021 6:00:00 PM 2.67 36.806 0.204 7.93 6.93 14.42
2/12/2021 6:15:00 PM 2.63 36.734 0.227 7.9 8 14.29
2/12/2021 6:30:00 PM 2.59 36.662 0.221 7.88 6.94 14.19
2/12/2021 6:45:00 PM 2.56 36.608 0.209 7.87 7.72 14.11
2/12/2021 7:00:00 PM 2.53 36.554 0.213 7.84 7.16 14.03
2/12/2021 7:15:00 PM 2.5 36.5 0.207 7.83 6.9 13.95
2/12/2021 7:30:00 PM 2.47 36.446 0.232 7.82 7.31 13.92
2/12/2021 7:45:00 PM 2.45 36.41 0.215 7.81 6.51 13.87
2/12/2021 8:00:00 PM 2.45 36.41 0.223 7.79 6.63 13.82
2/12/2021 8:15:00 PM 2.44 36.392 0.231 7.78 6.88 13.76
2/12/2021 8:30:00 PM 2.42 36.356 0.219 7.76 7.28 13.75
2/12/2021 8:45:00 PM 2.41 36.338 0.219 7.77 6.66 13.72
2/12/2021 9:00:00 PM 2.4 36.32 0.217 7.74 6.73 13.69
2/12/2021 9:15:00 PM 2.4 36.32 0.218 7.73 7.21 13.66
2/12/2021 9:30:00 PM 2.41 36.338 0.217 7.72 7.54 13.64
2/12/2021 9:45:00 PM 2.39 36.302 0.215 7.71 8.74 13.6
2/12/2021 10:00:00 PM 2.39 36.302 0.213 7.7 9.48 13.58
2/12/2021 10:15:00 PM 2.38 36.284 0.214 7.69 7.8 13.55
2/12/2021 10:30:00 PM 2.4 36.32 0.221 7.68 7.71 13.53
2/12/2021 10:45:00 PM 2.4 36.32 0.208 7.68 11.66 13.51
2/12/2021 11:00:00 PM 2.38 36.284 0.207 7.67 7.56 13.52
2/12/2021 11:15:00 PM 2.4 36.32 0.208 7.67 6.98 13.48
2/12/2021 11:30:00 PM 2.41 36.338 0.213 7.67 6.74 13.47
2/12/2021 11:45:00 PM 2.41 36.338 0.222 7.66 6.97 13.47
2/13/2021 12:00:00 AM 2.41 36.338 0.203 7.63 7.36 13.46
2/13/2021 12:15:00 AM 2.4 36.32 0.204 7.63 6.6 13.44
2/13/2021 12:30:00 AM 2.41 36.338 0.207 7.63 9.2 13.44
2/13/2021 12:45:00 AM 2.4 36.32 0.206 7.62 7.05 13.43
2/13/2021 1:00:00 AM 2.39 36.302 0.216 7.63 7.86 13.42
2/13/2021 1:15:00 AM 2.38 36.284 0.216 7.62 7.17 13.4
2/13/2021 1:30:00 AM 2.39 36.302 0.213 7.62 8 13.41
2/13/2021 1:45:00 AM 2.36 36.248 0.211 7.61 7.71 13.41
2/13/2021 2:00:00 AM 2.36 36.248 0.218 7.61 7.11 13.4
2/13/2021 2:15:00 AM 2.35 36.23 0.217 7.61 6.99 13.4
2/13/2021 2:30:00 AM 2.33 36.194 0.217 7.6 7.26 13.39
2/13/2021 2:45:00 AM 2.35 36.23 0.222 7.6 7.12 13.37
2/13/2021 3:00:00 AM 2.32 36.176 0.215 7.6 7.49 13.36
2/13/2021 3:15:00 AM 2.32 36.176 0.213 7.6 6.92 13.35
2/13/2021 3:30:00 AM 2.31 36.158 0.216 7.6 6.84 13.33
2/13/2021 3:45:00 AM 2.3 36.14 0.216 7.52 7.1 13.34
2/13/2021 4:00:00 AM 2.3 36.14 0.216 7.52 6.75 13.32
2/13/2021 4:15:00 AM 2.28 36.104 0.212 7.54 7.22 13.33
2/13/2021 4:30:00 AM 2.27 36.086 0.231 7.57 7.13 13.3
2/13/2021 4:45:00 AM 2.27 36.086 0.229 7.58 6.63 13.31
2/13/2021 5:00:00 AM 2.24 36.032 0.229 7.57 7.09 13.31
2/13/2021 5:15:00 AM 2.24 36.032 0.227 7.57 6.42 13.3
2/13/2021 5:30:00 AM 2.23 36.014 0.227 7.55 6.7 13.3
2/13/2021 5:45:00 AM 2.21 35.978 0.229 7.55 6.47 13.29
2/13/2021 6:00:00 AM 2.21 35.978 0.229 7.54 5.94 13.3
2/13/2021 6:15:00 AM 2.19 35.942 0.229 7.56 6.04 13.3
2/13/2021 6:30:00 AM 2.18 35.924 0.23 7.55 6.47 13.3
2/13/2021 6:45:00 AM 2.17 35.906 0.23 7.56 6.65 13.31
2/13/2021 7:00:00 AM 2.16 35.888 0.228 7.57 6.77 13.31
2/13/2021 7:15:00 AM 2.15 35.87 0.227 7.57 6.63 13.31
2/13/2021 7:30:00 AM 2.13 35.834 0.228 7.56 6.81 13.34
2/13/2021 7:45:00 AM 2.12 35.816 0.226 7.55 7.1 13.39
2/13/2021 8:00:00 AM 2.15 35.87 0.226 7.55 7.13 13.48
2/13/2021 8:15:00 AM 2.13 35.834 0.228 7.55 6.63 13.61
2/13/2021 8:30:00 AM 2.13 35.834 0.228 7.56 7.28 13.74
2/13/2021 8:45:00 AM 2.15 35.87 0.229 7.55 7.4 13.89
2/13/2021 9:00:00 AM 2.15 35.87 0.227 7.53 6.86 14.06
2/13/2021 9:15:00 AM 2.16 35.888 0.227 7.57 7.42 14.34
2/13/2021 9:30:00 AM 2.2 35.96 0.225 7.59 6.85 14.56
2/13/2021 9:45:00 AM 2.22 35.996 0.224 7.6 6.51 14.74
2/13/2021 10:00:00 AM 2.25 36.05 0.224 7.62 7.23 14.9
2/13/2021 10:15:00 AM 2.28 36.104 0.223 7.64 6.86 14.97
2/13/2021 10:30:00 AM 2.29 36.122 0.224 7.65 7.4 15.06
2/13/2021 10:45:00 AM 2.3 36.14 0.225 7.66 6.46 15.14
2/13/2021 11:00:00 AM 2.33 36.194 0.226 7.68 5.9 15.3
2/13/2021 11:15:00 AM 2.37 36.266 0.225 7.68 6.64 15.39
2/13/2021 11:30:00 AM 2.41 36.338 0.225 7.71 6.17 15.46
2/13/2021 11:45:00 AM 2.43 36.374 0.224 7.73 6.71 15.52
2/13/2021 12:00:00 PM 2.44 36.392 0.224 7.74 6.51 15.53
2/13/2021 12:15:00 PM 2.48 36.464 0.224 7.76 6.98 15.53
2/13/2021 12:30:00 PM 2.49 36.482 0.223 7.78 5.89 15.56
2/13/2021 12:45:00 PM 2.52 36.536 0.223 7.8 7.19 15.57
2/13/2021 1:00:00 PM 2.53 36.554 0.224 7.81 6.41 15.58
2/13/2021 1:15:00 PM 2.53 36.554 0.224 7.84 6.39 15.6
2/13/2021 1:30:00 PM 2.54 36.572 0.224 7.86 8.49 15.64
2/13/2021 1:45:00 PM 2.57 36.626 0.223 7.88 7.28 15.65
2/13/2021 2:00:00 PM 2.6 36.68 0.222 7.89 6.95 15.66
2/13/2021 2:15:00 PM 2.61 36.698 0.222 7.91 6.39 15.66
2/13/2021 2:30:00 PM 2.62 36.716 0.221 7.93 6.95 15.64
2/13/2021 2:45:00 PM 2.62 36.716 0.221 7.77 6.96 15.57
2/13/2021 3:00:00 PM 2.6 36.68 0.221 7.93 7.17 15.5
2/13/2021 3:15:00 PM 2.6 36.68 0.221 7.93 6.73 15.42
2/13/2021 3:30:00 PM 2.58 36.644 0.223 7.95 6.66 15.37
2/13/2021 3:45:00 PM 2.56 36.608 0.223 7.95 7.75 15.32
2/13/2021 4:00:00 PM 2.54 36.572 0.222 7.95 6.76 15.25
2/13/2021 4:15:00 PM 2.51 36.518 0.223 7.96 6.5 15.22
2/13/2021 4:30:00 PM 2.5 36.5 0.224 7.95 6.91 15.1
2/13/2021 4:45:00 PM 2.49 36.482 0.226 7.95 7.33 14.98
2/13/2021 5:00:00 PM 2.46 36.428 0.227 7.93 8.18 14.87
2/13/2021 5:15:00 PM 2.43 36.374 0.227 7.94 7.64 14.73
2/13/2021 5:30:00 PM 2.41 36.338 0.222 7.91 8.74 14.55
2/13/2021 5:45:00 PM 2.37 36.266 0.222 7.89 7.53 14.42
2/13/2021 6:00:00 PM 2.33 36.194 0.225 7.88 6.97 14.28
2/13/2021 6:15:00 PM 2.32 36.176 0.224 7.87 7 14.16
2/13/2021 6:30:00 PM 2.27 36.086 0.239 7.85 6.96 14.07
2/13/2021 6:45:00 PM 2.25 36.05 0.229 7.83 8.16 14.02
2/13/2021 7:00:00 PM 2.25 36.05 0.226 7.81 7.6 13.93
2/13/2021 7:15:00 PM 2.23 36.014 0.233 7.8 8.59 13.86
2/13/2021 7:30:00 PM 2.21 35.978 0.222 7.79 6.9 13.82
2/13/2021 7:45:00 PM 2.2 35.96 0.223 7.77 7.29 13.78
2/13/2021 8:00:00 PM 2.2 35.96 0.223 7.76 6.65 13.73
2/13/2021 8:15:00 PM 2.18 35.924 0.225 7.74 7.29 13.69
2/13/2021 8:30:00 PM 2.18 35.924 0.222 7.73 7.34 13.67
2/13/2021 8:45:00 PM 2.16 35.888 0.223 7.72 7.32 13.64
2/13/2021 9:00:00 PM 2.16 35.888 0.223 7.71 7.03 13.6
2/13/2021 9:15:00 PM 2.15 35.87 0.223 7.7 7.19 13.58
2/13/2021 9:30:00 PM 2.16 35.888 0.216 7.67 7.78 13.57
2/13/2021 9:45:00 PM 2.13 35.834 0.216 7.68 7.32 13.55
2/13/2021 10:00:00 PM 2.13 35.834 0.216 7.67 6.46 13.49
2/13/2021 10:15:00 PM 2.15 35.87 0.218 7.66 7.24 13.47
2/13/2021 10:30:00 PM 2.13 35.834 0.218 7.66 7.65 13.45
2/13/2021 10:45:00 PM 2.11 35.798 0.217 7.64 7.33 13.45
2/13/2021 11:00:00 PM 2.11 35.798 0.216 7.63 7.88 13.45
2/13/2021 11:15:00 PM 2.1 35.78 0.214 7.62 7.73 13.43
2/13/2021 11:30:00 PM 2.1 35.78 0.22 7.62 7.27 13.45
2/13/2021 11:45:00 PM 2.08 35.744 0.222 7.65 7.64 13.43
2/14/2021 12:00:00 AM 2.1 35.78 0.219 7.63 7.31 13.42
2/14/2021 12:15:00 AM 2.08 35.744 0.217 7.65 7.12 13.4
2/14/2021 12:30:00 AM 2.1 35.78 0.207 7.65 6.81 13.38
2/14/2021 12:45:00 AM 2.1 35.78 0.21 7.63 7.03 13.39
2/14/2021 1:00:00 AM 2.09 35.762 0.214 7.64 7.89 13.39
2/14/2021 1:15:00 AM 2.09 35.762 0.216 7.64 7.48 13.41
2/14/2021 1:30:00 AM 2.07 35.726 0.22 7.63 6.71 13.38
2/14/2021 1:45:00 AM 2.07 35.726 0.209 7.65 6.92 13.38
2/14/2021 2:00:00 AM 2.06 35.708 0.221 7.63 7.17 13.38
2/14/2021 2:15:00 AM 2.07 35.726 0.22 7.62 7.36 13.37
2/14/2021 2:30:00 AM 2.07 35.726 0.23 7.61 7.08 13.37
2/14/2021 2:45:00 AM 2.07 35.726 0.226 7.62 7.01 13.36
2/14/2021 3:00:00 AM 2.04 35.672 0.228 7.63 6.93 13.36
2/14/2021 3:15:00 AM 2.06 35.708 0.239 7.63 7.05 13.34
2/14/2021 3:30:00 AM 2.03 35.654 0.239 7.61 7.14 13.35
2/14/2021 3:45:00 AM 2.02 35.636 0.234 7.61 7.64 13.36
2/14/2021 4:00:00 AM 2 35.6 0.232 7.61 6.78 13.36
2/14/2021 4:15:00 AM 2 35.6 0.231 7.59 6.94 13.36
2/14/2021 4:30:00 AM 1.98 35.564 0.231 7.58 7.41 13.35
2/14/2021 4:45:00 AM 1.98 35.564 0.231 7.57 7.67 13.35
2/14/2021 5:00:00 AM 1.97 35.546 0.23 7.57 7.59 13.33
2/14/2021 5:15:00 AM 1.95 35.51 0.23 7.55 7.01 13.33
2/14/2021 5:30:00 AM 1.96 35.528 0.229 7.55 7.23 13.33
2/14/2021 5:45:00 AM 1.93 35.474 0.229 7.56 6.41 13.34
2/14/2021 6:00:00 AM 1.92 35.456 0.231 7.57 7.05 13.33
2/14/2021 6:15:00 AM 1.92 35.456 0.236 7.56 7.69 13.33
2/14/2021 6:30:00 AM 1.92 35.456 0.233 7.57 7.19 13.31
2/14/2021 6:45:00 AM 1.92 35.456 0.231 7.57 7.35 13.34
2/14/2021 7:00:00 AM 1.89 35.402 0.231 7.56 7.33 13.36
2/14/2021 7:15:00 AM 1.9 35.42 0.231 7.56 7.38 13.36
2/14/2021 7:30:00 AM 1.89 35.402 0.23 7.56 9.04 13.41
2/14/2021 7:45:00 AM 1.89 35.402 0.229 7.57 6.93 13.5
2/14/2021 8:00:00 AM 1.91 35.438 0.229 7.58 6.41 13.59
2/14/2021 8:15:00 AM 1.88 35.384 0.231 7.57 6.95 13.68
2/14/2021 8:30:00 AM 1.91 35.438 0.23 7.56 7.19 13.86
2/14/2021 8:45:00 AM 1.93 35.474 0.23 7.58 7.58 14.09
2/14/2021 9:00:00 AM 1.94 35.492 0.228 7.61 7.15 14.33
2/14/2021 9:15:00 AM 1.98 35.564 0.228 7.62 7.1 14.56
2/14/2021 9:30:00 AM 2.02 35.636 0.227 7.61 7.49 14.76
2/14/2021 9:45:00 AM 2.09 35.762 0.226 7.63 7.28 14.95
2/14/2021 10:00:00 AM 2.17 35.906 0.226 7.63 7.4 15.16
2/14/2021 10:15:00 AM 2.28 36.104 0.226 7.67 7.58 15.32
2/14/2021 10:30:00 AM 2.38 36.284 0.225 7.69 6.12 15.42
2/14/2021 10:45:00 AM 2.48 36.464 0.227 7.72 6.5 15.54
2/14/2021 11:00:00 AM 2.57 36.626 0.226 7.75 6.93 15.62
2/14/2021 11:15:00 AM 2.68 36.824 0.228 7.79 6.49 15.7
2/14/2021 11:30:00 AM 2.76 36.968 0.228 7.81 7.3 15.72
2/14/2021 11:45:00 AM 2.86 37.148 0.228 7.83 6.96 15.72
2/14/2021 12:00:00 PM 2.96 37.328 0.226 7.83 6.62 15.74
2/14/2021 12:15:00 PM 3.02 37.436 0.226 7.87 6.59 15.79
2/14/2021 12:30:00 PM 3.11 37.598 0.226 7.88 6.37 15.77
2/14/2021 12:45:00 PM 3.2 37.76 0.221 7.88 6.98 15.76
2/14/2021 1:00:00 PM 3.28 37.904 0.222 7.91 7.21 15.78
2/14/2021 1:15:00 PM 3.32 37.976 0.226 7.94 6.83 15.8
2/14/2021 1:30:00 PM 3.39 38.102 0.224 7.95 7.18 15.81
2/14/2021 1:45:00 PM 3.43 38.174 0.223 7.98 7.01 15.78
2/14/2021 2:00:00 PM 3.46 38.228 0.222 8 8.65 15.77
2/14/2021 2:15:00 PM 3.49 38.282 0.221 8.01 7.49 15.74
2/14/2021 2:30:00 PM 3.48 38.264 0.219 8 7.24 15.71
2/14/2021 2:45:00 PM 3.53 38.354 0.219 8.02 7.1 15.72
2/14/2021 3:00:00 PM 3.56 38.408 0.218 8.03 7.56 15.69
2/14/2021 3:15:00 PM 3.57 38.426 0.219 8.03 7.27 15.65
2/14/2021 3:30:00 PM 3.56 38.408 0.22 8.04 6.79 15.57
2/14/2021 3:45:00 PM 3.54 38.372 0.22 8.05 7.05 15.5
2/14/2021 4:00:00 PM 3.53 38.354 0.221 8.04 6.77 15.41
2/14/2021 4:15:00 PM 3.49 38.282 0.22 8.03 7.08 15.29
2/14/2021 4:30:00 PM 3.45 38.21 0.218 8.03 6.49 15.19
2/14/2021 4:45:00 PM 3.41 38.138 0.219 8.02 6.57 15.09
2/14/2021 5:00:00 PM 3.36 38.048 0.216 8.01 7.19 14.95
2/14/2021 5:15:00 PM 3.32 37.976 0.215 7.99 7.22 14.75
2/14/2021 5:30:00 PM 3.28 37.904 0.216 7.97 7.24 14.53
2/14/2021 5:45:00 PM 3.23 37.814 0.218 7.96 6.49 14.37
2/14/2021 6:00:00 PM 3.19 37.742 0.219 7.93 7.05 14.19
2/14/2021 6:15:00 PM 3.15 37.67 0.219 7.9 7.18 14.03
2/14/2021 6:30:00 PM 3.12 37.616 0.219 7.87 7.48 13.9
2/14/2021 6:45:00 PM 3.08 37.544 0.217 7.86 6.99 13.81
2/14/2021 7:00:00 PM 3.05 37.49 0.219 7.84 6.72 13.73
2/14/2021 7:15:00 PM 3.03 37.454 0.219 7.81 7.25 13.64
2/14/2021 7:30:00 PM 3.01 37.418 0.217 7.82 7.74 13.59
2/14/2021 7:45:00 PM 3.01 37.418 0.219 7.79 7.36 13.53
2/14/2021 8:00:00 PM 3 37.4 0.218 7.76 8.25 13.5
2/14/2021 8:15:00 PM 2.99 37.382 0.219 7.75 7.05 13.45
2/14/2021 8:30:00 PM 3 37.4 0.221 7.75 6.68 13.42
2/14/2021 8:45:00 PM 2.99 37.382 0.221 7.73 7.61 13.39
2/14/2021 9:00:00 PM 2.98 37.364 0.224 7.73 6.98 13.36
2/14/2021 9:15:00 PM 2.99 37.382 0.223 7.71 7.43 13.34
2/14/2021 9:30:00 PM 2.99 37.382 0.224 7.69 7.04 13.32
2/14/2021 9:45:00 PM 2.99 37.382 0.224 7.69 6.43 13.31
2/14/2021 10:00:00 PM 2.99 37.382 0.224 7.68 7.27 13.27
2/14/2021 10:15:00 PM 3 37.4 0.224 7.69 7.56 13.24
2/14/2021 10:30:00 PM 3 37.4 0.225 7.67 7.59 13.22
2/14/2021 10:45:00 PM 3.02 37.436 0.225 7.68 8.11 13.19
2/14/2021 11:00:00 PM 3.02 37.436 0.226 7.66 6.96 13.17
2/14/2021 11:15:00 PM 3.02 37.436 0.238 7.66 7.65 13.17
2/14/2021 11:30:00 PM 3.01 37.418 0.234 7.65 6.98 13.14
2/14/2021 11:45:00 PM 3.01 37.418 0.233 7.64 7.91 13.13
2/15/2021 12:00:00 AM 3.02 37.436 0.234 7.63 7.29 13.11
2/15/2021 12:15:00 AM 3.01 37.418 0.233 7.63 7.75 13.11
2/15/2021 12:30:00 AM 3.01 37.418 0.231 7.62 6.93 13.09
2/15/2021 12:45:00 AM 3.03 37.454 0.232 7.61 7.5 13.07
2/15/2021 1:00:00 AM 3.03 37.454 0.235 7.61 7.04 13.06
2/15/2021 1:15:00 AM 3.03 37.454 0.235 7.61 6.79 13.04
2/15/2021 1:30:00 AM 3.04 37.472 0.237 7.6 7.01 13.04
2/15/2021 1:45:00 AM 3.04 37.472 0.233 7.58 7.2 13.02
2/15/2021 2:00:00 AM 3.03 37.454 0.231 7.58 6.46 13.02
2/15/2021 2:15:00 AM 3.02 37.436 0.232 7.57 6.67 13
2/15/2021 2:30:00 AM 3.02 37.436 0.231 7.57 7.05 13.01
2/15/2021 2:45:00 AM 3.02 37.436 0.228 7.57 7.56 12.99
2/15/2021 3:00:00 AM 3.01 37.418 0.229 7.57 6.91 12.99
2/15/2021 3:15:00 AM 3.02 37.436 0.229 7.56 7.9 12.98
2/15/2021 3:30:00 AM 3.01 37.418 0.231 7.56 7.42 12.96
2/15/2021 3:45:00 AM 3.01 37.418 0.22 7.5 7.02 12.95
2/15/2021 4:00:00 AM 3 37.4 0.217 7.55 7.41 12.93
2/15/2021 4:15:00 AM 2.99 37.382 0.222 7.57 8.22 12.94
2/15/2021 4:30:00 AM 2.98 37.364 0.22 7.55 6.8 12.94
2/15/2021 4:45:00 AM 2.97 37.346 0.22 7.56 6.84 12.94
2/15/2021 5:00:00 AM 2.97 37.346 0.22 7.54 7.19 12.92
2/15/2021 5:15:00 AM 2.96 37.328 0.231 7.56 7.53 12.92
2/15/2021 5:30:00 AM 2.95 37.31 0.234 7.54 6.36 12.9
2/15/2021 5:45:00 AM 2.95 37.31 0.235 7.54 7.41 12.9
2/15/2021 6:00:00 AM 2.94 37.292 0.232 7.54 7.19 12.88
2/15/2021 6:15:00 AM 2.94 37.292 0.218 7.55 6.73 12.89
2/15/2021 6:30:00 AM 2.93 37.274 0.219 7.54 6.35 12.88
2/15/2021 6:45:00 AM 2.91 37.238 0.22 7.53 6.67 12.88
2/15/2021 7:00:00 AM 2.91 37.238 0.21 7.55 7.5 12.9
2/15/2021 7:15:00 AM 2.89 37.202 0.221 7.54 6.85 12.94
2/15/2021 7:30:00 AM 2.9 37.22 0.224 7.54 7.96 13.02
2/15/2021 7:45:00 AM 2.9 37.22 0.222 7.54 7.07 13.15
2/15/2021 8:00:00 AM 2.9 37.22 0.222 7.54 7.09 13.26
2/15/2021 8:15:00 AM 2.91 37.238 0.224 7.54 6.59 13.35
2/15/2021 8:30:00 AM 2.91 37.238 0.224 7.54 6.63 13.49
2/15/2021 8:45:00 AM 2.92 37.256 0.226 7.55 6.73 13.66
2/15/2021 9:00:00 AM 2.93 37.274 0.224 7.56 6.21 13.89
2/15/2021 9:15:00 AM 2.95 37.31 0.224 7.56 7.5 14.1
2/15/2021 9:30:00 AM 2.99 37.382 0.224 7.59 7.54 14.36
2/15/2021 9:45:00 AM 3.06 37.508 0.223 7.6 6.65 14.59
2/15/2021 10:00:00 AM 3.14 37.652 0.222 7.63 6.89 14.81
2/15/2021 10:15:00 AM 3.23 37.814 0.223 7.64 7.51 14.97
2/15/2021 10:30:00 AM 3.27 37.886 0.223 7.67 7.02 15.04
2/15/2021 10:45:00 AM 3.33 37.994 0.224 7.7 6.67 15.11
2/15/2021 11:00:00 AM 3.38 38.084 0.224 7.74 6.87 15.18
2/15/2021 11:15:00 AM 3.41 38.138 0.224 7.76 6.56 15.26
2/15/2021 11:30:00 AM 3.45 38.21 0.222 7.77 7.57 15.27
2/15/2021 11:45:00 AM 3.48 38.264 0.218 7.81 7.23 15.28
2/15/2021 12:00:00 PM 3.52 38.336 0.219 7.82 7.08 15.31
2/15/2021 12:15:00 PM 3.58 38.444 0.219 7.84 6.72 15.39
2/15/2021 12:30:00 PM 3.64 38.552 0.218 7.86 8.01 15.44
2/15/2021 12:45:00 PM 3.68 38.624 0.218 7.9 6.9 15.46
2/15/2021 1:00:00 PM 3.74 38.732 0.219 7.92 6.5 15.49
2/15/2021 1:15:00 PM 3.77 38.786 0.22 7.94 7.08 15.43
2/15/2021 1:30:00 PM 3.79 38.822 0.219 7.96 6.86 15.47
2/15/2021 1:45:00 PM 3.79 38.822 0.217 7.95 6.47 15.39
2/15/2021 2:00:00 PM 3.81 38.858 0.218 7.95 8.02 15.38
2/15/2021 2:15:00 PM 3.81 38.858 0.217 8 6.88 15.38
2/15/2021 2:30:00 PM 3.83 38.894 0.216 8.01 6.96 15.36
2/15/2021 2:45:00 PM 3.81 38.858 0.218 8.01 7.1 15.27
2/15/2021 3:00:00 PM 3.8 38.84 0.217 8.02 8.18 15.17
2/15/2021 3:15:00 PM 3.77 38.786 0.218 8.01 7.56 15
2/15/2021 3:30:00 PM 3.76 38.768 0.219 7.99 6.62 14.88
2/15/2021 3:45:00 PM 3.73 38.714 0.219 8 6.59 14.74
2/15/2021 4:00:00 PM 3.71 38.678 0.219 7.99 6.88 14.59
2/15/2021 4:15:00 PM 3.68 38.624 0.219 7.97 6.77 14.44
2/15/2021 4:30:00 PM 3.64 38.552 0.208 7.96 6.62 14.3
2/15/2021 4:45:00 PM 3.61 38.498 0.2 7.95 6.92 14.2
2/15/2021 5:00:00 PM 3.58 38.444 0.201 7.92 6.61 14.08
2/15/2021 5:15:00 PM 3.55 38.39 0.201 7.77 7.79 13.95
2/15/2021 5:30:00 PM 3.53 38.354 0.201 7.87 6.71 13.83
2/15/2021 5:45:00 PM 3.51 38.318 0.203 7.86 6.35 13.68
2/15/2021 6:00:00 PM 3.49 38.282 0.203 7.85 6.71 13.57
2/15/2021 6:15:00 PM 3.47 38.246 0.203 7.84 6.85 13.48
2/15/2021 6:30:00 PM 3.46 38.228 0.202 7.82 7.13 13.39
2/15/2021 6:45:00 PM 3.43 38.174 0.201 7.8 7.16 13.32
2/15/2021 7:00:00 PM 3.42 38.156 0.201 7.78 7.16 13.27
2/15/2021 7:15:00 PM 3.4 38.12 0.2 7.77 7.27 13.22
2/15/2021 7:30:00 PM 3.39 38.102 0.2 7.76 6.79 13.2
2/15/2021 7:45:00 PM 3.37 38.066 0.2 7.72 6.81 13.14
2/15/2021 8:00:00 PM 3.37 38.066 0.204 7.7 7.1 13.11
2/15/2021 8:15:00 PM 3.37 38.066 0.204 7.71 8.57 13.08
2/15/2021 8:30:00 PM 3.37 38.066 0.206 7.7 6.88 13.05
2/15/2021 8:45:00 PM 3.36 38.048 0.207 7.7 7.66 13
2/15/2021 9:00:00 PM 3.36 38.048 0.204 7.69 6.47 12.98
2/15/2021 9:15:00 PM 3.35 38.03 0.205 7.67 8.78 12.94
2/15/2021 9:30:00 PM 3.34 38.012 0.206 7.67 7.14 12.94
2/15/2021 9:45:00 PM 3.34 38.012 0.203 7.65 7.05 12.91
2/15/2021 10:00:00 PM 3.33 37.994 0.202 7.67 7.04 12.89
2/15/2021 10:15:00 PM 3.33 37.994 0.204 7.65 7.2 12.87
2/15/2021 10:30:00 PM 3.33 37.994 0.202 7.62 7.02 12.84
2/15/2021 10:45:00 PM 3.33 37.994 0.203 7.64 7.07 12.83
2/15/2021 11:00:00 PM 3.32 37.976 0.231 7.64 7.42 12.84
2/15/2021 11:15:00 PM 3.3 37.94 0.224 7.64 7.81 12.84
2/15/2021 11:30:00 PM 3.28 37.904 0.229 7.63 9.74 12.84
2/15/2021 11:45:00 PM 3.27 37.886 0.23 7.62 10.75 12.84
2/16/2021 12:00:00 AM 3.26 37.868 0.229 7.63 11.32 12.85
2/16/2021 12:15:00 AM 3.25 37.85 0.225 7.62 12.5 12.84
2/16/2021 12:30:00 AM 3.24 37.832 0.223 7.62 12.52 12.82
2/16/2021 12:45:00 AM 3.25 37.85 0.224 7.61 11.77 12.82
2/16/2021 1:00:00 AM 3.25 37.85 0.225 7.62 12.41 12.8
2/16/2021 1:15:00 AM 3.26 37.868 0.225 7.61 11.62 12.78
2/16/2021 1:30:00 AM 3.27 37.886 0.224 7.61 11.21 12.8
2/16/2021 1:45:00 AM 3.29 37.922 0.221 7.6 13.02 12.78
2/16/2021 2:00:00 AM 3.31 37.958 0.229 7.6 16.05 12.77
2/16/2021 2:15:00 AM 3.3 37.94 0.239 7.61 17.11 12.78
2/16/2021 2:30:00 AM 3.28 37.904 0.239 7.61 15.45 12.76
2/16/2021 2:45:00 AM 3.27 37.886 0.237 7.6 16.08 12.78
2/16/2021 3:00:00 AM 3.27 37.886 0.21 7.6 15.33 12.78
2/16/2021 3:15:00 AM 3.26 37.868 0.206 7.6 16.32 12.76
2/16/2021 3:30:00 AM 3.24 37.832 0.207 7.6 34.58 12.76
2/16/2021 3:45:00 AM 3.23 37.814 0.199 7.59 45.44 12.75
2/16/2021 4:00:00 AM 3.21 37.778 0.207 7.58 19.72 12.76
2/16/2021 4:15:00 AM 3.2 37.76 0.218 7.59 17.06 12.77
2/16/2021 4:30:00 AM 3.19 37.742 0.216 7.59 26.97 12.76
2/16/2021 4:45:00 AM 3.18 37.724 0.234 7.58 112.5 12.75
2/16/2021 5:00:00 AM 3.17 37.706 0.259 7.58 23.11 12.78
2/16/2021 5:15:00 AM 3.16 37.688 0.251 7.6 20.59 12.78
2/16/2021 5:30:00 AM 3.15 37.67 0.247 7.6 68.61 12.78
2/16/2021 5:45:00 AM 3.14 37.652 0.246 7.6 63.9 12.78
2/16/2021 6:00:00 AM 3.13 37.634 0.245 7.59 18.46 12.79
2/16/2021 6:15:00 AM 3.12 37.616 0.241 7.59 18.94 12.79
2/16/2021 6:30:00 AM 3.12 37.616 0.241 7.59 20.02 12.79
2/16/2021 6:45:00 AM 3.12 37.616 0.237 7.58 18.62 12.77
2/16/2021 7:00:00 AM 3.11 37.598 0.234 7.58 18.73 12.77
2/16/2021 7:15:00 AM 3.11 37.598 0.234 7.57 24.75 12.77
2/16/2021 7:30:00 AM 3.1 37.58 0.234 7.57 22.29 12.81
2/16/2021 7:45:00 AM 3.1 37.58 0.232 7.57 32.74 12.85
2/16/2021 8:00:00 AM 3.11 37.598 0.233 7.58 36.18 12.92
2/16/2021 8:15:00 AM 3.12 37.616 0.231 7.58 38 13
2/16/2021 8:30:00 AM 3.13 37.634 0.232 7.58 33.14 13.08
2/16/2021 8:45:00 AM 3.16 37.688 0.231 7.6 31.13 13.16
2/16/2021 9:00:00 AM 3.2 37.76 0.233 7.59 34.44 13.24
2/16/2021 9:15:00 AM 3.24 37.832 0.233 7.59 30.8 13.3
2/16/2021 9:30:00 AM 3.28 37.904 0.234 7.6 36.14 13.35
2/16/2021 9:45:00 AM 3.32 37.976 0.235 7.61 41.18 13.39
2/16/2021 10:00:00 AM 3.37 38.066 0.233 7.62 30.95 13.44
2/16/2021 10:15:00 AM 3.43 38.174 0.233 7.61 35.68 13.48
2/16/2021 10:30:00 AM 3.48 38.264 0.235 7.62 28.53 13.55
2/16/2021 10:45:00 AM 3.55 38.39 0.237 7.63 32.18 13.58
2/16/2021 11:00:00 AM 3.65 38.57 0.238 7.66 29.32 13.61
2/16/2021 11:15:00 AM 3.76 38.768 0.238 7.68 28.36 13.65
2/16/2021 11:30:00 AM 3.85 38.93 0.237 7.7 30.73 13.67
2/16/2021 11:45:00 AM 3.94 39.092 0.239 7.72 28.06 13.7
2/16/2021 12:00:00 PM 4.03 39.254 0.238 7.76 26.1 13.71
2/16/2021 12:15:00 PM 4.12 39.416 0.24 7.77 27.42 13.72
2/16/2021 12:30:00 PM 4.21 39.578 0.24 7.77 32.17 13.7
2/16/2021 12:45:00 PM 4.29 39.722 0.241 7.78 27.82 13.72
2/16/2021 1:00:00 PM 4.37 39.866 0.241 7.78 32.11 13.73
2/16/2021 1:15:00 PM 4.42 39.956 0.242 7.78 26.16 13.72
2/16/2021 1:30:00 PM 4.38 39.884 0.242 7.78 26.03 13.69
2/16/2021 1:45:00 PM 4.38 39.884 0.242 7.78 24.26 13.67
2/16/2021 2:00:00 PM 4.41 39.938 0.241 7.76 25.04 13.69
2/16/2021 2:15:00 PM 4.44 39.992 0.241 7.77 21.1 13.73
2/16/2021 2:30:00 PM 4.45 40.01 0.24 7.75 22.87 13.69
2/16/2021 2:45:00 PM 4.47 40.046 0.24 7.74 23.42 13.66
2/16/2021 3:00:00 PM 4.48 40.064 0.24 7.68 24.08 13.68
2/16/2021 3:15:00 PM 4.5 40.1 0.247 7.73 21.24 13.69
2/16/2021 3:30:00 PM 4.51 40.118 0.246 7.76 21.54 13.69
2/16/2021 3:45:00 PM 4.55 40.19 0.247 7.76 22.31 13.69
2/16/2021 4:00:00 PM 4.55 40.19 0.248 7.75 19.37 13.7
2/16/2021 4:15:00 PM 4.6 40.28 0.25 7.75 20.05 13.67
2/16/2021 4:30:00 PM 4.57 40.226 0.246 7.75 20.14 13.65
2/16/2021 4:45:00 PM 4.57 40.226 0.247 7.75 21.83 13.6
2/16/2021 5:00:00 PM 4.51 40.118 0.242 7.74 19.36 13.49
2/16/2021 5:15:00 PM 4.46 40.028 0.241 7.73 19.98 13.4
2/16/2021 5:30:00 PM 4.39 39.902 0.241 7.73 18.1 13.32
2/16/2021 5:45:00 PM 4.36 39.848 0.239 7.73 16.99 13.24
2/16/2021 6:00:00 PM 4.32 39.776 0.238 7.61 18.54 13.18
2/16/2021 6:15:00 PM 4.27 39.686 0.242 7.59 18.18 13.11
2/16/2021 6:30:00 PM 4.28 39.704 0.233 7.39 18.34 13.05
2/16/2021 6:45:00 PM 4.25 39.65 0.237 7.2 17.55 13.03
2/16/2021 7:00:00 PM 4.24 39.632 0.239 7.17 19.76 13
2/16/2021 7:15:00 PM 4.19 39.542 0.247 7.15 19.25 12.98
2/16/2021 7:30:00 PM 4.18 39.524 0.249 7.23 19.67 12.96
2/16/2021 7:45:00 PM 4.22 39.596 0.251 7.26 21.03 12.97
2/16/2021 8:00:00 PM 4.22 39.596 0.249 7.3 19.03 12.94
2/16/2021 8:15:00 PM 4.2 39.56 0.242 7.33 24.46 12.93
2/16/2021 8:30:00 PM 4.15 39.47 0.245 7.37 29.03 12.93
2/16/2021 8:45:00 PM 4.14 39.452 0.244 7.4 58.02 12.91
2/16/2021 9:00:00 PM 4.08 39.344 0.245 7.37 36.75 12.9
2/16/2021 9:15:00 PM 4.05 39.29 0.242 7.4 26.47 12.89
2/16/2021 9:30:00 PM 4 39.2 0.238 7.41 26.33 12.88
2/16/2021 9:45:00 PM 3.95 39.11 0.245 7.41 25.38 12.86
2/16/2021 10:00:00 PM 3.94 39.092 0.241 7.44 25.07 12.84
2/16/2021 10:15:00 PM 3.91 39.038 0.236 7.44 24.58 12.84
2/16/2021 10:30:00 PM 3.83 38.894 0.236 7.46 25.33 12.84
2/16/2021 10:45:00 PM 3.8 38.84 0.236 7.46 23.45 12.83
2/16/2021 11:00:00 PM 3.75 38.75 0.232 7.48 22.97 12.84
2/16/2021 11:15:00 PM 3.72 38.696 0.23 7.46 24.79 12.82
2/16/2021 11:30:00 PM 3.65 38.57 0.231 7.46 22.78 12.84
2/16/2021 11:45:00 PM 3.64 38.552 0.23 7.48 24.17 12.83
2/17/2021 12:00:00 AM 3.55 38.39 0.229 7.47 26.09 12.84
2/17/2021 12:15:00 AM 3.52 38.336 0.228 7.46 23.43 12.83
2/17/2021 12:30:00 AM 3.47 38.246 0.227 7.46 26.95 12.83
2/17/2021 12:45:00 AM 3.44 38.192 0.227 7.48 26.3 12.86
2/17/2021 1:00:00 AM 3.41 38.138 0.227 7.45 23.48 12.86
2/17/2021 1:15:00 AM 3.38 38.084 0.226 7.46 20.76 12.84
2/17/2021 1:30:00 AM 3.37 38.066 0.225 7.46 22.19 12.86
2/17/2021 1:45:00 AM 3.34 38.012 0.225 7.44 20.48 12.87
2/17/2021 2:00:00 AM 3.3 37.94 0.226 7.44 19.53 12.9
2/17/2021 2:15:00 AM 3.27 37.886 0.227 7.45 20.29 12.91
2/17/2021 2:30:00 AM 3.23 37.814 0.225 7.46 21.12 12.91
2/17/2021 2:45:00 AM 3.17 37.706 0.227 7.45 16.4 12.95
2/17/2021 3:00:00 AM 3.15 37.67 0.226 7.47 16.2 12.94
2/17/2021 3:15:00 AM 3.1 37.58 0.219 7.47 17.73 12.96
2/17/2021 3:30:00 AM 3.06 37.508 0.225 7.44 18.63 12.98
2/17/2021 3:45:00 AM 3.04 37.472 0.224 7.45 19.01 13
2/17/2021 4:00:00 AM 3.02 37.436 0.223 7.45 17.62 13.01
2/17/2021 4:15:00 AM 2.98 37.364 0.223 7.45 14.5 13.04
2/17/2021 4:30:00 AM 2.95 37.31 0.223 7.47 17.21 13.05
2/17/2021 4:45:00 AM 2.92 37.256 0.225 7.47 14.54 13.07
2/17/2021 5:00:00 AM 2.88 37.184 0.227 7.46 15.58 13.09
2/17/2021 5:15:00 AM 2.84 37.112 0.226 7.46 17.41 13.11
2/17/2021 5:30:00 AM 2.79 37.022 0.225 7.47 13.17 13.12
2/17/2021 5:45:00 AM 2.76 36.968 0.225 7.48 13.89 13.16
2/17/2021 6:00:00 AM 2.72 36.896 0.224 7.46 13.38 13.17
2/17/2021 6:15:00 AM 2.68 36.824 0.224 7.46 16.17 13.2
2/17/2021 6:30:00 AM 2.65 36.77 0.226 7.47 12.85 13.22
2/17/2021 6:45:00 AM 2.61 36.698 0.224 7.45 13.75 13.23
2/17/2021 7:00:00 AM 2.57 36.626 0.224 7.46 13.37 13.27
2/17/2021 7:15:00 AM 2.54 36.572 0.224 7.44 12.55 13.29
2/17/2021 7:30:00 AM 2.5 36.5 0.224 7.47 14.03 13.36
2/17/2021 7:45:00 AM 2.45 36.41 0.222 7.45 12.59 13.42
2/17/2021 8:00:00 AM 2.43 36.374 0.221 7.47 12.75 13.5
2/17/2021 8:15:00 AM 2.42 36.356 0.221 7.47 13.32 13.63
2/17/2021 8:30:00 AM 2.42 36.356 0.216 7.46 13.42 13.73
2/17/2021 8:45:00 AM 2.42 36.356 0.22 7.48 14.88 13.83
2/17/2021 9:00:00 AM 2.45 36.41 0.223 7.47 11.81 13.95
2/17/2021 9:15:00 AM 2.52 36.536 0.22 7.48 12.18 14.04
2/17/2021 9:30:00 AM 2.56 36.608 0.221 7.49 12.41 14.13
2/17/2021 9:45:00 AM 2.58 36.644 0.221 7.5 10.98 14.2
2/17/2021 10:00:00 AM 2.61 36.698 0.222 7.51 11.89 14.28
2/17/2021 10:15:00 AM 2.69 36.842 0.222 7.47 11.99 14.35
2/17/2021 10:30:00 AM 2.72 36.896 0.222 7.51 11.28 14.41
2/17/2021 10:45:00 AM 2.78 37.004 0.221 7.53 10.3 14.45
2/17/2021 11:00:00 AM 2.83 37.094 0.222 7.42 10.29 14.48
2/17/2021 11:15:00 AM 2.82 37.076 0.222 7.31 10.69 14.53
2/17/2021 11:30:00 AM 2.89 37.202 0.221 7.31 10.11 14.55
2/17/2021 11:45:00 AM 2.95 37.31 0.223 7.35 9.98 14.6
2/17/2021 12:00:00 PM 2.99 37.382 0.225 7.29 8.89 14.64
2/17/2021 12:15:00 PM 3.02 37.436 0.224 7.19 9.86 14.67
2/17/2021 12:30:00 PM 3.02 37.436 0.232 7.14 9.83 14.69
2/17/2021 12:45:00 PM 3.06 37.508 0.232 7.15 9.5 14.69
2/17/2021 1:00:00 PM 3.09 37.562 0.232 7.15 9.75 14.71
2/17/2021 1:15:00 PM 3.12 37.616 0.232 7.2 10.12 14.72
2/17/2021 1:30:00 PM 3.17 37.706 0.23 7.21 9.8 14.73
2/17/2021 1:45:00 PM 3.21 37.778 0.23 7.21 10.27 14.76
2/17/2021 2:00:00 PM 3.28 37.904 0.231 7.2 10.02 14.77
2/17/2021 2:15:00 PM 3.3 37.94 0.234 7.2 10.03 14.76
2/17/2021 2:30:00 PM 3.35 38.03 0.234 7.22 16.84 14.74
2/17/2021 2:45:00 PM 3.36 38.048 0.235 7.23 10.77 14.73
2/17/2021 3:00:00 PM 3.36 38.048 0.235 7.27 8.96 14.68
2/17/2021 3:15:00 PM 3.34 38.012 0.24 7.27 9.2 14.68
2/17/2021 3:30:00 PM 3.3 37.94 0.235 7.28 9.36 14.67
2/17/2021 3:45:00 PM 3.28 37.904 0.233 7.27 8.97 14.64
2/17/2021 4:00:00 PM 3.23 37.814 0.234 7.28 9.37 14.61
2/17/2021 4:15:00 PM 3.2 37.76 0.232 7.29 9.41 14.59
2/17/2021 4:30:00 PM 3.15 37.67 0.233 7.31 8.28 14.57
2/17/2021 4:45:00 PM 3.11 37.598 0.234 7.34 9.4 14.49
2/17/2021 5:00:00 PM 3.09 37.562 0.235 7.34 8.73 14.42
2/17/2021 5:15:00 PM 3.06 37.508 0.235 7.31 9.16 14.36
2/17/2021 5:30:00 PM 3.03 37.454 0.235 7.32 9.26 14.29
2/17/2021 5:45:00 PM 2.99 37.382 0.235 7.32 9.2 14.18
2/17/2021 6:00:00 PM 2.95 37.31 0.235 7.32 9.18 14.11
2/17/2021 6:15:00 PM 2.91 37.238 0.23 7.31 8.86 14
2/17/2021 6:30:00 PM 2.86 37.148 0.216 7.3 8.62 13.94
2/17/2021 6:45:00 PM 2.83 37.094 0.232 7.33 7.96 13.88
2/17/2021 7:00:00 PM 2.8 37.04 0.235 7.34 9.37 13.83
2/17/2021 7:15:00 PM 2.78 37.004 0.226 7.36 7.77 13.78
2/17/2021 7:30:00 PM 2.75 36.95 0.23 7.36 8.09 13.74
2/17/2021 7:45:00 PM 2.74 36.932 0.23 7.35 8.08 13.71
2/17/2021 8:00:00 PM 2.75 36.95 0.227 7.33 10.16 13.66
2/17/2021 8:15:00 PM 2.76 36.968 0.228 7.32 8.22 13.65
2/17/2021 8:30:00 PM 2.76 36.968 0.226 7.33 8.12 13.64
2/17/2021 8:45:00 PM 2.78 37.004 0.226 7.32 9.64 13.61
2/17/2021 9:00:00 PM 2.79 37.022 0.224 7.34 7.98 13.6
2/17/2021 9:15:00 PM 2.79 37.022 0.223 7.33 7.88 13.57
2/17/2021 9:30:00 PM 2.79 37.022 0.223 7.32 7.82 13.56
2/17/2021 9:45:00 PM 2.79 37.022 0.224 7.32 7.78 13.55
2/17/2021 10:00:00 PM 2.79 37.022 0.224 7.33 7.89 13.55
2/17/2021 10:15:00 PM 2.78 37.004 0.225 7.32 8.18 13.54
2/17/2021 10:30:00 PM 2.76 36.968 0.223 7.31 8.4 13.52
2/17/2021 10:45:00 PM 2.75 36.95 0.225 7.32 8.41 13.49
2/17/2021 11:00:00 PM 2.73 36.914 0.224 7.32 7.44 13.51
2/17/2021 11:15:00 PM 2.69 36.842 0.225 7.35 7.69 13.5
2/17/2021 11:30:00 PM 2.66 36.788 0.222 7.34 7.4 13.49
2/17/2021 11:45:00 PM 2.63 36.734 0.227 7.35 8.13 13.48
2/18/2021 12:00:00 AM 2.58 36.644 0.224 7.35 7.06 13.49
2/18/2021 12:15:00 AM 2.57 36.626 0.225 7.35 7.23 13.47
2/18/2021 12:30:00 AM 2.55 36.59 0.224 7.37 7.37 13.47
2/18/2021 12:45:00 AM 2.53 36.554 0.224 7.37 7.49 13.44
2/18/2021 1:00:00 AM 2.54 36.572 0.225 7.38 7.56 13.44
2/18/2021 1:15:00 AM 2.52 36.536 0.224 7.38 9.21 13.43
2/18/2021 1:30:00 AM 2.5 36.5 0.24 7.4 8.81 13.43
2/18/2021 1:45:00 AM 2.5 36.5 0.236 7.4 7.43 13.43
2/18/2021 2:00:00 AM 2.49 36.482 0.227 7.4 6.8 13.41
2/18/2021 2:15:00 AM 2.5 36.5 0.225 7.4 6.71 13.42
2/18/2021 2:30:00 AM 2.49 36.482 0.226 7.4 6.9 13.41
2/18/2021 2:45:00 AM 2.49 36.482 0.229 7.41 6.89 13.42
2/18/2021 3:00:00 AM 2.47 36.446 0.227 7.4 6.69 13.42
2/18/2021 3:15:00 AM 2.44 36.392 0.227 7.41 6.74 13.4
2/18/2021 3:30:00 AM 2.44 36.392 0.226 7.42 6.64 13.4
2/18/2021 3:45:00 AM 2.45 36.41 0.226 7.41 6.31 13.41
2/18/2021 4:00:00 AM 2.45 36.41 0.224 7.41 6.72 13.4
2/18/2021 4:15:00 AM 2.43 36.374 0.223 7.42 6.67 13.39
2/18/2021 4:30:00 AM 2.43 36.374 0.224 7.43 6.53 13.4
2/18/2021 4:45:00 AM 2.43 36.374 0.223 7.42 6.02 13.41
2/18/2021 5:00:00 AM 2.39 36.302 0.225 7.43 6.36 13.42
2/18/2021 5:15:00 AM 2.28 36.104 0.226 7.43 5.93 13.43
2/18/2021 5:30:00 AM 2.19 35.942 0.22 7.42 6.44 13.42
2/18/2021 5:45:00 AM 2.06 35.708 0.226 7.43 6.4 13.44
2/18/2021 6:00:00 AM 1.92 35.456 0.219 7.42 6.79 13.47
2/18/2021 6:15:00 AM 1.86 35.348 0.219 7.42 7.14 13.48
2/18/2021 6:30:00 AM 1.8 35.24 0.218 7.42 6.45 13.51
2/18/2021 6:45:00 AM 1.79 35.222 0.216 7.42 5.91 13.51
2/18/2021 7:00:00 AM 1.75 35.15 0.216 7.42 6.25 13.54
2/18/2021 7:15:00 AM 1.73 35.114 0.219 7.43 7.87 13.55
2/18/2021 7:30:00 AM 1.71 35.078 0.219 7.42 6.47 13.56
2/18/2021 7:45:00 AM 1.68 35.024 0.221 7.43 6.72 13.59
2/18/2021 8:00:00 AM 1.66 34.988 0.22 7.43 6.88 13.66
2/18/2021 8:15:00 AM 1.62 34.916 0.22 7.44 7.01 13.72
2/18/2021 8:30:00 AM 1.59 34.862 0.219 7.43 6.63 13.79
2/18/2021 8:45:00 AM 1.54 34.772 0.219 7.44 6.78 13.89
2/18/2021 9:00:00 AM 1.49 34.682 0.219 7.45 7.29 13.94
2/18/2021 9:15:00 AM 1.44 34.592 0.218 7.45 6.47 14.08
2/18/2021 9:30:00 AM 1.35 34.43 0.218 7.45 6.65 14.18
2/18/2021 9:45:00 AM 1.34 34.412 0.223 7.45 6.96 14.25
2/18/2021 10:00:00 AM 1.31 34.358 0.222 7.43 7.89 14.32
2/18/2021 10:15:00 AM 1.26 34.268 0.219 7.44 7.04 14.39
2/18/2021 10:30:00 AM 1.22 34.196 0.219 7.44 6.6 14.45
2/18/2021 10:45:00 AM 1.19 34.142 0.22 7.45 6.74 14.47
2/18/2021 11:00:00 AM 1.12 34.016 0.219 7.48 7.72 14.52
2/18/2021 11:15:00 AM 1.07 33.926 0.219 7.48 7.38 14.61
2/18/2021 11:30:00 AM 1.12 34.016 0.219 7.49 6.68 14.69
2/18/2021 11:45:00 AM 1.2 34.16 0.22 7.5 6.98 14.74
2/18/2021 12:00:00 PM 1.31 34.358 0.22 7.5 6.58 14.77
2/18/2021 12:15:00 PM 1.42 34.556 0.221 7.52 6.59 14.73
2/18/2021 12:30:00 PM 1.43 34.574 0.22 7.52 6.37 14.76
2/18/2021 12:45:00 PM 1.47 34.646 0.22 7.53 6.02 14.78
2/18/2021 1:00:00 PM 1.59 34.862 0.22 7.53 6.08 14.76
2/18/2021 1:15:00 PM 1.63 34.934 0.219 7.53 6.77 14.76
2/18/2021 1:30:00 PM 1.61 34.898 0.219 7.54 6.89 14.77
2/18/2021 1:45:00 PM 1.62 34.916 0.219 7.55 6.97 14.83
2/18/2021 2:00:00 PM 1.64 34.952 0.219 7.56 8.03 14.82
2/18/2021 2:15:00 PM 1.66 34.988 0.22 7.56 7.23 14.81
2/18/2021 2:30:00 PM 1.79 35.222 0.22 7.55 6.76 14.81
2/18/2021 2:45:00 PM 1.71 35.078 0.221 7.53 6.64 14.85
2/18/2021 3:00:00 PM 1.7 35.06 0.222 7.55 6.65 14.88
2/18/2021 3:15:00 PM 1.7 35.06 0.222 7.56 6.65 14.92
2/18/2021 3:30:00 PM 1.78 35.204 0.221 7.55 5.92 14.92
2/18/2021 3:45:00 PM 1.73 35.114 0.22 7.56 6.95 14.94
2/18/2021 4:00:00 PM 1.71 35.078 0.22 7.56 6.5 14.93
2/18/2021 4:15:00 PM 1.74 35.132 0.218 7.56 7.33 14.89
2/18/2021 4:30:00 PM 1.76 35.168 0.218 7.56 6.78 14.88
2/18/2021 4:45:00 PM 1.78 35.204 0.219 7.56 6.77 14.81
2/18/2021 5:00:00 PM 1.78 35.204 0.22 7.57 7.71 14.71
2/18/2021 5:15:00 PM 1.77 35.186 0.22 7.55 7.91 14.64
2/18/2021 5:30:00 PM 1.71 35.078 0.222 7.55 6.8 14.6
2/18/2021 5:45:00 PM 1.76 35.168 0.221 7.55 6.86 14.46
2/18/2021 6:00:00 PM 1.63 34.934 0.225 7.51 7.15 14.4
2/18/2021 6:15:00 PM 1.66 34.988 0.227 7.53 6.87 14.33
2/18/2021 6:30:00 PM 1.61 34.898 0.223 7.52 9.49 14.3
2/18/2021 6:45:00 PM 1.76 35.168 0.221 7.48 7.42 14.22
2/18/2021 7:00:00 PM 1.7 35.06 0.221 7.5 6.48 14.21
2/18/2021 7:15:00 PM 1.64 34.952 0.222 7.5 6.65 14.18
2/18/2021 7:30:00 PM 1.65 34.97 0.223 7.5 7.16 14.18
2/18/2021 7:45:00 PM 1.59 34.862 0.222 7.5 6.68 14.18
2/18/2021 8:00:00 PM 1.56 34.808 0.223 7.5 7.76 14.13
2/18/2021 8:15:00 PM 1.64 34.952 0.221 7.49 7.14 14.12
2/18/2021 8:30:00 PM 1.61 34.898 0.223 7.48 6.65 14.08
2/18/2021 8:45:00 PM 1.66 34.988 0.217 7.48 7.24 14.07
2/18/2021 9:00:00 PM 1.62 34.916 0.217 7.41 6.75 14.07
2/18/2021 9:15:00 PM 1.64 34.952 0.217 7.44 6.85 14.05
2/18/2021 9:30:00 PM 1.71 35.078 0.219 7.4 6.57 14
2/18/2021 9:45:00 PM 1.6 34.88 0.22 7.4 7.04 14
2/18/2021 10:00:00 PM 1.61 34.898 0.221 7.41 7.9 14
2/18/2021 10:15:00 PM 1.61 34.898 0.221 7.41 7.05 14
2/18/2021 10:30:00 PM 1.62 34.916 0.223 7.43 7.32 13.98
2/18/2021 10:45:00 PM 1.63 34.934 0.223 7.43 7.12 13.98
2/18/2021 11:00:00 PM 1.61 34.898 0.221 7.45 7.06 13.96
2/18/2021 11:15:00 PM 1.69 35.042 0.22 7.44 6.58 13.93
2/18/2021 11:30:00 PM 1.62 34.916 0.219 7.44 7.2 13.95
2/18/2021 11:45:00 PM 1.69 35.042 0.219 7.44 6.96 13.9
2/19/2021 12:00:00 AM 1.68 35.024 0.218 7.43 7.55 13.9
2/19/2021 12:15:00 AM 1.6 34.88 0.221 7.45 7.74 13.89
2/19/2021 12:30:00 AM 1.72 35.096 0.22 7.42 7.26 13.86
2/19/2021 12:45:00 AM 1.62 34.916 0.22 7.45 6.62 13.85
2/19/2021 1:00:00 AM 1.67 35.006 0.221 7.43 6.51 13.84
2/19/2021 1:15:00 AM 1.7 35.06 0.222 7.44 6.24 13.82
2/19/2021 1:30:00 AM 1.65 34.97 0.221 7.44 6.68 13.83
2/19/2021 1:45:00 AM 1.67 35.006 0.219 7.43 6.07 13.81
2/19/2021 2:00:00 AM 1.71 35.078 0.218 7.44 6.35 13.78
2/19/2021 2:15:00 AM 1.64 34.952 0.219 7.44 5.97 13.8
2/19/2021 2:30:00 AM 1.68 35.024 0.219 7.44 6.03 13.79
2/19/2021 2:45:00 AM 1.64 34.952 0.222 7.44 6.03 13.74
2/19/2021 3:00:00 AM 1.64 34.952 0.221 7.43 6.76 13.77
2/19/2021 3:15:00 AM 1.63 34.934 0.221 7.42 6.51 13.74
2/19/2021 3:30:00 AM 1.67 35.006 0.221 7.43 6.43 13.75
2/19/2021 3:45:00 AM 1.63 34.934 0.221 7.43 6.51 13.74
2/19/2021 4:00:00 AM 1.64 34.952 0.22 7.42 6.32 13.72
2/19/2021 4:15:00 AM 1.63 34.934 0.219 7.42 6.67 13.73
2/19/2021 4:30:00 AM 1.6 34.88 0.219 7.4 6.12 13.72
2/19/2021 4:45:00 AM 1.61 34.898 0.22 7.41 6.19 13.71
2/19/2021 5:00:00 AM 1.63 34.934 0.22 7.37 6.12 13.68
2/19/2021 5:15:00 AM 1.67 35.006 0.222 7.38 6.08 13.67
2/19/2021 5:30:00 AM 1.6 34.88 0.222 7.36 6.56 13.69
2/19/2021 5:45:00 AM 1.59 34.862 0.221 7.29 6.35 13.7
2/19/2021 6:00:00 AM 1.55 34.79 0.22 7.32 5.74 13.69
2/19/2021 6:15:00 AM 1.57 34.826 0.219 7.26 5.93 13.66
2/19/2021 6:30:00 AM 1.66 34.988 0.219 7.24 6.14 13.67
2/19/2021 6:45:00 AM 1.61 34.898 0.219 7.19 5.92 13.66
2/19/2021 7:00:00 AM 1.58 34.844 0.219 7.21 7.03 13.67
2/19/2021 7:15:00 AM 1.58 34.844 0.219 7.19 6.4 13.67
2/19/2021 7:30:00 AM 1.54 34.772 0.219 7.2 6.17 13.7
2/19/2021 7:45:00 AM 1.55 34.79 0.22 7.19 6.73 13.69
2/19/2021 8:00:00 AM 1.58 34.844 0.22 7.19 6.51 13.71
2/19/2021 8:15:00 AM 1.58 34.844 0.219 7.19 6.79 13.77
2/19/2021 8:30:00 AM 1.52 34.736 0.219 7.18 6.61 13.82
2/19/2021 8:45:00 AM 1.55 34.79 0.22 7.2 7.23 13.9
2/19/2021 9:00:00 AM 1.56 34.808 0.22 7.19 7.3 14
2/19/2021 9:15:00 AM 1.5 34.7 0.219 7.21 6.78 14.13
2/19/2021 9:30:00 AM 1.51 34.718 0.219 7.21 6.98 14.28
2/19/2021 9:45:00 AM 1.5 34.7 0.221 7.22 6.06 14.41
2/19/2021 10:00:00 AM 1.58 34.844 0.221 7.24 5.73 14.52
2/19/2021 10:15:00 AM 1.68 35.024 0.221 7.25 5.94 14.56
2/19/2021 10:30:00 AM 1.69 35.042 0.221 7.24 7.02 14.61
2/19/2021 10:45:00 AM 1.73 35.114 0.221 7.25 6.32 14.66
2/19/2021 11:00:00 AM 1.8 35.24 0.22 7.26 6.22 14.73
2/19/2021 11:15:00 AM 1.85 35.33 0.22 7.28 6.3 14.79
2/19/2021 11:30:00 AM 1.94 35.492 0.222 7.29 6.49 14.84
2/19/2021 11:45:00 AM 1.95 35.51 0.219 7.3 6.03 14.87
2/19/2021 12:00:00 PM 1.96 35.528 0.219 7.3 6.08 14.89
2/19/2021 12:15:00 PM 2.06 35.708 0.22 7.31 6.14 14.9
2/19/2021 12:30:00 PM 2.11 35.798 0.221 7.32 6.5 14.93
2/19/2021 12:45:00 PM 2.09 35.762 0.222 7.33 6.33 14.92
2/19/2021 1:00:00 PM 2.19 35.942 0.221 7.36 6.18 14.94
2/19/2021 1:15:00 PM 2.27 36.086 0.22 7.38 6.07 14.95
2/19/2021 1:30:00 PM 2.27 36.086 0.221 7.39 5.59 14.94
2/19/2021 1:45:00 PM 2.31 36.158 0.22 7.36 6.56 14.94
2/19/2021 2:00:00 PM 2.37 36.266 0.219 7.4 6.29 14.95
2/19/2021 2:15:00 PM 2.49 36.482 0.22 7.34 6.72 14.97
2/19/2021 2:30:00 PM 2.53 36.554 0.221 7.41 6.92 14.97
2/19/2021 2:45:00 PM 2.57 36.626 0.222 7.42 6.49 14.99
2/19/2021 3:00:00 PM 2.59 36.662 0.222 7.43 7.23 14.97
2/19/2021 3:15:00 PM 2.65 36.77 0.223 7.44 6.93 14.96
2/19/2021 3:30:00 PM 2.69 36.842 0.223 7.43 7.02 14.96
2/19/2021 3:45:00 PM 2.72 36.896 0.219 7.47 7 14.93
2/19/2021 4:00:00 PM 2.73 36.914 0.221 7.45 7.2 14.91
2/19/2021 4:15:00 PM 2.72 36.896 0.219 7.41 6.34 14.84
2/19/2021 4:30:00 PM 2.74 36.932 0.22 7.43 6.05 14.8
2/19/2021 4:45:00 PM 2.72 36.896 0.219 7.45 6.53 14.81
2/19/2021 5:00:00 PM 2.74 36.932 0.22 7.43 7.77 14.73
2/19/2021 5:15:00 PM 2.7 36.86 0.22 7.43 6.54 14.61
2/19/2021 5:30:00 PM 2.7 36.86 0.221 7.42 7.67 14.43
2/19/2021 5:45:00 PM 2.66 36.788 0.222 7.44 7.13 14.32
2/19/2021 6:00:00 PM 2.65 36.77 0.222 7.41 7.03 14.2
2/19/2021 6:15:00 PM 2.66 36.788 0.226 7.41 7.49 14.07
2/19/2021 6:30:00 PM 2.59 36.662 0.209 7.4 6.41 13.99
2/19/2021 6:45:00 PM 2.57 36.626 0.22 7.41 6.54 13.9
2/19/2021 7:00:00 PM 2.57 36.626 0.224 7.41 6.78 13.85
2/19/2021 7:15:00 PM 2.56 36.608 0.224 7.41 6.96 13.79
2/19/2021 7:30:00 PM 2.55 36.59 0.229 7.39 7.33 13.74
2/19/2021 7:45:00 PM 2.52 36.536 0.23 7.37 6.42 13.72
2/19/2021 8:00:00 PM 2.54 36.572 0.236 7.36 7.1 13.67
2/19/2021 8:15:00 PM 2.53 36.554 0.227 7.35 6.56 13.65
2/19/2021 8:30:00 PM 2.54 36.572 0.228 7.33 6.8 13.62
2/19/2021 8:45:00 PM 2.51 36.518 0.227 7.3 6.78 13.59
2/19/2021 9:00:00 PM 2.5 36.5 0.227 7.28 6.45 13.56
2/19/2021 9:15:00 PM 2.48 36.464 0.227 7.29 7.07 13.55
2/19/2021 9:30:00 PM 2.5 36.5 0.243 7.27 6.33 13.49
2/19/2021 9:45:00 PM 2.51 36.518 0.232 7.27 6.87 13.5
2/19/2021 10:00:00 PM 2.52 36.536 0.219 7.27 6.72 13.46
2/19/2021 10:15:00 PM 2.53 36.554 0.217 7.29 6.3 13.45
2/19/2021 10:30:00 PM 2.56 36.608 0.218 7.29 6.34 13.42
2/19/2021 10:45:00 PM 2.53 36.554 0.218 7.3 5.99 13.41
2/19/2021 11:00:00 PM 2.53 36.554 0.217 7.3 6.56 13.41
2/19/2021 11:15:00 PM 2.53 36.554 0.216 7.31 6.05 13.39
2/19/2021 11:30:00 PM 2.5 36.5 0.215 7.3 6.23 13.37
2/19/2021 11:45:00 PM 2.52 36.536 0.214 7.32 6.12 13.35
2/20/2021 12:00:00 AM 2.5 36.5 0.214 7.3 6.04 13.35
2/20/2021 12:15:00 AM 2.51 36.518 0.217 7.33 6.01 13.34
2/20/2021 12:30:00 AM 2.5 36.5 0.224 7.34 6.22 13.33
2/20/2021 12:45:00 AM 2.51 36.518 0.224 7.33 6.54 13.31
2/20/2021 1:00:00 AM 2.48 36.464 0.23 7.33 5.69 13.29
2/20/2021 1:15:00 AM 2.47 36.446 0.227 7.34 6.09 13.3
2/20/2021 1:30:00 AM 2.42 36.356 0.226 7.3 6.01 13.3
2/20/2021 1:45:00 AM 2.4 36.32 0.225 7.32 5.95 13.29
2/20/2021 2:00:00 AM 2.34 36.212 0.221 7.27 6.71 13.3
2/20/2021 2:15:00 AM 2.32 36.176 0.22 7.27 6.19 13.3
2/20/2021 2:30:00 AM 2.29 36.122 0.22 7.26 6.61 13.29
2/20/2021 2:45:00 AM 2.22 35.996 0.222 7.24 5.97 13.28
2/20/2021 3:00:00 AM 2.16 35.888 0.222 7.23 6.59 13.29
2/20/2021 3:15:00 AM 2.14 35.852 0.225 7.23 5.98 13.31
2/20/2021 3:30:00 AM 2.11 35.798 0.225 7.23 5.99 13.3
2/20/2021 3:45:00 AM 2.06 35.708 0.226 7.24 6.14 13.32
2/20/2021 4:00:00 AM 2.03 35.654 0.227 7.23 6.02 13.3
2/20/2021 4:15:00 AM 2 35.6 0.229 7.21 6.12 13.31
2/20/2021 4:30:00 AM 2 35.6 0.23 7.22 5.93 13.32
2/20/2021 4:45:00 AM 1.97 35.546 0.228 7.22 6.15 13.31
2/20/2021 5:00:00 AM 1.96 35.528 0.232 7.23 6.07 13.32
2/20/2021 5:15:00 AM 1.93 35.474 0.233 7.22 5.64 13.34
2/20/2021 5:30:00 AM 1.89 35.402 0.233 7.21 5.81 13.33
2/20/2021 5:45:00 AM 1.88 35.384 0.232 7.22 6.53 13.34
2/20/2021 6:00:00 AM 1.85 35.33 0.232 7.23 5.74 13.37
2/20/2021 6:15:00 AM 1.81 35.258 0.231 7.23 5.88 13.36
2/20/2021 6:30:00 AM 1.8 35.24 0.227 7.22 5.52 13.36
2/20/2021 6:45:00 AM 1.75 35.15 0.23 7.23 6.12 13.38
2/20/2021 7:00:00 AM 1.75 35.15 0.229 7.21 5.96 13.4
2/20/2021 7:15:00 AM 1.69 35.042 0.23 7.2 6.24 13.44
2/20/2021 7:30:00 AM 1.7 35.06 0.232 7.22 5.97 13.55
2/20/2021 7:45:00 AM 1.68 35.024 0.233 7.22 6.03 13.63
2/20/2021 8:00:00 AM 1.7 35.06 0.233 7.24 5.72 13.8
2/20/2021 8:15:00 AM 1.74 35.132 0.233 7.22 5.83 13.94
2/20/2021 8:30:00 AM 1.75 35.15 0.234 7.24 5.71 14.11
2/20/2021 8:45:00 AM 1.79 35.222 0.233 7.24 6.56 14.23
2/20/2021 9:00:00 AM 1.85 35.33 0.234 7.27 6.61 14.34
2/20/2021 9:15:00 AM 1.88 35.384 0.234 7.29 6.83 14.46
2/20/2021 9:30:00 AM 1.98 35.564 0.233 7.33 6.45 14.56
2/20/2021 9:45:00 AM 2.09 35.762 0.233 7.34 6.67 14.62
2/20/2021 10:00:00 AM 2.17 35.906 0.234 7.36 6.23 14.69
2/20/2021 10:15:00 AM 2.2 35.96 0.236 7.4 6.37 14.75
2/20/2021 10:30:00 AM 2.38 36.284 0.235 7.45 6.12 14.8
2/20/2021 10:45:00 AM 2.51 36.518 0.235 7.46 6.29 14.86
2/20/2021 11:00:00 AM 2.58 36.644 0.233 7.45 6.62 14.88
2/20/2021 11:15:00 AM 2.75 36.95 0.232 7.47 6.42 14.91
2/20/2021 11:30:00 AM 2.84 37.112 0.232 7.49 7.36 14.94
2/20/2021 11:45:00 AM 2.93 37.274 0.231 7.5 6.09 14.95
2/20/2021 12:00:00 PM 2.98 37.364 0.231 7.53 6.33 14.95
2/20/2021 12:15:00 PM 3.02 37.436 0.231 7.52 6.06 14.97
2/20/2021 12:30:00 PM 3.09 37.562 0.233 7.52 6.41 14.99
2/20/2021 12:45:00 PM 3.22 37.796 0.232 7.56 6.19 15.01
2/20/2021 1:00:00 PM 3.33 37.994 0.231 7.57 6.63 15
2/20/2021 1:15:00 PM 3.4 38.12 0.231 7.57 6.11 14.99
2/20/2021 1:30:00 PM 3.43 38.174 0.23 7.58 6.03 14.97
2/20/2021 1:45:00 PM 3.46 38.228 0.23 7.58 6.03 14.96
2/20/2021 2:00:00 PM 3.48 38.264 0.23 7.58 6.35 14.96
2/20/2021 2:15:00 PM 3.56 38.408 0.229 7.6 6.1 14.97
2/20/2021 2:30:00 PM 3.57 38.426 0.229 7.59 6.48 14.95
2/20/2021 2:45:00 PM 3.54 38.372 0.23 7.59 6.42 14.93
2/20/2021 3:00:00 PM 3.52 38.336 0.231 7.6 6.31 14.93
2/20/2021 3:15:00 PM 3.51 38.318 0.232 7.56 6.7 14.93
2/20/2021 3:30:00 PM 3.53 38.354 0.232 7.55 7.16 14.93
2/20/2021 3:45:00 PM 3.51 38.318 0.231 7.55 6.82 14.95
2/20/2021 4:00:00 PM 3.4 38.12 0.23 7.56 7.29 14.89
2/20/2021 4:15:00 PM 3.32 37.976 0.23 7.55 7.05 14.84
2/20/2021 4:30:00 PM 3.23 37.814 0.229 7.54 7.51 14.77
2/20/2021 4:45:00 PM 3.15 37.67 0.229 7.53 6.35 14.73
2/20/2021 5:00:00 PM 3.07 37.526 0.229 7.54 6.39 14.64
2/20/2021 5:15:00 PM 2.99 37.382 0.23 7.53 6.53 14.57
2/20/2021 5:30:00 PM 2.92 37.256 0.23 7.51 6.42 14.46
2/20/2021 5:45:00 PM 2.84 37.112 0.232 7.52 6.35 14.36
2/20/2021 6:00:00 PM 2.77 36.986 0.231 7.51 6.9 14.22
2/20/2021 6:15:00 PM 2.7 36.86 0.231 7.48 6.98 14.11
2/20/2021 6:30:00 PM 2.63 36.734 0.229 7.49 7.13 14.03
2/20/2021 6:45:00 PM 2.57 36.626 0.228 7.47 6.41 13.96
2/20/2021 7:00:00 PM 2.51 36.518 0.228 7.47 6.3 13.9
2/20/2021 7:15:00 PM 2.46 36.428 0.23 7.47 6.56 13.83
2/20/2021 7:30:00 PM 2.42 36.356 0.229 7.49 6.33 13.8
2/20/2021 7:45:00 PM 2.37 36.266 0.227 7.46 6.2 13.76
2/20/2021 8:00:00 PM 2.34 36.212 0.227 7.46 6.35 13.72
2/20/2021 8:15:00 PM 2.3 36.14 0.226 7.44 6.54 13.7
2/20/2021 8:30:00 PM 2.25 36.05 0.222 7.4 6.67 13.7
2/20/2021 8:45:00 PM 2.24 36.032 0.221 7.4 6.06 13.69
2/20/2021 9:00:00 PM 2.21 35.978 0.224 7.4 6.21 13.67
2/20/2021 9:15:00 PM 2.17 35.906 0.223 7.38 5.82 13.66
2/20/2021 9:30:00 PM 2.18 35.924 0.223 7.38 6.1 13.65
2/20/2021 9:45:00 PM 2.15 35.87 0.222 7.39 7.62 13.62
2/20/2021 10:00:00 PM 2.13 35.834 0.223 7.35 6.82 13.61
2/20/2021 10:15:00 PM 2.11 35.798 0.23 7.35 6.37 13.58
2/20/2021 10:30:00 PM 2.11 35.798 0.237 7.35 6.86 13.59
2/20/2021 10:45:00 PM 2.07 35.726 0.225 7.35 5.93 13.59
2/20/2021 11:00:00 PM 2.05 35.69 0.225 7.34 6.3 13.57
2/20/2021 11:15:00 PM 2.02 35.636 0.223 7.32 6.22 13.57
2/20/2021 11:30:00 PM 2 35.6 0.223 7.24 6.07 13.57
2/20/2021 11:45:00 PM 1.99 35.582 0.221 7.2 6.02 13.57
2/21/2021 12:00:00 AM 1.96 35.528 0.222 7.29 5.66 13.58
2/21/2021 12:15:00 AM 1.93 35.474 0.227 7.3 6.15 13.58
2/21/2021 12:30:00 AM 1.87 35.366 0.223 7.3 6.52 13.59
2/21/2021 12:45:00 AM 1.83 35.294 0.226 7.3 6.05 13.61
2/21/2021 1:00:00 AM 1.8 35.24 0.225 7.3 6.16 13.62
2/21/2021 1:15:00 AM 1.74 35.132 0.226 7.31 6.39 13.63
2/21/2021 1:30:00 AM 1.7 35.06 0.225 7.29 5.99 13.64
2/21/2021 1:45:00 AM 1.64 34.952 0.225 7.28 6.24 13.65
2/21/2021 2:00:00 AM 1.61 34.898 0.224 7.3 5.98 13.64
2/21/2021 2:15:00 AM 1.56 34.808 0.224 7.31 5.82 13.67
2/21/2021 2:30:00 AM 1.52 34.736 0.222 7.3 6.21 13.68
2/21/2021 2:45:00 AM 1.49 34.682 0.223 7.33 5.78 13.68
2/21/2021 3:00:00 AM 1.43 34.574 0.224 7.33 6.02 13.7
2/21/2021 3:15:00 AM 1.4 34.52 0.225 7.32 5.99 13.72
2/21/2021 3:30:00 AM 1.34 34.412 0.227 7.3 5.58 13.73
2/21/2021 3:45:00 AM 1.29 34.322 0.225 7.28 5.84 13.76
2/21/2021 4:00:00 AM 1.22 34.196 0.227 7.24 5.78 13.77
2/21/2021 4:15:00 AM 1.2 34.16 0.224 7.27 5.72 13.76
2/21/2021 4:30:00 AM 1.15 34.07 0.224 7.25 5.6 13.79
2/21/2021 4:45:00 AM 1.13 34.034 0.223 7.23 5.48 13.79
2/21/2021 5:00:00 AM 1.06 33.908 0.223 7.22 5.78 13.81
2/21/2021 5:15:00 AM 1.05 33.89 0.228 7.22 5.33 13.83
2/21/2021 5:30:00 AM 0.99 33.782 0.227 7.22 6.03 13.84
2/21/2021 5:45:00 AM 0.96 33.728 0.227 7.24 5.51 13.85
2/21/2021 6:00:00 AM 0.96 33.728 0.227 7.26 6.33 13.85
2/21/2021 6:15:00 AM 0.94 33.692 0.226 7.24 5.8 13.87
2/21/2021 6:30:00 AM 0.95 33.71 0.229 7.24 5.91 13.85
2/21/2021 6:45:00 AM 0.94 33.692 0.226 7.23 5.9 13.84
2/21/2021 7:00:00 AM 0.92 33.656 0.226 7.22 6.96 13.87
2/21/2021 7:15:00 AM 0.92 33.656 0.223 7.24 6.73 13.9
2/21/2021 7:30:00 AM 0.89 33.602 0.223 7.24 6.65 13.97
2/21/2021 7:45:00 AM 0.9 33.62 0.224 7.24 6.15 14.08
2/21/2021 8:00:00 AM 0.93 33.674 0.225 7.23 6.54 14.22
2/21/2021 8:15:00 AM 0.97 33.746 0.224 7.25 7 14.36
2/21/2021 8:30:00 AM 1.01 33.818 0.225 7.25 6.95 14.52
2/21/2021 8:45:00 AM 1.03 33.854 0.221 7.27 7.35 14.66
2/21/2021 9:00:00 AM 1.16 34.088 0.224 7.26 8.5 14.78
2/21/2021 9:15:00 AM 1.3 34.34 0.225 7.29 7 14.88
2/21/2021 9:30:00 AM 1.38 34.484 0.228 7.32 6.63 14.98
2/21/2021 9:45:00 AM 1.56 34.808 0.227 7.34 6.2 15.07
2/21/2021 10:00:00 AM 1.71 35.078 0.227 7.39 6.59 15.13
2/21/2021 10:15:00 AM 1.78 35.204 0.228 7.42 6.35 15.21
2/21/2021 10:30:00 AM 1.82 35.276 0.228 7.43 6.84 15.3
2/21/2021 10:45:00 AM 1.9 35.42 0.229 7.47 5.89 15.36
2/21/2021 11:00:00 AM 2.01 35.618 0.227 7.49 5.84 15.39
2/21/2021 11:15:00 AM 2.16 35.888 0.226 7.5 6.11 15.39
2/21/2021 11:30:00 AM 2.26 36.068 0.227 7.52 6.11 15.4
2/21/2021 11:45:00 AM 2.39 36.302 0.227 7.53 5.5 15.4
2/21/2021 12:00:00 PM 2.58 36.644 0.224 7.56 6.09 15.38
2/21/2021 12:15:00 PM 2.7 36.86 0.224 7.55 5.76 15.36
2/21/2021 12:30:00 PM 2.79 37.022 0.225 7.56 5.81 15.37
2/21/2021 12:45:00 PM 2.86 37.148 0.226 7.57 7.27 15.4
2/21/2021 1:00:00 PM 3.01 37.418 0.229 7.56 6.19 15.38
2/21/2021 1:15:00 PM 3.11 37.598 0.225 7.57 6.51 15.38
2/21/2021 1:30:00 PM 3.15 37.67 0.226 7.56 6.99 15.38
2/21/2021 1:45:00 PM 3.2 37.76 0.223 7.56 5.53 15.37
2/21/2021 2:00:00 PM 3.23 37.814 0.223 7.56 6.36 15.36
2/21/2021 2:15:00 PM 3.25 37.85 0.223 7.55 5.96 15.37
2/21/2021 2:30:00 PM 3.29 37.922 0.223 7.56 6.05 15.31
2/21/2021 2:45:00 PM 3.26 37.868 0.224 7.57 6.02 15.3
2/21/2021 3:00:00 PM 3.29 37.922 0.224 7.56 5.8 15.25
2/21/2021 3:15:00 PM 3.25 37.85 0.225 7.56 6.39 15.22
2/21/2021 3:30:00 PM 3.25 37.85 0.226 7.55 6.03 15.17
2/21/2021 3:45:00 PM 3.21 37.778 0.226 7.56 6.14 15.13
2/21/2021 4:00:00 PM 3.17 37.706 0.226 7.54 6.23 15.09
2/21/2021 4:15:00 PM 3.1 37.58 0.226 7.54 6.66 15.06
2/21/2021 4:30:00 PM 3.03 37.454 0.225 7.53 6.03 15.01
2/21/2021 4:45:00 PM 2.93 37.274 0.224 7.52 6.13 14.96
2/21/2021 5:00:00 PM 2.87 37.166 0.224 7.53 6.66 14.87
2/21/2021 5:15:00 PM 2.79 37.022 0.227 7.52 7.36 14.81
2/21/2021 5:30:00 PM 2.68 36.824 0.228 7.51 6.78 14.75
2/21/2021 5:45:00 PM 2.58 36.644 0.228 7.49 8.14 14.69
2/21/2021 6:00:00 PM 2.47 36.446 0.227 7.48 7.65 14.6
2/21/2021 6:15:00 PM 2.37 36.266 0.229 7.47 8.26 14.5
2/21/2021 6:30:00 PM 2.28 36.104 0.229 7.48 7.63 14.41
2/21/2021 6:45:00 PM 2.19 35.942 0.241 7.48 8.02 14.35
2/21/2021 7:00:00 PM 2.17 35.906 0.229 7.46 7.25 14.24
2/21/2021 7:15:00 PM 2.15 35.87 0.226 7.45 7.48 14.16
2/21/2021 7:30:00 PM 2.13 35.834 0.227 7.44 7.56 14.1
2/21/2021 7:45:00 PM 2.09 35.762 0.232 7.44 7.64 14.05
2/21/2021 8:00:00 PM 2.11 35.798 0.231 7.39 8 13.99
2/21/2021 8:15:00 PM 2.13 35.834 0.23 7.36 7.26 13.96
2/21/2021 8:30:00 PM 2.16 35.888 0.228 7.37 7.11 13.89
2/21/2021 8:45:00 PM 2.18 35.924 0.233 7.36 7.52 13.85
2/21/2021 9:00:00 PM 2.2 35.96 0.222 7.39 7.91 13.81
2/21/2021 9:15:00 PM 2.21 35.978 0.221 7.36 8.53 13.77
2/21/2021 9:30:00 PM 2.22 35.996 0.219 7.36 7.18 13.76
2/21/2021 9:45:00 PM 2.26 36.068 0.219 7.35 7.18 13.7
2/21/2021 10:00:00 PM 2.25 36.05 0.22 7.33 7.32 13.68
2/21/2021 10:15:00 PM 2.27 36.086 0.221 7.31 7.24 13.65
2/21/2021 10:30:00 PM 2.29 36.122 0.222 7.33 7.42 13.63
2/21/2021 10:45:00 PM 2.28 36.104 0.221 7.34 6.58 13.6
2/21/2021 11:00:00 PM 2.27 36.086 0.221 7.32 8.27 13.58
2/21/2021 11:15:00 PM 2.29 36.122 0.219 7.29 6.61 13.56
2/21/2021 11:30:00 PM 2.28 36.104 0.22 7.31 7.27 13.55
2/21/2021 11:45:00 PM 2.29 36.122 0.217 7.3 6.98 13.53
2/22/2021 12:00:00 AM 2.31 36.158 0.218 7.31 7.06 13.53
2/22/2021 12:15:00 AM 2.32 36.176 0.219 7.3 6.59 13.51
2/22/2021 12:30:00 AM 2.29 36.122 0.219 7.3 6.83 13.5
2/22/2021 12:45:00 AM 2.29 36.122 0.22 7.29 7.24 13.48
2/22/2021 1:00:00 AM 2.28 36.104 0.219 7.29 6.85 13.5
2/22/2021 1:15:00 AM 2.25 36.05 0.22 7.28 7.62 13.49
2/22/2021 1:30:00 AM 2.24 36.032 0.22 7.3 6.9 13.46
2/22/2021 1:45:00 AM 2.23 36.014 0.22 7.28 6.98 13.47
2/22/2021 2:00:00 AM 2.19 35.942 0.219 7.29 7.02 13.49
2/22/2021 2:15:00 AM 2.16 35.888 0.22 7.27 6.86 13.47
2/22/2021 2:30:00 AM 2.12 35.816 0.218 7.27 6.37 13.46
2/22/2021 2:45:00 AM 2.08 35.744 0.221 7.28 6.83 13.46
2/22/2021 3:00:00 AM 2.02 35.636 0.222 7.27 6.61 13.48
2/22/2021 3:15:00 AM 2.02 35.636 0.222 7.26 6.77 13.48
2/22/2021 3:30:00 AM 2.04 35.672 0.22 7.26 6.74 13.46
2/22/2021 3:45:00 AM 2 35.6 0.221 7.26 6.41 13.46
2/22/2021 4:00:00 AM 1.95 35.51 0.221 7.26 6.37 13.48
2/22/2021 4:15:00 AM 1.93 35.474 0.219 7.26 6.66 13.45
2/22/2021 4:30:00 AM 1.9 35.42 0.219 7.26 6.26 13.5
2/22/2021 4:45:00 AM 1.9 35.42 0.217 7.26 6.66 13.48
2/22/2021 5:00:00 AM 1.94 35.492 0.216 7.25 6.95 13.45
2/22/2021 5:15:00 AM 1.92 35.456 0.219 7.27 6.61 13.43
2/22/2021 5:30:00 AM 1.91 35.438 0.218 7.24 6.56 13.43
2/22/2021 5:45:00 AM 1.92 35.456 0.217 7.24 6.31 13.44
2/22/2021 6:00:00 AM 1.91 35.438 0.215 7.25 6.34 13.45
2/22/2021 6:15:00 AM 1.88 35.384 0.215 7.25 6.32 13.45
2/22/2021 6:30:00 AM 1.85 35.33 0.214 7.22 6.2 13.46
2/22/2021 6:45:00 AM 1.89 35.402 0.212 7.24 6.39 13.45
2/22/2021 7:00:00 AM 1.88 35.384 0.212 7.24 6.61 13.47
2/22/2021 7:15:00 AM 1.9 35.42 0.21 7.23 6.54 13.48
2/22/2021 7:30:00 AM 1.89 35.402 0.21 7.24 6.12 13.54
2/22/2021 7:45:00 AM 1.89 35.402 0.211 7.24 6.48 13.59
2/22/2021 8:00:00 AM 1.9 35.42 0.21 7.23 6.64 13.68
2/22/2021 8:15:00 AM 1.93 35.474 0.21 7.23 6.43 13.81
2/22/2021 8:30:00 AM 1.92 35.456 0.209 7.23 6.49 13.91
2/22/2021 8:45:00 AM 1.86 35.348 0.208 7.22 6.67 14
2/22/2021 9:00:00 AM 1.77 35.186 0.207 7.22 6.45 14.05
2/22/2021 9:15:00 AM 1.59 34.862 0.206 7.23 6.03 14.09
2/22/2021 9:30:00 AM 1.41 34.538 0.208 7.22 6.26 14.17
2/22/2021 9:45:00 AM 1.32 34.376 0.207 7.22 6.17 14.26
2/22/2021 10:00:00 AM 1.23 34.214 0.207 7.23 6.46 14.34
2/22/2021 10:15:00 AM 1.07 33.926 0.208 7.21 6.15 14.45
2/22/2021 10:30:00 AM 1.04 33.872 0.206 7.22 7.01 14.51
2/22/2021 10:45:00 AM 0.98 33.764 0.205 7.22 6.54 14.59
2/22/2021 11:00:00 AM 1 33.8 0.207 7.24 7.01 14.64
2/22/2021 11:15:00 AM 1.01 33.818 0.205 7.27 6.97 14.7
2/22/2021 11:30:00 AM 1.06 33.908 0.205 7.24 6.61 14.75
2/22/2021 11:45:00 AM 1.15 34.07 0.204 7.26 6.43 14.8
2/22/2021 12:00:00 PM 1.24 34.232 0.203 7.28 6.94 14.83
2/22/2021 12:15:00 PM 1.31 34.358 0.204 7.29 7.1 14.9
2/22/2021 12:30:00 PM 1.43 34.574 0.205 7.32 6.23 14.95
2/22/2021 12:45:00 PM 1.57 34.826 0.204 7.33 6.29 14.95
2/22/2021 1:00:00 PM 1.7 35.06 0.203 7.35 6.35 14.96
2/22/2021 1:15:00 PM 1.81 35.258 0.203 7.35 7.18 14.96
2/22/2021 1:30:00 PM 1.86 35.348 0.202 7.36 6.82 14.97
2/22/2021 1:45:00 PM 1.92 35.456 0.202 7.37 6.84 14.94
2/22/2021 2:00:00 PM 1.98 35.564 0.202 7.37 6.28 14.9
2/22/2021 2:15:00 PM 2.05 35.69 0.201 7.39 6.35 14.88
2/22/2021 2:30:00 PM 2.08 35.744 0.202 7.38 6.56 14.91
2/22/2021 2:45:00 PM 2.16 35.888 0.203 7.4 7.5 14.93
2/22/2021 3:00:00 PM 2.18 35.924 0.204 7.41 6.96 14.97
2/22/2021 3:15:00 PM 2.27 36.086 0.206 7.41 6.9 14.92
2/22/2021 3:30:00 PM 2.34 36.212 0.206 7.42 8.35 14.96
2/22/2021 3:45:00 PM 2.33 36.194 0.206 7.43 6.38 14.93
2/22/2021 4:00:00 PM 2.36 36.248 0.206 7.44 6.75 14.87
2/22/2021 4:15:00 PM 2.38 36.284 0.206 7.43 6.67 14.83
2/22/2021 4:30:00 PM 2.4 36.32 0.205 7.42 6.75 14.81
2/22/2021 4:45:00 PM 2.39 36.302 0.205 7.42 6.74 14.8
2/22/2021 5:00:00 PM 2.43 36.374 0.205 7.44 7.15 14.71
2/22/2021 5:15:00 PM 2.37 36.266 0.206 7.43 6.54 14.65
2/22/2021 5:30:00 PM 2.38 36.284 0.207 7.43 6.35 14.54
2/22/2021 5:45:00 PM 2.31 36.158 0.208 7.42 6.3 14.42
2/22/2021 6:00:00 PM 2.27 36.086 0.212 7.42 7.43 14.3
2/22/2021 6:15:00 PM 2.21 35.978 0.213 7.42 6.36 14.18
2/22/2021 6:30:00 PM 2.14 35.852 0.211 7.41 6.85 14.07
2/22/2021 6:45:00 PM 2.15 35.87 0.211 7.4 6.72 13.99
2/22/2021 7:00:00 PM 2.13 35.834 0.219 7.4 8.46 13.92
2/22/2021 7:15:00 PM 2.01 35.618 0.217 7.39 7.47 13.88
2/22/2021 7:30:00 PM 2.03 35.654 0.216 7.38 6.98 13.83
2/22/2021 7:45:00 PM 2.06 35.708 0.216 7.37 7.14 13.77
2/22/2021 8:00:00 PM 2.02 35.636 0.217 7.36 7.77 13.76
2/22/2021 8:15:00 PM 2.03 35.654 0.215 7.35 7.26 13.75
2/22/2021 8:30:00 PM 2 35.6 0.214 7.35 7.12 13.72
2/22/2021 8:45:00 PM 1.98 35.564 0.214 7.34 7.12 13.69
2/22/2021 9:00:00 PM 1.99 35.582 0.213 7.35 7.61 13.68
2/22/2021 9:15:00 PM 1.92 35.456 0.213 7.33 6.97 13.69
2/22/2021 9:30:00 PM 1.96 35.528 0.211 7.33 7.01 13.64
2/22/2021 9:45:00 PM 1.87 35.366 0.21 7.34 6.48 13.66
2/22/2021 10:00:00 PM 1.88 35.384 0.211 7.33 6.97 13.65
2/22/2021 10:15:00 PM 1.87 35.366 0.21 7.33 6.7 13.62
2/22/2021 10:30:00 PM 1.79 35.222 0.215 7.33 6.51 13.64
2/22/2021 10:45:00 PM 1.83 35.294 0.213 7.31 6.55 13.59
2/22/2021 11:00:00 PM 1.75 35.15 0.213 7.29 6.38 13.61
2/22/2021 11:15:00 PM 1.75 35.15 0.211 7.29 6.46 13.59
2/22/2021 11:30:00 PM 1.76 35.168 0.212 7.28 6.67 13.59
2/22/2021 11:45:00 PM 1.75 35.15 0.21 7.27 6.98 13.58
2/23/2021 12:00:00 AM 1.7 35.06 0.21 7.29 6.88 13.59
2/23/2021 12:15:00 AM 1.73 35.114 0.209 7.25 7.71 13.57
2/23/2021 12:30:00 AM 1.72 35.096 0.212 7.24 6.73 13.58
2/23/2021 12:45:00 AM 1.7 35.06 0.212 7.23 6.86 13.55
2/23/2021 1:00:00 AM 1.71 35.078 0.212 7.24 6.66 13.54
2/23/2021 1:15:00 AM 1.7 35.06 0.213 7.26 6.35 13.54
2/23/2021 1:30:00 AM 1.66 34.988 0.213 7.25 6.23 13.55
2/23/2021 1:45:00 AM 1.68 35.024 0.213 7.24 6.64 13.55
2/23/2021 2:00:00 AM 1.68 35.024 0.212 7.25 6.86 13.52
2/23/2021 2:15:00 AM 1.61 34.898 0.212 7.25 6.52 13.48
2/23/2021 2:30:00 AM 1.63 34.934 0.212 7.25 6.97 13.49
2/23/2021 2:45:00 AM 1.68 35.024 0.213 7.25 6.71 13.47
2/23/2021 3:00:00 AM 1.66 34.988 0.211 7.23 6.8 13.47
2/23/2021 3:15:00 AM 1.62 34.916 0.212 7.21 6.33 13.47
2/23/2021 3:30:00 AM 1.6 34.88 0.215 7.24 6.18 13.48
2/23/2021 3:45:00 AM 1.59 34.862 0.214 7.21 6.25 13.46
2/23/2021 4:00:00 AM 1.52 34.736 0.214 7.23 6.24 13.45
2/23/2021 4:15:00 AM 1.51 34.718 0.213 7.24 6.37 13.47
2/23/2021 4:30:00 AM 1.51 34.718 0.212 7.22 6.51 13.45
2/23/2021 4:45:00 AM 1.49 34.682 0.211 7.23 6.43 13.46
2/23/2021 5:00:00 AM 1.47 34.646 0.21 7.22 6.29 13.46
2/23/2021 5:15:00 AM 1.46 34.628 0.212 7.22 6.4 13.45
2/23/2021 5:30:00 AM 1.37 34.466 0.213 7.23 6.15 13.49
2/23/2021 5:45:00 AM 1.41 34.538 0.214 7.22 6.11 13.48
2/23/2021 6:00:00 AM 1.32 34.376 0.212 7.21 6.22 13.49
2/23/2021 6:15:00 AM 1.32 34.376 0.212 7.22 6.59 13.49
2/23/2021 6:30:00 AM 1.26 34.268 0.209 7.22 6.9 13.49
2/23/2021 6:45:00 AM 1.24 34.232 0.212 7.22 6.46 13.49
2/23/2021 7:00:00 AM 1.23 34.214 0.21 7.23 8.08 13.54
2/23/2021 7:15:00 AM 1.27 34.286 0.209 7.22 6.41 13.56
2/23/2021 7:30:00 AM 1.26 34.268 0.225 7.23 6.69 13.64
2/23/2021 7:45:00 AM 1.27 34.286 0.227 7.22 7.09 13.73
2/23/2021 8:00:00 AM 1.34 34.412 0.227 7.23 7.7 13.83
2/23/2021 8:15:00 AM 1.34 34.412 0.223 7.24 6.98 13.95
2/23/2021 8:30:00 AM 1.35 34.43 0.221 7.26 7.55 14.11
2/23/2021 8:45:00 AM 1.4 34.52 0.221 7.25 7.48 14.24
2/23/2021 9:00:00 AM 1.46 34.628 0.22 7.26 8.05 14.39
2/23/2021 9:15:00 AM 1.54 34.772 0.22 7.27 6.97 14.53
2/23/2021 9:30:00 AM 1.57 34.826 0.22 7.29 7.33 14.61
2/23/2021 9:45:00 AM 1.76 35.168 0.219 7.31 7.3 14.73
2/23/2021 10:00:00 AM 1.92 35.456 0.22 7.36 6.83 14.83
2/23/2021 10:15:00 AM 2.13 35.834 0.22 7.37 6.54 14.86
2/23/2021 10:30:00 AM 2.25 36.05 0.22 7.4 6.66 14.92
2/23/2021 10:45:00 AM 2.31 36.158 0.219 7.42 6.26 14.9
2/23/2021 11:00:00 AM 2.33 36.194 0.219 7.42 6.73 14.9
2/23/2021 11:15:00 AM 2.35 36.23 0.218 7.44 7.07 14.87
2/23/2021 11:30:00 AM 2.38 36.284 0.219 7.42 6.82 14.85
2/23/2021 11:45:00 AM 2.5 36.5 0.219 7.43 6.76 14.88
2/23/2021 12:00:00 PM 2.56 36.608 0.219 7.44 7.56 14.95
2/23/2021 12:15:00 PM 2.72 36.896 0.219 7.46 6.66 15.01
2/23/2021 12:30:00 PM 2.81 37.058 0.221 7.45 7.46 15.05
2/23/2021 12:45:00 PM 2.96 37.328 0.222 7.49 6.89 15.07
2/23/2021 1:00:00 PM 3.14 37.652 0.221 7.52 7.11 15.08
2/23/2021 1:15:00 PM 3.35 38.03 0.222 7.55 6.82 15.04
2/23/2021 1:30:00 PM 3.5 38.3 0.222 7.57 6.98 15.04
2/23/2021 1:45:00 PM 3.64 38.552 0.222 7.57 6.71 15.02
2/23/2021 2:00:00 PM 3.72 38.696 0.222 7.59 7.2 15.02
2/23/2021 2:15:00 PM 3.83 38.894 0.222 7.59 7.84 14.96
2/23/2021 2:30:00 PM 3.9 39.02 0.222 7.61 7.03 14.93
2/23/2021 2:45:00 PM 3.93 39.074 0.223 7.61 6.8 14.9
2/23/2021 3:00:00 PM 4.01 39.218 0.229 7.61 7.32 14.92
2/23/2021 3:15:00 PM 4.01 39.218 0.229 7.57 7.92 14.84
2/23/2021 3:30:00 PM 3.96 39.128 0.229 7.59 7.67 14.75
2/23/2021 3:45:00 PM 3.93 39.074 0.23 7.58 7.34 14.73
2/23/2021 4:00:00 PM 3.9 39.02 0.234 7.59 7.11 14.73
2/23/2021 4:15:00 PM 3.87 38.966 0.229 7.59 7.28 14.67
2/23/2021 4:30:00 PM 3.83 38.894 0.227 7.59 7.07 14.64
2/23/2021 4:45:00 PM 3.78 38.804 0.227 7.54 7.01 14.59
2/23/2021 5:00:00 PM 3.77 38.786 0.23 7.57 7.23 14.47
2/23/2021 5:15:00 PM 3.75 38.75 0.23 7.55 7.95 14.38
2/23/2021 5:30:00 PM 3.72 38.696 0.234 7.56 7.32 14.26
2/23/2021 5:45:00 PM 3.69 38.642 0.232 7.56 7.99 14.08
2/23/2021 6:00:00 PM 3.67 38.606 0.232 7.55 8.95 13.94
2/23/2021 6:15:00 PM 3.61 38.498 0.228 7.53 7.26 13.81
2/23/2021 6:30:00 PM 3.57 38.426 0.212 7.53 6.84 13.67
2/23/2021 6:45:00 PM 3.51 38.318 0.212 7.49 6.89 13.58
2/23/2021 7:00:00 PM 3.46 38.228 0.212 7.49 7.28 13.48
2/23/2021 7:15:00 PM 3.42 38.156 0.219 7.48 7.13 13.4
2/23/2021 7:30:00 PM 3.38 38.084 0.218 7.47 7.23 13.34
2/23/2021 7:45:00 PM 3.34 38.012 0.226 7.43 7.62 13.3
2/23/2021 8:00:00 PM 3.32 37.976 0.23 7.42 7.49 13.25
2/23/2021 8:15:00 PM 3.3 37.94 0.229 7.44 15.97 13.21
2/23/2021 8:30:00 PM 3.28 37.904 0.216 7.44 7.89 13.2
2/23/2021 8:45:00 PM 3.27 37.886 0.218 7.41 7.29 13.18
2/23/2021 9:00:00 PM 3.27 37.886 0.218 7.4 7.1 13.14
2/23/2021 9:15:00 PM 3.27 37.886 0.217 7.41 7.46 13.11
2/23/2021 9:30:00 PM 3.28 37.904 0.214 7.4 7.69 13.1
2/23/2021 9:45:00 PM 3.29 37.922 0.216 7.4 8.03 13.05
2/23/2021 10:00:00 PM 3.3 37.94 0.217 7.4 7.39 13.02
2/23/2021 10:15:00 PM 3.3 37.94 0.222 7.39 7.69 13
2/23/2021 10:30:00 PM 3.3 37.94 0.22 7.38 7.6 13
2/23/2021 10:45:00 PM 3.3 37.94 0.219 7.37 7.8 12.98
2/23/2021 11:00:00 PM 3.29 37.922 0.219 7.37 8.05 12.97
2/23/2021 11:15:00 PM 3.27 37.886 0.218 7.38 8.16 12.95
2/23/2021 11:30:00 PM 3.25 37.85 0.224 7.37 8.41 12.96
2/23/2021 11:45:00 PM 3.23 37.814 0.225 7.37 9.1 12.96
2/24/2021 12:00:00 AM 3.21 37.778 0.226 7.35 9.54 12.96
2/24/2021 12:15:00 AM 3.19 37.742 0.226 7.36 9.59 12.95
2/24/2021 12:30:00 AM 3.15 37.67 0.223 7.33 10.08 12.94
2/24/2021 12:45:00 AM 3.12 37.616 0.233 7.35 10.01 12.96
2/24/2021 1:00:00 AM 3.09 37.562 0.233 7.35 10.53 12.94
2/24/2021 1:15:00 AM 3.05 37.49 0.23 7.35 11.18 12.93
2/24/2021 1:30:00 AM 3.03 37.454 0.236 7.35 11.25 12.94
2/24/2021 1:45:00 AM 2.99 37.382 0.236 7.35 10.94 12.93
2/24/2021 2:00:00 AM 2.96 37.328 0.229 7.35 10.72 12.92
2/24/2021 2:15:00 AM 2.93 37.274 0.231 7.34 10.33 12.91
2/24/2021 2:30:00 AM 2.9 37.22 0.233 7.33 11.09 12.92
2/24/2021 2:45:00 AM 2.88 37.184 0.232 7.31 10.46 12.92
2/24/2021 3:00:00 AM 2.85 37.13 0.23 7.32 10.12 12.93
2/24/2021 3:15:00 AM 2.82 37.076 0.225 7.32 10.05 12.94
2/24/2021 3:30:00 AM 2.8 37.04 0.222 7.3 9.86 12.92
2/24/2021 3:45:00 AM 2.77 36.986 0.225 7.31 10.29 12.94
2/24/2021 4:00:00 AM 2.75 36.95 0.233 7.31 12.02 12.93
2/24/2021 4:15:00 AM 2.72 36.896 0.229 7.3 10.08 12.94
2/24/2021 4:30:00 AM 2.7 36.86 0.225 7.29 9.82 12.95
2/24/2021 4:45:00 AM 2.68 36.824 0.224 7.29 9.69 12.95
2/24/2021 5:00:00 AM 2.66 36.788 0.224 7.29 9.11 12.96
2/24/2021 5:15:00 AM 2.64 36.752 0.225 7.29 8.96 12.97
2/24/2021 5:30:00 AM 2.62 36.716 0.228 7.3 9.92 12.98
2/24/2021 5:45:00 AM 2.59 36.662 0.226 7.3 9.08 12.97
2/24/2021 6:00:00 AM 2.58 36.644 0.224 7.29 8.64 12.99
2/24/2021 6:15:00 AM 2.57 36.626 0.225 7.3 8.7 13
2/24/2021 6:30:00 AM 2.56 36.608 0.221 7.29 8.48 12.99
2/24/2021 6:45:00 AM 2.53 36.554 0.224 7.29 8.44 13.02
2/24/2021 7:00:00 AM 2.55 36.59 0.22 7.28 8.41 13.02
2/24/2021 7:15:00 AM 2.54 36.572 0.221 7.27 8.53 13.09
2/24/2021 7:30:00 AM 2.53 36.554 0.222 7.28 8.19 13.19
2/24/2021 7:45:00 AM 2.54 36.572 0.223 7.28 8.45 13.33
2/24/2021 8:00:00 AM 2.58 36.644 0.223 7.29 8.14 13.51
2/24/2021 8:15:00 AM 2.59 36.662 0.224 7.31 8.53 13.68
2/24/2021 8:30:00 AM 2.64 36.752 0.223 7.31 8.58 13.86
2/24/2021 8:45:00 AM 2.68 36.824 0.224 7.33 7.8 14
2/24/2021 9:00:00 AM 2.77 36.986 0.226 7.35 8.12 14.15
2/24/2021 9:15:00 AM 2.85 37.13 0.224 7.37 8.58 14.26
2/24/2021 9:30:00 AM 2.94 37.292 0.223 7.4 8.72 14.34
2/24/2021 9:45:00 AM 3.07 37.526 0.223 7.43 8.65 14.42
2/24/2021 10:00:00 AM 3.22 37.796 0.223 7.46 7.99 14.5
2/24/2021 10:15:00 AM 3.37 38.066 0.223 7.5 8.46 14.55
2/24/2021 10:30:00 AM 3.51 38.318 0.223 7.55 8.79 14.58
2/24/2021 10:45:00 AM 3.65 38.57 0.223 7.57 7.93 14.63
2/24/2021 11:00:00 AM 3.82 38.876 0.221 7.6 8.16 14.67
2/24/2021 11:15:00 AM 3.97 39.146 0.22 7.61 8.45 14.7
2/24/2021 11:30:00 AM 4.11 39.398 0.221 7.62 8.07 14.72
2/24/2021 11:45:00 AM 4.28 39.704 0.219 7.64 8.07 14.72
2/24/2021 12:00:00 PM 4.41 39.938 0.218 7.66 7.83 14.73
2/24/2021 12:15:00 PM 4.56 40.208 0.218 7.67 7.69 14.74
2/24/2021 12:30:00 PM 4.7 40.46 0.219 7.68 8.1 14.74
2/24/2021 12:45:00 PM 4.82 40.676 0.22 7.7 8.61 14.72
2/24/2021 1:00:00 PM 4.92 40.856 0.219 7.73 10.72 14.73
2/24/2021 1:15:00 PM 5.01 41.018 0.22 7.74 12.58 14.72
2/24/2021 1:30:00 PM 5.08 41.144 0.221 7.76 11.68 14.73
2/24/2021 1:45:00 PM 5.14 41.252 0.218 7.76 11.56 14.7
2/24/2021 2:00:00 PM 5.19 41.342 0.218 7.75 12.99 14.68
2/24/2021 2:15:00 PM 5.23 41.414 0.217 7.74 13.61 14.64
2/24/2021 2:30:00 PM 5.27 41.486 0.218 7.75 14.33 14.62
2/24/2021 2:45:00 PM 5.31 41.558 0.221 7.72 16.23 14.55
2/24/2021 3:00:00 PM 5.31 41.558 0.223 7.73 16.14 14.53
2/24/2021 3:15:00 PM 5.31 41.558 0.224 7.75 13.25 14.49
2/24/2021 3:30:00 PM 5.29 41.522 0.223 7.75 11.34 14.45
2/24/2021 3:45:00 PM 5.23 41.414 0.223 7.73 11.9 14.41
2/24/2021 4:00:00 PM 5.2 41.36 0.223 7.71 11.51 14.34
2/24/2021 4:15:00 PM 5.17 41.306 0.222 7.7 11.58 14.24
2/24/2021 4:30:00 PM 5.12 41.216 0.224 7.7 12.36 14.13
2/24/2021 4:45:00 PM 5.09 41.162 0.226 7.69 10.56 14.02
2/24/2021 5:00:00 PM 5.05 41.09 0.229 7.68 11.75 13.92
2/24/2021 5:15:00 PM 4.99 40.982 0.228 7.68 10.55 13.83
2/24/2021 5:30:00 PM 4.94 40.892 0.226 7.65 10.71 13.71
2/24/2021 5:45:00 PM 4.86 40.748 0.232 7.59 10.73 13.6
2/24/2021 6:00:00 PM 4.81 40.658 0.228 7.5 10.02 13.48
2/24/2021 6:15:00 PM 4.75 40.55 0.226 7.14 10.12 13.37
2/24/2021 6:30:00 PM 4.73 40.514 0.225 7.06 9.81 13.25
2/24/2021 6:45:00 PM 4.71 40.478 0.229 7.22 10.51 13.13
2/24/2021 7:00:00 PM 4.71 40.478 0.221 7.28 10.43 13.04
2/24/2021 7:15:00 PM 4.69 40.442 0.226 7.29 10.55 12.97
2/24/2021 7:30:00 PM 4.72 40.496 0.225 7.34 10.59 12.92
2/24/2021 7:45:00 PM 4.7 40.46 0.226 7.36 10.89 12.86
2/24/2021 8:00:00 PM 4.7 40.46 0.224 7.39 10.14 12.82
2/24/2021 8:15:00 PM 4.68 40.424 0.223 7.39 11.71 12.78
2/24/2021 8:30:00 PM 4.71 40.478 0.222 7.39 14.23 12.74
2/24/2021 8:45:00 PM 4.69 40.442 0.221 7.39 14.66 12.7
2/24/2021 9:00:00 PM 4.77 40.586 0.227 7.39 15.52 12.65
2/24/2021 9:15:00 PM 4.85 40.73 0.227 7.4 16.49 12.63
2/24/2021 9:30:00 PM 4.86 40.748 0.228 7.41 14.9 12.61
2/24/2021 9:45:00 PM 4.89 40.802 0.229 7.38 20.29 12.57
2/24/2021 10:00:00 PM 4.9 40.82 0.223 7.4 17.47 12.54
2/24/2021 10:15:00 PM 4.89 40.802 0.225 7.4 16.09 12.54
2/24/2021 10:30:00 PM 4.9 40.82 0.224 7.39 17.75 12.5
2/24/2021 10:45:00 PM 4.85 40.73 0.223 7.4 16.73 12.51
2/24/2021 11:00:00 PM 4.89 40.802 0.223 7.39 16.65 12.47
2/24/2021 11:15:00 PM 4.8 40.64 0.227 7.39 17.6 12.44
2/24/2021 11:30:00 PM 4.79 40.622 0.232 7.4 14.76 12.43
2/24/2021 11:45:00 PM 4.79 40.622 0.238 7.38 16.31 12.38
2/25/2021 12:00:00 AM 4.76 40.568 0.239 7.38 14.67 12.37
2/25/2021 12:15:00 AM 4.78 40.604 0.235 7.38 16.99 12.35
2/25/2021 12:30:00 AM 4.82 40.676 0.243 7.38 17.92 12.32
2/25/2021 12:45:00 AM 4.77 40.586 0.235 7.39 15.9 12.3
2/25/2021 1:00:00 AM 4.72 40.496 0.236 7.38 17.25 12.3
2/25/2021 1:15:00 AM 4.71 40.478 0.233 7.36 17.3 12.3
2/25/2021 1:30:00 AM 4.62 40.316 0.231 7.36 18.03 12.3
2/25/2021 1:45:00 AM 4.61 40.298 0.236 7.36 19.48 12.29
2/25/2021 2:00:00 AM 4.58 40.244 0.238 7.34 16.86 12.29
2/25/2021 2:15:00 AM 4.56 40.208 0.236 7.34 16.67 12.28
2/25/2021 2:30:00 AM 4.56 40.208 0.23 7.34 17.14 12.28
2/25/2021 2:45:00 AM 4.54 40.172 0.233 7.34 17.27 12.28
2/25/2021 3:00:00 AM 4.53 40.154 0.23 7.35 16.9 12.25
2/25/2021 3:15:00 AM 4.46 40.028 0.231 7.35 16.79 12.28
2/25/2021 3:30:00 AM 4.51 40.118 0.23 7.35 14.71 12.26
2/25/2021 3:45:00 AM 4.43 39.974 0.23 7.35 13.87 12.29
2/25/2021 4:00:00 AM 4.42 39.956 0.228 7.34 15.4 12.3
2/25/2021 4:15:00 AM 4.39 39.902 0.243 7.34 14.77 12.3
2/25/2021 4:30:00 AM 4.38 39.884 0.243 7.29 17.01 12.31
2/25/2021 4:45:00 AM 4.38 39.884 0.241 7.3 15.19 12.33
2/25/2021 5:00:00 AM 4.32 39.776 0.23 7.31 15.75 12.33
2/25/2021 5:15:00 AM 4.34 39.812 0.23 7.31 15.75 12.34
2/25/2021 5:30:00 AM 4.3 39.74 0.226 7.31 16.13 12.34
2/25/2021 5:45:00 AM 4.27 39.686 0.222 7.31 16.71 12.35
2/25/2021 6:00:00 AM 4.23 39.614 0.222 7.31 17.55 12.39
2/25/2021 6:15:00 AM 4.25 39.65 0.227 7.3 15.39 12.38
2/25/2021 6:30:00 AM 4.2 39.56 0.224 7.28 14.48 12.43
2/25/2021 6:45:00 AM 4.15 39.47 0.224 7.29 14.52 12.43
2/25/2021 7:00:00 AM 4.09 39.362 0.231 7.29 13.08 12.47
2/25/2021 7:15:00 AM 4.06 39.308 0.234 7.29 14.49 12.52
2/25/2021 7:30:00 AM 4.06 39.308 0.231 7.29 23.02 12.58
2/25/2021 7:45:00 AM 4.04 39.272 0.232 7.3 13.43 12.67
2/25/2021 8:00:00 AM 4.04 39.272 0.232 7.3 13.19 12.8
2/25/2021 8:15:00 AM 4.01 39.218 0.231 7.32 13.4 12.91
2/25/2021 8:30:00 AM 4.01 39.218 0.231 7.32 12.67 13.04
2/25/2021 8:45:00 AM 4.03 39.254 0.232 7.33 12 13.16
2/25/2021 9:00:00 AM 4.06 39.308 0.233 7.33 13.62 13.26
2/25/2021 9:15:00 AM 4.12 39.416 0.232 7.35 12.58 13.37
2/25/2021 9:30:00 AM 4.15 39.47 0.234 7.36 13.64 13.48
2/25/2021 9:45:00 AM 4.2 39.56 0.234 7.37 12.84 13.56
2/25/2021 10:00:00 AM 4.32 39.776 0.233 7.42 12.57 13.65
2/25/2021 10:15:00 AM 4.34 39.812 0.231 7.42 12.06 13.73
2/25/2021 10:30:00 AM 4.44 39.992 0.23 7.44 11.87 13.8
2/25/2021 10:45:00 AM 4.49 40.082 0.229 7.47 12.08 13.87
2/25/2021 11:00:00 AM 4.58 40.244 0.229 7.5 12.02 13.95
2/25/2021 11:15:00 AM 4.68 40.424 0.227 7.51 11.92 14.01
2/25/2021 11:30:00 AM 4.75 40.55 0.227 7.55 10.89 14.05
2/25/2021 11:45:00 AM 4.85 40.73 0.23 7.51 10.87 14.1
2/25/2021 12:00:00 PM 4.94 40.892 0.227 7.59 11.97 14.15
2/25/2021 12:15:00 PM 5.06 41.108 0.227 7.6 11.2 14.19
2/25/2021 12:30:00 PM 5.11 41.198 0.226 7.62 11.68 14.22
2/25/2021 12:45:00 PM 5.2 41.36 0.226 7.63 10.39 14.25
2/25/2021 1:00:00 PM 5.28 41.504 0.223 7.64 11.27 14.27
2/25/2021 1:15:00 PM 5.37 41.666 0.222 7.65 11.27 14.29
2/25/2021 1:30:00 PM 5.37 41.666 0.222 7.66 10.71 14.29
2/25/2021 1:45:00 PM 5.49 41.882 0.227 7.66 10.51 14.31
2/25/2021 2:00:00 PM 5.52 41.936 0.223 7.67 10.81 14.3
2/25/2021 2:15:00 PM 5.52 41.936 0.226 7.67 10.73 14.28
2/25/2021 2:30:00 PM 5.6 42.08 0.221 7.68 10.45 14.29
2/25/2021 2:45:00 PM 5.59 42.062 0.222 7.69 11.48 14.27
2/25/2021 3:00:00 PM 5.6 42.08 0.223 7.68 11.23 14.25
2/25/2021 3:15:00 PM 5.56 42.008 0.223 7.69 10.78 14.21
2/25/2021 3:30:00 PM 5.53 41.954 0.228 7.68 11.25 14.18
2/25/2021 3:45:00 PM 5.5 41.9 0.222 7.69 9.34 14.15
2/25/2021 4:00:00 PM 5.55 41.99 0.225 7.7 9.28 14.09
2/25/2021 4:15:00 PM 5.41 41.738 0.228 7.69 8.91 14.03
2/25/2021 4:30:00 PM 5.37 41.666 0.229 7.69 7.62 13.93
2/25/2021 4:45:00 PM 5.39 41.702 0.229 7.69 8.23 13.84
2/25/2021 5:00:00 PM 5.33 41.594 0.228 7.68 7.76 13.73
2/25/2021 5:15:00 PM 5.31 41.558 0.229 7.68 7.72 13.67
2/25/2021 5:30:00 PM 5.28 41.504 0.228 7.66 8.06 13.54
2/25/2021 5:45:00 PM 5.24 41.432 0.227 7.65 8.11 13.46
2/25/2021 6:00:00 PM 5.18 41.324 0.226 7.61 9 13.32
2/25/2021 6:15:00 PM 5.15 41.27 0.225 7.6 8.16 13.24
2/25/2021 6:30:00 PM 5.12 41.216 0.221 7.59 9.58 13.13
2/25/2021 6:45:00 PM 5.15 41.27 0.242 7.58 8.74 13.05
2/25/2021 7:00:00 PM 5.14 41.252 0.225 7.55 8.7 12.96
2/25/2021 7:15:00 PM 5.1 41.18 0.216 7.55 8.86 12.9
2/25/2021 7:30:00 PM 5.1 41.18 0.216 7.53 15.29 12.85
2/25/2021 7:45:00 PM 5.05 41.09 0.216 7.53 11.49 12.81
2/25/2021 8:00:00 PM 5.12 41.216 0.22 7.53 8.68 12.77
2/25/2021 8:15:00 PM 5.07 41.126 0.222 7.52 9.85 12.75
2/25/2021 8:30:00 PM 5 41 0.221 7.51 9.94 12.72
2/25/2021 8:45:00 PM 5.01 41.018 0.213 7.5 9.42 12.72
2/25/2021 9:00:00 PM 4.98 40.964 0.215 7.49 10.67 12.7
2/25/2021 9:15:00 PM 4.95 40.91 0.213 7.48 9.35 12.67
2/25/2021 9:30:00 PM 4.92 40.856 0.217 7.47 9.93 12.65
2/25/2021 9:45:00 PM 4.89 40.802 0.221 7.47 10.44 12.64
2/25/2021 10:00:00 PM 4.89 40.802 0.225 7.46 12.47 12.6
2/25/2021 10:15:00 PM 4.81 40.658 0.222 7.46 11.08 12.6
2/25/2021 10:30:00 PM 4.8 40.64 0.217 7.46 16.75 12.56
2/25/2021 10:45:00 PM 4.76 40.568 0.212 7.47 11.49 12.54
2/25/2021 11:00:00 PM 4.71 40.478 0.219 7.46 11.34 12.52
2/25/2021 11:15:00 PM 4.67 40.406 0.221 7.45 15.67 12.5
2/25/2021 11:30:00 PM 4.61 40.298 0.222 7.45 12.02 12.5
2/25/2021 11:45:00 PM 4.61 40.298 0.22 7.45 15.22 12.49
2/26/2021 12:00:00 AM 4.55 40.19 0.22 7.45 11.36 12.5
2/26/2021 12:15:00 AM 4.58 40.244 0.221 7.43 12.94 12.47
2/26/2021 12:30:00 AM 4.49 40.082 0.221 7.43 13.88 12.49
2/26/2021 12:45:00 AM 4.47 40.046 0.225 7.43 14.3 12.49
2/26/2021 1:00:00 AM 4.46 40.028 0.226 7.43 12.7 12.47
2/26/2021 1:15:00 AM 4.39 39.902 0.225 7.42 13 12.48
2/26/2021 1:30:00 AM 4.37 39.866 0.224 7.41 13.29 12.5
2/26/2021 1:45:00 AM 4.36 39.848 0.222 7.4 11.81 12.49
2/26/2021 2:00:00 AM 4.33 39.794 0.224 7.41 12.63 12.5
2/26/2021 2:15:00 AM 4.3 39.74 0.229 7.38 13.31 12.5
2/26/2021 2:30:00 AM 4.27 39.686 0.228 7.39 11.72 12.53
2/26/2021 2:45:00 AM 4.27 39.686 0.229 7.39 16.58 12.52
2/26/2021 3:00:00 AM 4.24 39.632 0.228 7.38 11.44 12.53
2/26/2021 3:15:00 AM 4.22 39.596 0.228 7.36 15.11 12.55
2/26/2021 3:30:00 AM 4.21 39.578 0.227 7.38 11.82 12.55
2/26/2021 3:45:00 AM 4.19 39.542 0.226 7.38 10.12 12.54
2/26/2021 4:00:00 AM 4.14 39.452 0.226 7.37 10.76 12.58
2/26/2021 4:15:00 AM 4.11 39.398 0.229 7.39 10.25 12.59
2/26/2021 4:30:00 AM 4.12 39.416 0.23 7.37 12.64 12.6
2/26/2021 4:45:00 AM 4.07 39.326 0.228 7.38 10.99 12.61
2/26/2021 5:00:00 AM 4.07 39.326 0.22 7.38 12.89 12.62
2/26/2021 5:15:00 AM 4.04 39.272 0.225 7.38 11.69 12.62
2/26/2021 5:30:00 AM 4.04 39.272 0.225 7.36 9.6 12.63
2/26/2021 5:45:00 AM 4.04 39.272 0.225 7.38 10.22 12.65
2/26/2021 6:00:00 AM 3.97 39.146 0.225 7.37 12.97 12.67
2/26/2021 6:15:00 AM 3.94 39.092 0.221 7.37 11.81 12.68
2/26/2021 6:30:00 AM 3.92 39.056 0.223 7.37 10.76 12.69
2/26/2021 6:45:00 AM 3.87 38.966 0.222 7.37 11.15 12.73
2/26/2021 7:00:00 AM 3.81 38.858 0.224 7.38 9.81 12.76
2/26/2021 7:15:00 AM 3.78 38.804 0.225 7.37 10.09 12.79
2/26/2021 7:30:00 AM 3.74 38.732 0.224 7.36 9.31 12.87
2/26/2021 7:45:00 AM 3.72 38.696 0.223 7.36 9.19 12.95
2/26/2021 8:00:00 AM 3.73 38.714 0.223 7.37 9.04 13.08
2/26/2021 8:15:00 AM 3.73 38.714 0.222 7.38 9.08 13.2
2/26/2021 8:30:00 AM 3.74 38.732 0.223 7.39 8.2 13.32
2/26/2021 8:45:00 AM 3.77 38.786 0.222 7.4 8.26 13.44
2/26/2021 9:00:00 AM 3.83 38.894 0.223 7.4 9.36 13.55
2/26/2021 9:15:00 AM 3.87 38.966 0.223 7.41 7.57 13.64
2/26/2021 9:30:00 AM 3.95 39.11 0.225 7.42 8.53 13.72
2/26/2021 9:45:00 AM 4.01 39.218 0.225 7.45 7.48 13.81
2/26/2021 10:00:00 AM 4.09 39.362 0.225 7.46 7.37 13.9
2/26/2021 10:15:00 AM 4.17 39.506 0.223 7.49 6.86 13.99
2/26/2021 10:30:00 AM 4.25 39.65 0.222 7.5 7.55 14.05
2/26/2021 10:45:00 AM 4.33 39.794 0.222 7.53 7.01 14.13
2/26/2021 11:00:00 AM 4.4 39.92 0.222 7.54 7.73 14.19
2/26/2021 11:15:00 AM 4.49 40.082 0.219 7.55 6.73 14.26
2/26/2021 11:30:00 AM 4.58 40.244 0.222 7.57 6.89 14.32
2/26/2021 11:45:00 AM 4.68 40.424 0.22 7.59 10.94 14.36
2/26/2021 12:00:00 PM 4.75 40.55 0.222 7.61 6.41 14.42
2/26/2021 12:15:00 PM 4.83 40.694 0.221 7.6 6.12 14.45
2/26/2021 12:30:00 PM 4.86 40.748 0.222 7.62 6.48 14.5
2/26/2021 12:45:00 PM 4.9 40.82 0.219 7.64 6.37 14.51
2/26/2021 1:00:00 PM 4.95 40.91 0.218 7.65 6.28 14.52
2/26/2021 1:15:00 PM 4.97 40.946 0.219 7.67 7.06 14.53
2/26/2021 1:30:00 PM 5 41 0.22 7.67 5.84 14.56
2/26/2021 1:45:00 PM 5.05 41.09 0.22 7.65 6.44 14.57
2/26/2021 2:00:00 PM 5.05 41.09 0.221 7.66 6.28 14.58
2/26/2021 2:15:00 PM 5.07 41.126 0.222 7.66 6.1 14.58
2/26/2021 2:30:00 PM 5.09 41.162 0.224 7.69 7.93 14.58
2/26/2021 2:45:00 PM 5.1 41.18 0.223 7.7 5.48 14.58
2/26/2021 3:00:00 PM 5.16 41.288 0.223 7.7 5.36 14.57
2/26/2021 3:15:00 PM 5.16 41.288 0.222 7.71 5.79 14.56
2/26/2021 3:30:00 PM 5.15 41.27 0.219 7.73 5.12 14.52
2/26/2021 3:45:00 PM 5.09 41.162 0.222 7.73 5.28 14.48
2/26/2021 4:00:00 PM 5.06 41.108 0.221 7.74 4.8 14.43
2/26/2021 4:15:00 PM 5.06 41.108 0.221 7.76 5.63 14.39
2/26/2021 4:30:00 PM 5.05 41.09 0.222 7.75 4.9 14.3
2/26/2021 4:45:00 PM 5.05 41.09 0.222 7.74 5.36 14.21
2/26/2021 5:00:00 PM 5.06 41.108 0.223 7.75 5.45 14.09
2/26/2021 5:15:00 PM 4.99 40.982 0.222 7.73 5.46 13.96
2/26/2021 5:30:00 PM 5 41 0.222 7.71 5.65 13.84
2/26/2021 5:45:00 PM 4.93 40.874 0.222 7.7 5.37 13.7
2/26/2021 6:00:00 PM 4.91 40.838 0.221 7.69 6.45 13.55
2/26/2021 6:15:00 PM 4.93 40.874 0.221 7.67 5.67 13.43
2/26/2021 6:30:00 PM 4.93 40.874 0.219 7.67 5.14 13.3
2/26/2021 6:45:00 PM 4.95 40.91 0.208 7.65 9.27 13.24
2/26/2021 7:00:00 PM 4.95 40.91 0.214 7.63 5.08 13.15
2/26/2021 7:15:00 PM 4.92 40.856 0.213 7.62 6.61 13.09
2/26/2021 7:30:00 PM 4.96 40.928 0.211 7.6 5.34 13.02
2/26/2021 7:45:00 PM 4.96 40.928 0.211 7.6 5.43 12.97
2/26/2021 8:00:00 PM 4.98 40.964 0.223 7.59 5.8 12.93
2/26/2021 8:15:00 PM 5.01 41.018 0.225 7.57 5.29 12.88
2/26/2021 8:30:00 PM 4.93 40.874 0.216 7.57 5.37 12.87
2/26/2021 8:45:00 PM 4.96 40.928 0.218 7.57 5.81 12.81
2/26/2021 9:00:00 PM 4.92 40.856 0.221 7.55 5.19 12.79
2/26/2021 9:15:00 PM 4.94 40.892 0.203 7.55 4.93 12.77
2/26/2021 9:30:00 PM 4.94 40.892 0.22 7.55 5.32 12.72
2/26/2021 9:45:00 PM 4.89 40.802 0.218 7.55 8.49 12.7
2/26/2021 10:00:00 PM 4.93 40.874 0.212 7.55 7.11 12.69
2/26/2021 10:15:00 PM 4.98 40.964 0.215 7.53 5.31 12.65
2/26/2021 10:30:00 PM 4.91 40.838 0.214 7.53 6.16 12.65
2/26/2021 10:45:00 PM 4.87 40.766 0.217 7.52 5.31 12.61
2/26/2021 11:00:00 PM 4.88 40.784 0.21 7.54 5.77 12.6
2/26/2021 11:15:00 PM 4.87 40.766 0.208 7.52 5.93 12.57
2/26/2021 11:30:00 PM 4.78 40.604 0.211 7.52 5.82 12.54
2/26/2021 11:45:00 PM 4.74 40.532 0.214 7.52 6.5 12.51
2/27/2021 12:00:00 AM 4.71 40.478 0.212 7.51 6.84 12.51
2/27/2021 12:15:00 AM 4.69 40.442 0.207 7.51 5.39 12.51
2/27/2021 12:30:00 AM 4.63 40.334 0.205 7.51 5.38 12.5
2/27/2021 12:45:00 AM 4.64 40.352 0.206 7.49 5.77 12.47
2/27/2021 1:00:00 AM 4.64 40.352 0.206 7.5 6.12 12.47
2/27/2021 1:15:00 AM 4.68 40.424 0.208 7.5 5.65 12.45
2/27/2021 1:30:00 AM 4.58 40.244 0.202 7.49 6.26 12.45
2/27/2021 1:45:00 AM 4.53 40.154 0.21 7.49 6.34 12.45
2/27/2021 2:00:00 AM 4.52 40.136 0.211 7.49 6.67 12.45
2/27/2021 2:15:00 AM 4.52 40.136 0.211 7.49 6.53 12.41
2/27/2021 2:30:00 AM 4.5 40.1 0.21 7.47 5.81 12.44
2/27/2021 2:45:00 AM 4.48 40.064 0.211 7.47 6.49 12.45
2/27/2021 3:00:00 AM 4.52 40.136 0.21 7.49 6.05 12.43
2/27/2021 3:15:00 AM 4.54 40.172 0.207 7.48 7.33 12.43
2/27/2021 3:30:00 AM 4.53 40.154 0.208 7.47 6.3 12.43
2/27/2021 3:45:00 AM 4.5 40.1 0.208 7.47 7.29 12.42
2/27/2021 4:00:00 AM 4.48 40.064 0.206 7.45 6.38 12.43
2/27/2021 4:15:00 AM 4.48 40.064 0.207 7.46 6.4 12.43
2/27/2021 4:30:00 AM 4.47 40.046 0.21 7.47 6.88 12.43
2/27/2021 4:45:00 AM 4.44 39.992 0.209 7.48 6.67 12.41
2/27/2021 5:00:00 AM 4.46 40.028 0.209 7.46 6.95 12.45
2/27/2021 5:15:00 AM 4.46 40.028 0.209 7.47 6.58 12.43
2/27/2021 5:30:00 AM 4.44 39.992 0.209 7.47 6.34 12.42
2/27/2021 5:45:00 AM 4.43 39.974 0.214 7.47 5.84 12.43
2/27/2021 6:00:00 AM 4.42 39.956 0.205 7.43 7.64 12.44
2/27/2021 6:15:00 AM 4.39 39.902 0.204 7.45 7.3 12.44
2/27/2021 6:30:00 AM 4.4 39.92 0.203 7.45 6.96 12.44
2/27/2021 6:45:00 AM 4.37 39.866 0.204 7.45 8.36 12.44
2/27/2021 7:00:00 AM 4.36 39.848 0.207 7.45 7.75 12.46
2/27/2021 7:15:00 AM 4.35 39.83 0.207 7.44 8.42 12.47
2/27/2021 7:30:00 AM 4.35 39.83 0.204 7.45 8.12 12.49
2/27/2021 7:45:00 AM 4.34 39.812 0.203 7.45 8.38 12.53
2/27/2021 8:00:00 AM 4.31 39.758 0.204 7.45 7.64 12.57
2/27/2021 8:15:00 AM 4.3 39.74 0.203 7.45 7.79 12.65
2/27/2021 8:30:00 AM 4.29 39.722 0.203 7.44 8.87 12.7
2/27/2021 8:45:00 AM 4.29 39.722 0.204 7.46 7.4 12.78
2/27/2021 9:00:00 AM 4.29 39.722 0.205 7.48 7.76 12.84
2/27/2021 9:15:00 AM 4.32 39.776 0.205 7.45 9.21 12.91
2/27/2021 9:30:00 AM 4.31 39.758 0.205 7.46 9.65 12.99
2/27/2021 9:45:00 AM 4.33 39.794 0.204 7.47 8.45 13.08
2/27/2021 10:00:00 AM 4.36 39.848 0.204 7.48 8.86 13.19
2/27/2021 10:15:00 AM 4.37 39.866 0.203 7.49 10.24 13.27
2/27/2021 10:30:00 AM 4.38 39.884 0.202 7.5 8.42 13.37
2/27/2021 10:45:00 AM 4.4 39.92 0.204 7.51 8.86 13.44
2/27/2021 11:00:00 AM 4.44 39.992 0.203 7.52 9.48 13.5
2/27/2021 11:15:00 AM 4.47 40.046 0.202 7.53 9.04 13.56
2/27/2021 11:30:00 AM 4.52 40.136 0.202 7.54 9.31 13.64
2/27/2021 11:45:00 AM 4.55 40.19 0.203 7.54 9.94 13.68
2/27/2021 12:00:00 PM 4.6 40.28 0.203 7.56 9.52 13.74
2/27/2021 12:15:00 PM 4.61 40.298 0.203 7.55 9.8 13.75
2/27/2021 12:30:00 PM 4.64 40.352 0.203 7.56 9.71 13.8
2/27/2021 12:45:00 PM 4.67 40.406 0.204 7.58 9.81 13.81
2/27/2021 1:00:00 PM 4.68 40.424 0.205 7.58 9.65 13.84
2/27/2021 1:15:00 PM 4.74 40.532 0.205 7.58 9.93 13.89
2/27/2021 1:30:00 PM 4.76 40.568 0.205 7.6 10.93 13.89
2/27/2021 1:45:00 PM 4.8 40.64 0.205 7.59 10.13 13.89
2/27/2021 2:00:00 PM 4.85 40.73 0.205 7.61 11.23 13.94
2/27/2021 2:15:00 PM 4.95 40.91 0.204 7.61 12.63 13.99
2/27/2021 2:30:00 PM 4.99 40.982 0.202 7.63 11.99 14
2/27/2021 2:45:00 PM 5 41 0.202 7.62 11.95 14
2/27/2021 3:00:00 PM 5.04 41.072 0.203 7.63 11.28 13.98
2/27/2021 3:15:00 PM 5.14 41.252 0.2 7.63 11.19 14.01
2/27/2021 3:30:00 PM 5.18 41.324 0.2 7.64 11.42 13.96
2/27/2021 3:45:00 PM 5.2 41.36 0.199 7.65 11.69 13.94
2/27/2021 4:00:00 PM 5.18 41.324 0.199 7.66 11.36 13.86
2/27/2021 4:15:00 PM 5.23 41.414 0.201 7.68 14.01 13.82
2/27/2021 4:30:00 PM 5.21 41.378 0.202 7.67 11.51 13.74
2/27/2021 4:45:00 PM 5.2 41.36 0.202 7.66 11.97 13.68
2/27/2021 5:00:00 PM 5.19 41.342 0.201 7.61 11.36 13.61
2/27/2021 5:15:00 PM 5.19 41.342 0.201 7.65 12.25 13.53
2/27/2021 5:30:00 PM 5.22 41.396 0.203 7.65 12.9 13.43
2/27/2021 5:45:00 PM 5.19 41.342 0.206 7.64 11.65 13.32
2/27/2021 6:00:00 PM 5.19 41.342 0.204 7.64 11.85 13.23
2/27/2021 6:15:00 PM 5.18 41.324 0.206 7.62 12.36 13.12
2/27/2021 6:30:00 PM 5.18 41.324 0.232 7.62 12.13 13.02
2/27/2021 6:45:00 PM 5.2 41.36 0.209 7.61 13.79 12.95
2/27/2021 7:00:00 PM 5.19 41.342 0.205 7.6 12.98 12.9
2/27/2021 7:15:00 PM 5.21 41.378 0.209 7.6 14.81 12.85
2/27/2021 7:30:00 PM 5.21 41.378 0.21 7.6 12.67 12.82
2/27/2021 7:45:00 PM 5.19 41.342 0.205 7.6 16.15 12.8
2/27/2021 8:00:00 PM 5.24 41.432 0.205 7.58 20.08 12.75
2/27/2021 8:15:00 PM 5.19 41.342 0.208 7.58 18.23 12.76
2/27/2021 8:30:00 PM 5.17 41.306 0.209 7.58 16.56 12.73
2/27/2021 8:45:00 PM 5.17 41.306 0.21 7.5 17.82 12.68
2/27/2021 9:00:00 PM 5.17 41.306 0.208 7.58 19.5 12.66
2/27/2021 9:15:00 PM 5.18 41.324 0.209 7.58 18.71 12.63
2/27/2021 9:30:00 PM 5.13 41.234 0.212 7.56 21.09 12.62
2/27/2021 9:45:00 PM 5.13 41.234 0.209 7.56 23.39 12.57
2/27/2021 10:00:00 PM 5.12 41.216 0.207 7.55 25 12.54
2/27/2021 10:15:00 PM 5.11 41.198 0.207 7.56 29.97 12.53
2/27/2021 10:30:00 PM 5.06 41.108 0.212 7.56 25.16 12.52
2/27/2021 10:45:00 PM 5.07 41.126 0.209 7.54 28 12.5
2/27/2021 11:00:00 PM 5.06 41.108 0.205 7.55 24.33 12.47
2/27/2021 11:15:00 PM 5.02 41.036 0.205 7.55 25.07 12.45
2/27/2021 11:30:00 PM 5.01 41.018 0.207 7.54 24.08 12.44
2/27/2021 11:45:00 PM 5.03 41.054 0.2 7.54 29.44 12.43
2/28/2021 12:00:00 AM 5.01 41.018 0.204 7.54 30.74 12.42
2/28/2021 12:15:00 AM 5.01 41.018 0.202 7.52 26.81 12.42
2/28/2021 12:30:00 AM 4.97 40.946 0.207 7.54 32.43 12.41
2/28/2021 12:45:00 AM 4.96 40.928 0.206 7.53 32.32 12.41
2/28/2021 1:00:00 AM 4.95 40.91 0.205 7.52 25.61 12.4
2/28/2021 1:15:00 AM 4.94 40.892 0.206 7.52 27.33 12.39
2/28/2021 1:30:00 AM 4.92 40.856 0.204 7.52 26.79 12.4
2/28/2021 1:45:00 AM 4.92 40.856 0.205 7.52 30.33 12.41
2/28/2021 2:00:00 AM 4.91 40.838 0.206 7.5 27.56 12.39
2/28/2021 2:15:00 AM 4.89 40.802 0.203 7.52 25.89 12.39
2/28/2021 2:30:00 AM 4.83 40.694 0.204 7.51 26.04 12.42
2/28/2021 2:45:00 AM 4.83 40.694 0.203 7.5 26.69 12.42
2/28/2021 3:00:00 AM 4.82 40.676 0.202 7.5 21.8 12.43
2/28/2021 3:15:00 AM 4.8 40.64 0.205 7.49 23.73 12.42
2/28/2021 3:30:00 AM 4.78 40.604 0.2 7.49 22.33 12.41
2/28/2021 3:45:00 AM 4.74 40.532 0.201 7.49 22.3 12.45
2/28/2021 4:00:00 AM 4.73 40.514 0.201 7.46 23.09 12.45
2/28/2021 4:15:00 AM 4.7 40.46 0.199 7.49 24.28 12.45
2/28/2021 4:30:00 AM 4.7 40.46 0.199 7.48 21.63 12.45
2/28/2021 4:45:00 AM 4.68 40.424 0.2 7.49 22.56 12.47
2/28/2021 5:00:00 AM 4.67 40.406 0.2 7.48 25.24 12.47
2/28/2021 5:15:00 AM 4.66 40.388 0.199 7.47 22.76 12.47
2/28/2021 5:30:00 AM 4.64 40.352 0.201 7.48 19.95 12.48
2/28/2021 5:45:00 AM 4.62 40.316 0.2 7.48 22.1 12.48
2/28/2021 6:00:00 AM 4.62 40.316 0.199 7.49 19.68 12.49
2/28/2021 6:15:00 AM 4.61 40.298 0.198 7.48 19.54 12.51
2/28/2021 6:30:00 AM 4.58 40.244 0.199 7.48 23.16 12.52
2/28/2021 6:45:00 AM 4.56 40.208 0.2 7.49 18.86 12.51
2/28/2021 7:00:00 AM 4.57 40.226 0.198 7.48 17.99 12.52
2/28/2021 7:15:00 AM 4.54 40.172 0.199 7.48 17.26 12.54
2/28/2021 7:30:00 AM 4.56 40.208 0.199 7.48 16.66 12.56
2/28/2021 7:45:00 AM 4.5 40.1 0.199 7.48 16.54 12.61
2/28/2021 8:00:00 AM 4.52 40.136 0.197 7.48 16.23 12.62
2/28/2021 8:15:00 AM 4.5 40.1 0.197 7.48 15.71 12.67
2/28/2021 8:30:00 AM 4.52 40.136 0.199 7.48 15.79 12.72
2/28/2021 8:45:00 AM 4.52 40.136 0.218 7.48 13.72 12.78
2/28/2021 9:00:00 AM 4.53 40.154 0.216 7.48 15.19 12.8
2/28/2021 9:15:00 AM 4.54 40.172 0.215 7.49 12.65 12.83
2/28/2021 9:30:00 AM 4.54 40.172 0.218 7.49 14.43 12.87
2/28/2021 9:45:00 AM 4.54 40.172 0.223 7.49 14.37 12.87
2/28/2021 10:00:00 AM 4.54 40.172 0.201 7.49 12.54 12.9
2/28/2021 10:15:00 AM 4.53 40.154 0.202 7.49 12.96 12.93
2/28/2021 10:30:00 AM 4.56 40.208 0.199 7.49 12.91 12.96